Provisional Data: Snake Creek near Lawsville Center, PA


Please select a monitoring station.
Please select start date.
Please select start date.

Toggle Unit: C/F Toggle Unit: C/F
Sample Time Temperature (C) Temperature (F) Specific Conductivity (mS/cm) pH   Turbidity (NTU+) DO (mg/L)
9/6/2021 12:00:00 AM 17.13 62.834 0.111 7.2 4.51 8.66
9/6/2021 12:15:00 AM 17.11 62.798 0.111 7.2 4.48 8.67
9/6/2021 12:30:00 AM 17.08 62.744 0.111 7.2 4.52 8.66
9/6/2021 12:45:00 AM 17.05 62.69 0.111 7.18 4.36 8.68
9/6/2021 1:00:00 AM 17.01 62.618 0.112 7.21 4.3 8.69
9/6/2021 1:15:00 AM 16.99 62.582 0.112 7.2 4.22 8.68
9/6/2021 1:30:00 AM 16.95 62.51 0.112 7.21 4.26 8.7
9/6/2021 1:45:00 AM 16.9 62.42 0.112 7.21 4.42 8.71
9/6/2021 2:00:00 AM 16.84 62.312 0.112 7.21 4.34 8.73
9/6/2021 2:15:00 AM 16.81 62.258 0.112 7.21 4.25 8.74
9/6/2021 2:30:00 AM 16.76 62.168 0.112 7.21 4.37 8.74
9/6/2021 2:45:00 AM 16.7 62.06 0.112 7.19 4.13 8.75
9/6/2021 3:00:00 AM 16.63 61.934 0.112 7.21 4.32 8.77
9/6/2021 3:15:00 AM 16.56 61.808 0.112 7.21 4.4 8.78
9/6/2021 3:30:00 AM 16.5 61.7 0.112 7.2 4.57 8.79
9/6/2021 3:45:00 AM 16.45 61.61 0.112 7.2 4.25 8.8
9/6/2021 4:00:00 AM 16.4 61.52 0.112 7.21 4.16 8.81
9/6/2021 4:15:00 AM 16.35 61.43 0.112 7.19 4.37 8.81
9/6/2021 4:30:00 AM 16.3 61.34 0.112 7.2 4.24 8.83
9/6/2021 4:45:00 AM 16.24 61.232 0.112 7.2 4.18 8.84
9/6/2021 5:00:00 AM 16.2 61.16 0.112 7.19 4.18 8.84
9/6/2021 5:15:00 AM 16.14 61.052 0.112 7.2 4.37 8.86
9/6/2021 5:30:00 AM 16.09 60.962 0.112 7.2 4.17 8.87
9/6/2021 5:45:00 AM 16.02 60.836 0.112 7.2 4.52 8.88
9/6/2021 6:00:00 AM 15.96 60.728 0.112 7.2 6.67 8.89
9/6/2021 6:15:00 AM 15.89 60.602 0.113 7.2 5.29 8.92
9/6/2021 6:30:00 AM 15.83 60.494 0.113 7.2 4.85 8.93
9/6/2021 6:45:00 AM 15.77 60.386 0.113 7.19 8.32 8.92
9/6/2021 7:00:00 AM 15.71 60.278 0.113 7.2 6.4 8.97
9/6/2021 7:15:00 AM 15.66 60.188 0.113 7.21 5.26 9
9/6/2021 7:30:00 AM 15.61 60.098 0.113 7.21 5.7 9.08
9/6/2021 7:45:00 AM 15.57 60.026 0.113 7.21 5.35 9.15
9/6/2021 8:00:00 AM 15.53 59.954 0.113 7.23 4.96 9.25
9/6/2021 8:15:00 AM 15.49 59.882 0.113 7.24 5.08 9.33
9/6/2021 8:30:00 AM 15.47 59.846 0.113 7.25 7.2 9.39
9/6/2021 8:45:00 AM 15.46 59.828 0.112 7.27 4.27 9.47
9/6/2021 9:00:00 AM 15.47 59.846 0.112 7.29 4.15 9.56
9/6/2021 9:15:00 AM 15.51 59.918 0.112 7.3 3.93 9.66
9/6/2021 9:30:00 AM 15.56 60.008 0.112 7.33 3.9 9.74
9/6/2021 9:45:00 AM 15.63 60.134 0.112 7.35 3.88 9.87
9/6/2021 10:00:00 AM 15.75 60.35 0.112 7.39 3.8 9.97
9/6/2021 10:15:00 AM 15.9 60.62 0.112 7.42 3.78 10.05
9/6/2021 10:30:00 AM 16.02 60.836 0.111 7.43 3.69 10.07
9/6/2021 10:45:00 AM 16.14 61.052 0.111 7.46 3.61 10.15
9/6/2021 11:00:00 AM 16.25 61.25 0.111 7.49 3.71 10.25
9/6/2021 11:15:00 AM 16.41 61.538 0.111 7.54 3.56 10.33
9/6/2021 11:30:00 AM 16.64 61.952 0.111 7.58 3.66 10.36
9/6/2021 11:45:00 AM 16.87 62.366 0.11 7.61 3.75 10.38
9/6/2021 12:00:00 PM 17.11 62.798 0.11 7.63 3.57 10.32
9/6/2021 12:15:00 PM 17.24 63.032 0.11 7.64 3.7 10.28
9/6/2021 12:30:00 PM 17.3 63.14 0.11 7.65 3.63 10.23
9/6/2021 12:45:00 PM 17.44 63.392 0.11 7.66 3.62 10.22
9/6/2021 1:00:00 PM 17.73 63.914 0.11 7.69 3.52 10.2
9/6/2021 1:15:00 PM 18.09 64.562 0.11 7.73 3.45 10.23
9/6/2021 1:30:00 PM 18.42 65.156 0.11 7.75 3.48 10.22
9/6/2021 1:45:00 PM 18.69 65.642 0.11 7.8 3.93 10.19
9/6/2021 2:00:00 PM 18.78 65.804 0.11 7.79 3.52 10.14
9/6/2021 2:15:00 PM 18.82 65.876 0.11 7.78 3.63 10
9/6/2021 2:30:00 PM 18.84 65.912 0.11 7.75 3.81 9.88
9/6/2021 2:45:00 PM 18.94 66.092 0.109 7.73 4.09 9.86
9/6/2021 3:00:00 PM 19.12 66.416 0.109 7.76 3.84 9.91
9/6/2021 3:15:00 PM 19.3 66.74 0.109 7.79 3.53 9.94
9/6/2021 3:30:00 PM 19.44 66.992 0.109 7.8 3.54 9.96
9/6/2021 3:45:00 PM 19.55 67.19 0.109 7.82 3.75 9.93
9/6/2021 4:00:00 PM 19.63 67.334 0.109 7.83 3.71 9.94
9/6/2021 4:15:00 PM 19.68 67.424 0.109 7.83 3.67 9.86
9/6/2021 4:30:00 PM 19.71 67.478 0.109 7.82 3.79 9.86
9/6/2021 4:45:00 PM 19.68 67.424 0.109 7.81 3.72 9.82
9/6/2021 5:00:00 PM 19.62 67.316 0.109 7.78 3.8 9.74
9/6/2021 5:15:00 PM 19.54 67.172 0.11 7.74 3.9 9.68
9/6/2021 5:30:00 PM 19.44 66.992 0.11 7.71 3.62 9.58
9/6/2021 5:45:00 PM 19.35 66.83 0.11 7.66 3.9 9.51
9/6/2021 6:00:00 PM 19.27 66.686 0.11 7.64 3.33 9.46
9/6/2021 6:15:00 PM 19.2 66.56 0.11 7.61 3.54 9.39
9/6/2021 6:30:00 PM 19.1 66.38 0.11 7.56 3.45 9.24
9/6/2021 6:45:00 PM 18.97 66.146 0.11 7.5 3.4 9.1
9/6/2021 7:00:00 PM 18.87 65.966 0.11 7.45 3.41 8.96
9/6/2021 7:15:00 PM 18.77 65.786 0.111 7.42 3.46 8.85
9/6/2021 7:30:00 PM 18.64 65.552 0.111 7.37 4.73 8.72
9/6/2021 7:45:00 PM 18.52 65.336 0.111 7.34 3.69 8.61
9/6/2021 8:00:00 PM 18.39 65.102 0.111 7.31 3.86 8.55
9/6/2021 8:15:00 PM 18.27 64.886 0.111 7.29 4.01 8.48
9/6/2021 8:30:00 PM 18.16 64.688 0.111 7.27 3.92 8.44
9/6/2021 8:45:00 PM 18.03 64.454 0.111 7.25 3.94 8.44
9/6/2021 9:00:00 PM 17.92 64.256 0.111 7.24 3.98 8.43
9/6/2021 9:15:00 PM 17.8 64.04 0.111 7.24 3.7 8.42
9/6/2021 9:30:00 PM 17.7 63.86 0.111 7.23 4.19 8.43
9/6/2021 9:45:00 PM 17.6 63.68 0.112 7.23 4.64 8.46
9/6/2021 10:00:00 PM 17.48 63.464 0.112 7.22 4.18 8.48
9/6/2021 10:15:00 PM 17.37 63.266 0.112 7.22 3.86 8.49
9/6/2021 10:30:00 PM 17.25 63.05 0.112 7.21 3.81 8.54
9/6/2021 10:45:00 PM 17.16 62.888 0.112 7.21 3.97 8.52
9/6/2021 11:00:00 PM 17.04 62.672 0.112 7.21 4 8.58
9/6/2021 11:15:00 PM 16.93 62.474 0.112 7.21 3.88 8.59
9/6/2021 11:30:00 PM 16.83 62.294 0.112 7.21 3.98 8.61
9/6/2021 11:45:00 PM 16.73 62.114 0.112 7.2 3.78 8.61
9/7/2021 12:00:00 AM 16.62 61.916 0.112 7.2 3.89 8.64
9/7/2021 12:15:00 AM 16.51 61.718 0.112 7.2 4.18 8.69
9/7/2021 12:30:00 AM 16.42 61.556 0.113 7.19 195.98 8.7
9/7/2021 12:45:00 AM 16.31 61.358 0.113 7.2 3.99 8.72
9/7/2021 1:00:00 AM 16.21 61.178 0.113 7.2 4.04 8.75
9/7/2021 1:15:00 AM 16.11 60.998 0.113 7.2 4.21 8.78
9/7/2021 1:30:00 AM 16.01 60.818 0.113 7.19 4 8.82
9/7/2021 1:45:00 AM 15.93 60.674 0.113 7.18 4 8.83
9/7/2021 2:00:00 AM 15.84 60.512 0.113 7.19 5.17 8.85
9/7/2021 2:15:00 AM 15.75 60.35 0.113 7.19 3.96 8.86
9/7/2021 2:30:00 AM 15.67 60.206 0.113 7.19 4.65 8.88
9/7/2021 2:45:00 AM 15.58 60.044 0.113 7.19 3.92 8.91
9/7/2021 3:00:00 AM 15.5 59.9 0.113 7.19 3.9 8.93
9/7/2021 3:15:00 AM 15.43 59.774 0.114 7.19 4.1 8.93
9/7/2021 3:30:00 AM 15.35 59.63 0.114 7.18 4.83 8.95
9/7/2021 3:45:00 AM 15.27 59.486 0.114 7.19 4.16 8.98
9/7/2021 4:00:00 AM 15.2 59.36 0.114 7.18 4.26 8.99
9/7/2021 4:15:00 AM 15.12 59.216 0.114 7.18 4.62 9
9/7/2021 4:30:00 AM 15.05 59.09 0.114 7.18 5.47 9.03
9/7/2021 4:45:00 AM 14.97 58.946 0.114 7.19 4.24 9.07
9/7/2021 5:00:00 AM 14.91 58.838 0.114 7.18 4.03 9.06
9/7/2021 5:15:00 AM 14.84 58.712 0.114 7.18 5.32 9.09
9/7/2021 5:30:00 AM 14.76 58.568 0.114 7.18 5.13 9.1
9/7/2021 5:45:00 AM 14.7 58.46 0.114 7.18 7.04 9.13
9/7/2021 6:00:00 AM 14.64 58.352 0.114 7.18 5.43 9.14
9/7/2021 6:15:00 AM 14.58 58.244 0.114 7.18 4.32 9.16
9/7/2021 6:30:00 AM 14.52 58.136 0.114 7.18 4.16 9.18
9/7/2021 6:45:00 AM 14.46 58.028 0.114 7.18 4.07 9.2
9/7/2021 7:00:00 AM 14.4 57.92 0.114 7.18 4.45 9.24
9/7/2021 7:15:00 AM 14.36 57.848 0.114 7.18 3.67 9.27
9/7/2021 7:30:00 AM 14.31 57.758 0.114 7.19 3.77 9.32
9/7/2021 7:45:00 AM 14.27 57.686 0.114 7.2 3.57 9.44
9/7/2021 8:00:00 AM 14.24 57.632 0.114 7.21 3.67 9.52
9/7/2021 8:15:00 AM 14.21 57.578 0.114 7.21 3.71 9.59
9/7/2021 8:30:00 AM 14.2 57.56 0.114 7.22 3.74 9.67
9/7/2021 8:45:00 AM 14.2 57.56 0.114 7.23 3.54 9.77
9/7/2021 9:00:00 AM 14.21 57.578 0.114 7.23 3.64 9.82
9/7/2021 9:15:00 AM 14.23 57.614 0.114 7.24 3.65 9.91
9/7/2021 9:30:00 AM 14.29 57.722 0.114 7.25 3.57 9.97
9/7/2021 9:45:00 AM 14.36 57.848 0.114 7.27 3.53 10.07
9/7/2021 10:00:00 AM 14.47 58.046 0.114 7.3 3.69 10.17
9/7/2021 10:15:00 AM 14.59 58.262 0.114 7.33 3.49 10.22
9/7/2021 10:30:00 AM 14.74 58.532 0.114 7.36 3.46 10.31
9/7/2021 10:45:00 AM 14.88 58.784 0.114 7.39 3.43 10.35
9/7/2021 11:00:00 AM 15.07 59.126 0.114 7.41 3.49 10.41
9/7/2021 11:15:00 AM 15.25 59.45 0.114 7.42 3.52 10.44
9/7/2021 11:30:00 AM 15.5 59.9 0.113 7.48 3.35 10.5
9/7/2021 11:45:00 AM 15.75 60.35 0.113 7.5 3.3 10.53
9/7/2021 12:00:00 PM 16.01 60.818 0.113 7.54 3.25 10.55
9/7/2021 12:15:00 PM 16.33 61.394 0.113 7.58 3.24 10.58
9/7/2021 12:30:00 PM 16.58 61.844 0.113 7.61 3.23 10.58
9/7/2021 12:45:00 PM 16.87 62.366 0.112 7.63 3.18 10.56
9/7/2021 1:00:00 PM 17.18 62.924 0.112 7.67 3.13 10.58
9/7/2021 1:15:00 PM 17.54 63.572 0.112 7.72 3.34 10.58
9/7/2021 1:30:00 PM 17.9 64.22 0.112 7.77 3.05 10.58
9/7/2021 1:45:00 PM 18.2 64.76 0.112 7.82 3.28 10.57
9/7/2021 2:00:00 PM 18.4 65.12 0.112 7.86 3.24 10.5
9/7/2021 2:15:00 PM 18.6 65.48 0.112 7.9 3.38 10.49
9/7/2021 2:30:00 PM 18.88 65.984 0.112 7.94 3.26 10.49
9/7/2021 2:45:00 PM 19.11 66.398 0.112 7.97 3.35 10.45
9/7/2021 3:00:00 PM 19.28 66.704 0.112 7.98 5.54 10.39
9/7/2021 3:15:00 PM 19.45 67.01 0.112 7.98 3.25 10.35
9/7/2021 3:30:00 PM 19.61 67.298 0.111 8.01 3.45 10.31
9/7/2021 3:45:00 PM 19.71 67.478 0.111 8.01 3.13 10.21
9/7/2021 4:00:00 PM 19.81 67.658 0.111 8 3.22 10.15
9/7/2021 4:15:00 PM 19.89 67.802 0.111 8.01 3.22 10.1
9/7/2021 4:30:00 PM 19.95 67.91 0.111 8.01 3.26 10.06
9/7/2021 4:45:00 PM 19.95 67.91 0.112 7.97 3.36 9.97
9/7/2021 5:00:00 PM 19.92 67.856 0.112 7.92 3.19 9.9
9/7/2021 5:15:00 PM 19.87 67.766 0.112 7.89 3.21 9.79
9/7/2021 5:30:00 PM 19.78 67.604 0.112 7.84 3.29 9.74
9/7/2021 5:45:00 PM 19.68 67.424 0.112 7.77 3.35 9.6
9/7/2021 6:00:00 PM 19.53 67.154 0.112 7.71 3.14 9.51
9/7/2021 6:15:00 PM 19.4 66.92 0.112 7.65 3.19 9.39
9/7/2021 6:30:00 PM 19.27 66.686 0.113 7.58 4.06 9.24
9/7/2021 6:45:00 PM 19.12 66.416 0.113 7.51 5.03 9.09
9/7/2021 7:00:00 PM 19 66.2 0.113 7.47 5.97 8.95
9/7/2021 7:15:00 PM 18.86 65.948 0.113 7.42 5.64 8.82
9/7/2021 7:30:00 PM 18.75 65.75 0.113 7.38 4.11 8.7
9/7/2021 7:45:00 PM 18.62 65.516 0.113 7.35 4.01 8.6
9/7/2021 8:00:00 PM 18.47 65.246 0.114 7.31 3.84 8.51
9/7/2021 8:15:00 PM 18.33 64.994 0.114 7.28 3.49 8.45
9/7/2021 8:30:00 PM 18.23 64.814 0.114 7.25 3.55 8.4
9/7/2021 8:45:00 PM 18.1 64.58 0.114 7.24 3.49 8.33
9/7/2021 9:00:00 PM 17.99 64.382 0.114 7.23 3.85 8.35
9/7/2021 9:15:00 PM 17.87 64.166 0.114 7.22 3.35 8.36
9/7/2021 9:30:00 PM 17.79 64.022 0.114 7.22 3.58 8.35
9/7/2021 9:45:00 PM 17.69 63.842 0.114 7.21 3.58 8.37
9/7/2021 10:00:00 PM 17.61 63.698 0.114 7.21 3.69 8.38
9/7/2021 10:15:00 PM 17.54 63.572 0.114 7.2 3.9 8.36
9/7/2021 10:30:00 PM 17.45 63.41 0.114 7.2 3.73 8.37
9/7/2021 10:45:00 PM 17.36 63.248 0.114 7.2 3.55 8.41
9/7/2021 11:00:00 PM 17.29 63.122 0.114 7.17 3.61 8.38
9/7/2021 11:15:00 PM 17.2 62.96 0.114 7.19 3.63 8.42
9/7/2021 11:30:00 PM 17.12 62.816 0.115 7.19 3.78 8.45
9/7/2021 11:45:00 PM 17.03 62.654 0.115 7.17 3.57 8.49
9/8/2021 12:00:00 AM 16.96 62.528 0.115 7.18 3.8 8.48
9/8/2021 12:15:00 AM 16.89 62.402 0.115 7.17 3.85 8.48
9/8/2021 12:30:00 AM 16.8 62.24 0.115 7.16 9.25 8.51
9/8/2021 12:45:00 AM 16.73 62.114 0.115 7.17 6.26 8.53
9/8/2021 1:00:00 AM 16.67 62.006 0.115 7.17 4.11 8.55
9/8/2021 1:15:00 AM 16.62 61.916 0.115 7.18 4.27 8.56
9/8/2021 1:30:00 AM 16.57 61.826 0.115 7.18 4.04 8.57
9/8/2021 1:45:00 AM 16.53 61.754 0.115 7.18 4.05 8.57
9/8/2021 2:00:00 AM 16.48 61.664 0.115 7.17 3.87 8.58
9/8/2021 2:15:00 AM 16.44 61.592 0.115 7.18 3.74 8.61
9/8/2021 2:30:00 AM 16.4 61.52 0.115 7.17 3.85 8.61
9/8/2021 2:45:00 AM 16.36 61.448 0.115 7.18 4.25 8.61
9/8/2021 3:00:00 AM 16.31 61.358 0.115 7.15 3.76 8.66
9/8/2021 3:15:00 AM 16.27 61.286 0.115 7.16 4.01 8.65
9/8/2021 3:30:00 AM 16.23 61.214 0.116 7.16 3.83 8.65
9/8/2021 3:45:00 AM 16.18 61.124 0.116 7.17 3.93 8.66
9/8/2021 4:00:00 AM 16.13 61.034 0.116 7.17 3.9 8.66
9/8/2021 4:15:00 AM 16.1 60.98 0.116 7.14 4.21 8.66
9/8/2021 4:30:00 AM 16.05 60.89 0.116 7.17 4 8.7
9/8/2021 4:45:00 AM 16 60.8 0.116 7.17 4.65 8.71
9/8/2021 5:00:00 AM 15.96 60.728 0.116 7.16 4.61 8.7
9/8/2021 5:15:00 AM 15.91 60.638 0.116 7.16 5.13 8.72
9/8/2021 5:30:00 AM 15.86 60.548 0.116 7.15 5.06 8.74
9/8/2021 5:45:00 AM 15.83 60.494 0.116 7.16 4.5 8.72
9/8/2021 6:00:00 AM 15.78 60.404 0.116 7.16 3.95 8.75
9/8/2021 6:15:00 AM 15.73 60.314 0.117 7.16 4.09 8.76
9/8/2021 6:30:00 AM 15.7 60.26 0.117 7.16 3.89 8.76
9/8/2021 6:45:00 AM 15.66 60.188 0.117 7.17 3.89 8.77
9/8/2021 7:00:00 AM 15.62 60.116 0.117 7.15 3.73 8.78
9/8/2021 7:15:00 AM 15.59 60.062 0.117 7.17 3.6 8.84
9/8/2021 7:30:00 AM 15.57 60.026 0.117 7.18 3.61 8.93
9/8/2021 7:45:00 AM 15.58 60.044 0.117 7.2 3.57 9.08
9/8/2021 8:00:00 AM 15.61 60.098 0.117 7.22 3.68 9.27
9/8/2021 8:15:00 AM 15.63 60.134 0.117 7.25 3.49 9.42
9/8/2021 8:30:00 AM 15.67 60.206 0.117 7.27 3.6 9.53
9/8/2021 8:45:00 AM 15.73 60.314 0.116 7.3 3.62 9.7
9/8/2021 9:00:00 AM 15.77 60.386 0.116 7.32 3.49 9.83
9/8/2021 9:15:00 AM 15.83 60.494 0.116 7.38 3.33 9.98
9/8/2021 9:30:00 AM 15.9 60.62 0.116 7.41 3.31 10.09
9/8/2021 9:45:00 AM 15.98 60.764 0.116 7.45 3.51 10.21
9/8/2021 10:00:00 AM 16.1 60.98 0.116 7.49 3.8 10.33
9/8/2021 10:15:00 AM 16.24 61.232 0.115 7.52 3.53 10.39
9/8/2021 10:30:00 AM 16.43 61.574 0.115 7.57 3.44 10.49
9/8/2021 10:45:00 AM 16.6 61.88 0.115 7.61 3.37 10.51
9/8/2021 11:00:00 AM 16.75 62.15 0.115 7.62 3.41 10.51
9/8/2021 11:15:00 AM 16.94 62.492 0.115 7.66 3.58 10.53
9/8/2021 11:30:00 AM 17.11 62.798 0.115 7.68 3.37 10.54
9/8/2021 11:45:00 AM 17.32 63.176 0.114 7.71 3.18 10.53
9/8/2021 12:00:00 PM 17.55 63.59 0.114 7.74 3.18 10.52
9/8/2021 12:15:00 PM 17.75 63.95 0.114 7.78 3.21 10.53
9/8/2021 12:30:00 PM 17.96 64.328 0.114 7.81 3.26 10.56
9/8/2021 12:45:00 PM 18.18 64.724 0.114 7.87 3.25 10.57
9/8/2021 1:00:00 PM 18.45 65.21 0.114 7.95 3.2 10.63
9/8/2021 1:15:00 PM 18.7 65.66 0.114 8.02 3.64 10.62
9/8/2021 1:30:00 PM 18.94 66.092 0.114 8.11 3.33 10.61
9/8/2021 1:45:00 PM 19.16 66.488 0.113 8.17 3.25 10.64
9/8/2021 2:00:00 PM 19.39 66.902 0.113 8.26 3.21 10.62
9/8/2021 2:15:00 PM 19.57 67.226 0.113 8.32 3.21 10.61
9/8/2021 2:30:00 PM 19.77 67.586 0.113 8.37 3.32 10.6
9/8/2021 2:45:00 PM 19.9 67.82 0.113 8.42 3.1 10.53
9/8/2021 3:00:00 PM 20.02 68.036 0.113 8.44 3.38 10.48
9/8/2021 3:15:00 PM 20.15 68.27 0.113 8.45 3.23 10.41
9/8/2021 3:30:00 PM 20.27 68.486 0.113 8.49 3.22 10.39
9/8/2021 3:45:00 PM 20.31 68.558 0.113 8.47 3.23 10.32
9/8/2021 4:00:00 PM 20.33 68.594 0.113 8.44 3.3 10.13
9/8/2021 4:15:00 PM 20.31 68.558 0.113 8.35 3.41 9.98
9/8/2021 4:30:00 PM 20.23 68.414 0.113 8.15 3.34 9.65
9/8/2021 4:45:00 PM 20.12 68.216 0.114 7.9 3.52 9.27
9/8/2021 5:00:00 PM 20.01 68.018 0.114 7.7 3.27 8.92
9/8/2021 5:15:00 PM 19.93 67.874 0.114 7.59 3.4 8.78
9/8/2021 5:30:00 PM 19.84 67.712 0.114 7.51 3.52 8.66
9/8/2021 5:45:00 PM 19.75 67.55 0.114 7.46 3.43 8.51
9/8/2021 6:00:00 PM 19.65 67.37 0.114 7.41 3.61 8.4
9/8/2021 6:15:00 PM 19.56 67.208 0.113 7.38 3.74 8.31
9/8/2021 6:30:00 PM 19.47 67.046 0.113 7.34 3.71 8.23
9/8/2021 6:45:00 PM 19.39 66.902 0.113 7.33 3.71 8.19
9/8/2021 7:00:00 PM 19.3 66.74 0.113 7.3 3.93 8.18
9/8/2021 7:15:00 PM 19.21 66.578 0.112 7.29 6.29 8.11
9/8/2021 7:30:00 PM 19.12 66.416 0.112 7.28 8.1 8.14
9/8/2021 7:45:00 PM 19.02 66.236 0.112 7.28 10.2 8.13
9/8/2021 8:00:00 PM 18.94 66.092 0.112 7.28 11.35 8.16
9/8/2021 8:15:00 PM 18.84 65.912 0.112 7.29 12.35 8.22
9/8/2021 8:30:00 PM 18.74 65.732 0.112 7.3 18.79 8.28
9/8/2021 8:45:00 PM 18.64 65.552 0.112 7.33 27.59 8.35
9/8/2021 9:00:00 PM 18.56 65.408 0.114 7.34 25.67 8.43
9/8/2021 9:15:00 PM 18.46 65.228 0.117 7.34 31.79 8.48
9/8/2021 9:30:00 PM 18.34 65.012 0.119 7.36 24.69 8.55
9/8/2021 9:45:00 PM 18.21 64.778 0.12 7.36 38.92 8.6
9/8/2021 10:00:00 PM 18.1 64.58 0.119 7.36 45.01 8.64
9/8/2021 10:15:00 PM 18 64.4 0.116 7.36 41.86 8.68
9/8/2021 10:30:00 PM 17.91 64.238 0.113 7.34 40.44 8.7
9/8/2021 10:45:00 PM 17.83 64.094 0.111 7.33 34.98 8.72
9/8/2021 11:00:00 PM 17.76 63.968 0.11 7.32 31.64 8.73
9/8/2021 11:15:00 PM 17.7 63.86 0.109 7.33 32.04 8.74
9/8/2021 11:30:00 PM 17.65 63.77 0.108 7.33 28.4 8.74
9/8/2021 11:45:00 PM 17.6 63.68 0.107 7.33 24.48 8.75
9/9/2021 12:00:00 AM 17.55 63.59 0.107 7.33 21.71 8.76
9/9/2021 12:15:00 AM 17.52 63.536 0.107 7.33 20.52 8.78
9/9/2021 12:30:00 AM 17.49 63.482 0.108 7.32 19.01 8.76
9/9/2021 12:45:00 AM 17.45 63.41 0.108 7.31 17.56 8.77
9/9/2021 1:00:00 AM 17.41 63.338 0.107 7.31 16.42 8.78
9/9/2021 1:15:00 AM 17.37 63.266 0.107 7.31 15.4 8.77
9/9/2021 1:30:00 AM 17.34 63.212 0.107 7.3 14.84 8.77
9/9/2021 1:45:00 AM 17.3 63.14 0.107 7.29 13.74 8.77
9/9/2021 2:00:00 AM 17.26 63.068 0.106 7.29 13.09 8.76
9/9/2021 2:15:00 AM 17.24 63.032 0.106 7.27 12.77 8.78
9/9/2021 2:30:00 AM 17.22 62.996 0.106 7.28 12.02 8.78
9/9/2021 2:45:00 AM 17.2 62.96 0.106 7.27 11.73 8.76
9/9/2021 3:00:00 AM 17.18 62.924 0.106 7.27 10.59 8.77
9/9/2021 3:15:00 AM 17.17 62.906 0.106 7.27 11.43 8.77
9/9/2021 3:30:00 AM 17.16 62.888 0.105 7.27 10.05 8.76
9/9/2021 3:45:00 AM 17.14 62.852 0.105 7.27 9.75 8.76
9/9/2021 4:00:00 AM 17.12 62.816 0.105 7.26 9.83 8.76
9/9/2021 4:15:00 AM 17.11 62.798 0.105 7.26 9.26 8.77
9/9/2021 4:30:00 AM 17.09 62.762 0.105 7.26 8.97 8.74
9/9/2021 4:45:00 AM 17.08 62.744 0.105 7.25 8.83 8.75
9/9/2021 5:00:00 AM 17.07 62.726 0.105 7.26 8.51 8.76
9/9/2021 5:15:00 AM 17.05 62.69 0.105 7.27 8.34 8.76
9/9/2021 5:30:00 AM 17.04 62.672 0.106 7.27 8.3 8.75
9/9/2021 5:45:00 AM 17.02 62.636 0.106 7.26 8.35 8.75
9/9/2021 6:00:00 AM 17.02 62.636 0.106 7.26 8.09 8.74
9/9/2021 6:15:00 AM 17.01 62.618 0.106 7.26 8.07 8.74
9/9/2021 6:30:00 AM 17.01 62.618 0.106 7.26 7.93 8.73
9/9/2021 6:45:00 AM 17 62.6 0.106 7.26 7.4 8.74
9/9/2021 7:00:00 AM 17 62.6 0.106 7.26 8 8.74
9/9/2021 7:15:00 AM 16.99 62.582 0.106 7.27 8.02 8.75
9/9/2021 7:30:00 AM 16.99 62.582 0.107 7.27 7.15 8.77
9/9/2021 7:45:00 AM 16.99 62.582 0.107 7.28 7.18 8.82
9/9/2021 8:00:00 AM 16.99 62.582 0.107 7.29 6.26 8.89
9/9/2021 8:15:00 AM 17 62.6 0.107 7.3 6.22 8.99
9/9/2021 8:30:00 AM 17.02 62.636 0.107 7.32 5.95 9.08
9/9/2021 8:45:00 AM 17.05 62.69 0.107 7.35 5.93 9.27
9/9/2021 9:00:00 AM 17.09 62.762 0.107 7.39 5.78 9.41
9/9/2021 9:15:00 AM 17.13 62.834 0.107 7.43 5.44 9.57
9/9/2021 9:30:00 AM 17.16 62.888 0.107 7.46 5.46 9.65
9/9/2021 9:45:00 AM 17.2 62.96 0.107 7.49 4.98 9.74
9/9/2021 10:00:00 AM 17.24 63.032 0.107 7.53 5.09 9.8
9/9/2021 10:15:00 AM 17.28 63.104 0.107 7.54 4.85 9.83
9/9/2021 10:30:00 AM 17.32 63.176 0.107 7.57 5.07 9.85
9/9/2021 10:45:00 AM 17.36 63.248 0.107 7.59 4.96 9.89
9/9/2021 11:00:00 AM 17.41 63.338 0.107 7.62 4.8 9.93
9/9/2021 11:15:00 AM 17.46 63.428 0.107 7.64 4.69 9.97
9/9/2021 11:30:00 AM 17.51 63.518 0.107 7.67 4.71 9.99
9/9/2021 11:45:00 AM 17.58 63.644 0.107 7.72 4.64 10.08
9/9/2021 12:00:00 PM 17.73 63.914 0.107 7.78 4.59 10.21
9/9/2021 12:15:00 PM 17.85 64.13 0.108 7.83 4.79 10.28
9/9/2021 12:30:00 PM 17.94 64.292 0.108 7.91 4.57 10.37
9/9/2021 12:45:00 PM 18.03 64.454 0.108 7.97 4.53 10.42
9/9/2021 1:00:00 PM 18.16 64.688 0.108 8.05 4.59 10.45
9/9/2021 1:15:00 PM 18.32 64.976 0.108 8.11 4.38 10.46
9/9/2021 1:30:00 PM 18.44 65.192 0.108 8.14 4.27 10.44
9/9/2021 1:45:00 PM 18.53 65.354 0.108 8.19 4.37 10.44
9/9/2021 2:00:00 PM 18.6 65.48 0.108 8.23 4.32 10.44
9/9/2021 2:15:00 PM 18.75 65.75 0.108 8.27 4.31 10.45
9/9/2021 2:30:00 PM 18.89 66.002 0.108 8.3 4.28 10.44
9/9/2021 2:45:00 PM 19.03 66.254 0.108 8.34 4.21 10.44
9/9/2021 3:00:00 PM 19.09 66.362 0.108 8.34 4.6 10.36
9/9/2021 3:15:00 PM 19.11 66.398 0.108 8.34 4.42 10.27
9/9/2021 3:30:00 PM 19.08 66.344 0.108 8.26 4.48 10.11
9/9/2021 3:45:00 PM 19.04 66.272 0.109 8.13 4.47 9.92
9/9/2021 4:00:00 PM 19.04 66.272 0.109 8.06 4.19 9.87
9/9/2021 4:15:00 PM 19.04 66.272 0.109 8.03 4.17 9.91
9/9/2021 4:30:00 PM 19.07 66.326 0.109 8.05 4.24 9.96
9/9/2021 4:45:00 PM 19.11 66.398 0.109 8.07 4.03 10
9/9/2021 5:00:00 PM 19.17 66.506 0.109 8.08 4.11 10.03
9/9/2021 5:15:00 PM 19.22 66.596 0.109 8.09 4.25 10.01
9/9/2021 5:30:00 PM 19.23 66.614 0.109 8.09 4.22 9.98
9/9/2021 5:45:00 PM 19.21 66.578 0.11 8.04 4.07 9.87
9/9/2021 6:00:00 PM 19.15 66.47 0.11 7.93 4.02 9.68
9/9/2021 6:15:00 PM 19.03 66.254 0.11 7.77 3.99 9.37
9/9/2021 6:30:00 PM 18.91 66.038 0.111 7.65 4.03 9.05
9/9/2021 6:45:00 PM 18.82 65.876 0.111 7.55 4.14 8.87
9/9/2021 7:00:00 PM 18.75 65.75 0.111 7.49 4.36 8.73
9/9/2021 7:15:00 PM 18.66 65.588 0.111 7.44 4.09 8.63
9/9/2021 7:30:00 PM 18.58 65.444 0.111 7.41 4.4 8.53
9/9/2021 7:45:00 PM 18.5 65.3 0.112 7.38 4.49 8.46
9/9/2021 8:00:00 PM 18.43 65.174 0.112 7.35 4.31 8.43
9/9/2021 8:15:00 PM 18.34 65.012 0.112 7.33 4.2 8.4
9/9/2021 8:30:00 PM 18.26 64.868 0.112 7.32 4.47 8.36
9/9/2021 8:45:00 PM 18.18 64.724 0.112 7.31 4.19 8.38
9/9/2021 9:00:00 PM 18.1 64.58 0.112 7.3 4.33 8.37
9/9/2021 9:15:00 PM 18.02 64.436 0.113 7.27 4.48 8.37
9/9/2021 9:30:00 PM 17.94 64.292 0.113 7.28 4.41 8.37
9/9/2021 9:45:00 PM 17.86 64.148 0.113 7.28 4.4 8.39
9/9/2021 10:00:00 PM 17.8 64.04 0.113 7.27 4.27 8.4
9/9/2021 10:15:00 PM 17.73 63.914 0.113 7.26 4.43 8.42
9/9/2021 10:30:00 PM 17.66 63.788 0.114 7.27 4.21 8.42
9/9/2021 10:45:00 PM 17.59 63.662 0.114 7.26 4.28 8.44
9/9/2021 11:00:00 PM 17.52 63.536 0.114 7.27 4.21 8.46
9/9/2021 11:15:00 PM 17.45 63.41 0.114 7.25 4.26 8.46
9/9/2021 11:30:00 PM 17.38 63.284 0.114 7.25 4.42 8.49
9/9/2021 11:45:00 PM 17.31 63.158 0.114 7.25 4.3 8.5
9/10/2021 12:00:00 AM 17.25 63.05 0.114 7.25 4.32 8.51
9/10/2021 12:15:00 AM 17.19 62.942 0.115 7.25 4.39 8.53
9/10/2021 12:30:00 AM 17.13 62.834 0.115 7.25 4.22 8.55
9/10/2021 12:45:00 AM 17.07 62.726 0.115 7.24 4.24 8.56
9/10/2021 1:00:00 AM 17.01 62.618 0.115 7.24 4.29 8.57
9/10/2021 1:15:00 AM 16.95 62.51 0.115 7.24 4.47 8.58
9/10/2021 1:30:00 AM 16.89 62.402 0.115 7.25 4.35 8.61
9/10/2021 1:45:00 AM 16.82 62.276 0.115 7.23 4.7 8.61
9/10/2021 2:00:00 AM 16.76 62.168 0.115 7.24 4.45 8.62
9/10/2021 2:15:00 AM 16.7 62.06 0.115 7.25 4.36 8.65
9/10/2021 2:30:00 AM 16.63 61.934 0.115 7.25 4.32 8.67
9/10/2021 2:45:00 AM 16.58 61.844 0.115 7.25 4.97 8.67
9/10/2021 3:00:00 AM 16.52 61.736 0.115 7.24 4.51 8.68
9/10/2021 3:15:00 AM 16.44 61.592 0.115 7.24 5 8.7
9/10/2021 3:30:00 AM 16.37 61.466 0.115 7.24 4.42 8.72
9/10/2021 3:45:00 AM 16.3 61.34 0.115 7.24 4.52 8.75
9/10/2021 4:00:00 AM 16.25 61.25 0.115 7.24 4.65 8.75
9/10/2021 4:15:00 AM 16.19 61.142 0.115 7.22 4.82 8.77
9/10/2021 4:30:00 AM 16.15 61.07 0.115 7.23 4.7 8.79
9/10/2021 4:45:00 AM 16.12 61.016 0.115 7.23 5.41 8.77
9/10/2021 5:00:00 AM 16.07 60.926 0.115 7.24 4.87 8.79
9/10/2021 5:15:00 AM 16.02 60.836 0.115 7.24 4.74 8.81
9/10/2021 5:30:00 AM 15.95 60.71 0.115 7.25 4.5 8.83
9/10/2021 5:45:00 AM 15.9 60.62 0.116 7.24 5.65 8.82
9/10/2021 6:00:00 AM 15.84 60.512 0.116 7.23 4.43 8.83
9/10/2021 6:15:00 AM 15.78 60.404 0.116 7.24 8.01 8.85
9/10/2021 6:30:00 AM 15.72 60.296 0.116 7.23 5.63 8.85
9/10/2021 6:45:00 AM 15.65 60.17 0.116 7.25 4.34 8.9
9/10/2021 7:00:00 AM 15.6 60.08 0.116 7.25 4.41 8.93
9/10/2021 7:15:00 AM 15.55 59.99 0.116 7.25 4.17 8.97
9/10/2021 7:30:00 AM 15.49 59.882 0.116 7.26 4.19 9.05
9/10/2021 7:45:00 AM 15.45 59.81 0.116 7.27 4.45 9.1
9/10/2021 8:00:00 AM 15.41 59.738 0.116 7.28 4.45 9.2
9/10/2021 8:15:00 AM 15.39 59.702 0.116 7.29 4.1 9.27
9/10/2021 8:30:00 AM 15.37 59.666 0.116 7.31 4.12 9.38
9/10/2021 8:45:00 AM 15.38 59.684 0.116 7.33 3.82 9.51
9/10/2021 9:00:00 AM 15.4 59.72 0.116 7.36 3.92 9.64
9/10/2021 9:15:00 AM 15.42 59.756 0.116 7.38 3.82 9.76
9/10/2021 9:30:00 AM 15.44 59.792 0.116 7.42 3.75 9.93
9/10/2021 9:45:00 AM 15.52 59.936 0.115 7.45 3.8 10.1
9/10/2021 10:00:00 AM 15.58 60.044 0.115 7.5 3.63 10.21
9/10/2021 10:15:00 AM 15.62 60.116 0.115 7.5 3.68 10.23
9/10/2021 10:30:00 AM 15.75 60.35 0.115 7.55 3.72 10.3
9/10/2021 10:45:00 AM 15.92 60.656 0.115 7.6 3.72 10.4
9/10/2021 11:00:00 AM 16.03 60.854 0.115 7.64 3.58 10.48
9/10/2021 11:15:00 AM 16.17 61.106 0.115 7.69 3.71 10.57
9/10/2021 11:30:00 AM 16.32 61.376 0.114 7.73 3.54 10.61
9/10/2021 11:45:00 AM 16.45 61.61 0.114 7.77 3.55 10.65
9/10/2021 12:00:00 PM 16.58 61.844 0.114 7.8 3.83 10.67
9/10/2021 12:15:00 PM 16.77 62.186 0.114 7.86 3.75 10.71
9/10/2021 12:30:00 PM 17.06 62.708 0.114 7.94 3.57 10.78
9/10/2021 12:45:00 PM 17.27 63.086 0.113 7.99 3.83 10.76
9/10/2021 1:00:00 PM 17.45 63.41 0.113 8.06 4.14 10.75
9/10/2021 1:15:00 PM 17.59 63.662 0.113 8.1 3.81 10.72
9/10/2021 1:30:00 PM 17.72 63.896 0.113 8.14 4.71 10.69
9/10/2021 1:45:00 PM 17.89 64.202 0.113 8.2 3.63 10.7
9/10/2021 2:00:00 PM 18.09 64.562 0.113 8.25 3.46 10.7
9/10/2021 2:15:00 PM 18.27 64.886 0.113 8.29 3.54 10.67
9/10/2021 2:30:00 PM 18.47 65.246 0.113 8.33 3.65 10.65
9/10/2021 2:45:00 PM 18.69 65.642 0.113 8.37 3.6 10.63
9/10/2021 3:00:00 PM 18.88 65.984 0.113 8.43 3.44 10.64
9/10/2021 3:15:00 PM 19 66.2 0.113 8.45 5.17 10.59
9/10/2021 3:30:00 PM 19.11 66.398 0.113 8.46 4.04 10.54
9/10/2021 3:45:00 PM 19.18 66.524 0.113 8.46 3.54 10.48
9/10/2021 4:00:00 PM 19.19 66.542 0.113 8.44 3.38 10.43
9/10/2021 4:15:00 PM 19.15 66.47 0.113 8.41 3.49 10.37
9/10/2021 4:30:00 PM 19.05 66.29 0.113 8.37 3.59 10.25
9/10/2021 4:45:00 PM 18.93 66.074 0.113 8.28 3.61 10.13
9/10/2021 5:00:00 PM 18.79 65.82201 0.113 8.15 3.5 9.99
9/10/2021 5:15:00 PM 18.64 65.552 0.113 8.03 3.63 9.87
9/10/2021 5:30:00 PM 18.51 65.318 0.114 7.9 3.53 9.75
9/10/2021 5:45:00 PM 18.4 65.12 0.114 7.81 3.43 9.62
9/10/2021 6:00:00 PM 18.3 64.94 0.114 7.73 3.55 9.53
9/10/2021 6:15:00 PM 18.2 64.76 0.114 7.67 4.51 9.43
9/10/2021 6:30:00 PM 18.08 64.544 0.114 7.62 3.69 9.37
9/10/2021 6:45:00 PM 17.97 64.346 0.114 7.55 3.79 9.27
9/10/2021 7:00:00 PM 17.86 64.148 0.115 7.51 3.94 9.16
9/10/2021 7:15:00 PM 17.72 63.896 0.115 7.47 3.68 9.05
9/10/2021 7:30:00 PM 17.63 63.734 0.115 7.41 4.57 8.91
9/10/2021 7:45:00 PM 17.51 63.518 0.115 7.38 4.2 8.84
9/10/2021 8:00:00 PM 17.39 63.302 0.115 7.35 6.05 8.7
9/10/2021 8:15:00 PM 17.27 63.086 0.115 7.33 3.9 8.67
9/10/2021 8:30:00 PM 17.16 62.888 0.116 7.31 3.64 8.59
9/10/2021 8:45:00 PM 17.05 62.69 0.116 7.29 3.99 8.6
9/10/2021 9:00:00 PM 16.93 62.474 0.116 7.28 3.67 8.59
9/10/2021 9:15:00 PM 16.83 62.294 0.116 7.25 3.81 8.58
9/10/2021 9:30:00 PM 16.71 62.078 0.116 7.26 3.8 8.58
9/10/2021 9:45:00 PM 16.6 61.88 0.116 7.25 3.7 8.6
9/10/2021 10:00:00 PM 16.5 61.7 0.116 7.24 3.69 8.62
9/10/2021 10:15:00 PM 16.4 61.52 0.116 7.24 3.85 8.65
9/10/2021 10:30:00 PM 16.29 61.322 0.116 7.24 3.48 8.67
9/10/2021 10:45:00 PM 16.2 61.16 0.117 7.23 3.64 8.65
9/10/2021 11:00:00 PM 16.1 60.98 0.117 7.23 3.41 8.68
9/10/2021 11:15:00 PM 16 60.8 0.117 7.22 3.6 8.71
9/10/2021 11:30:00 PM 15.89 60.602 0.117 7.22 3.5 8.75
9/10/2021 11:45:00 PM 15.79 60.422 0.117 7.21 3.9 8.76
9/11/2021 12:00:00 AM 15.69 60.242 0.117 7.2 3.63 8.79
9/11/2021 12:15:00 AM 15.59 60.062 0.117 7.21 3.74 8.81
9/11/2021 12:30:00 AM 15.49 59.882 0.117 7.21 3.66 8.84
9/11/2021 12:45:00 AM 15.42 59.756 0.117 7.21 3.8 8.85
9/11/2021 1:00:00 AM 15.31 59.558 0.118 7.2 3.92 8.89
9/11/2021 1:15:00 AM 15.23 59.414 0.118 7.18 3.58 8.9
9/11/2021 1:30:00 AM 15.14 59.252 0.118 7.19 3.57 8.92
9/11/2021 1:45:00 AM 15.06 59.108 0.118 7.19 3.6 8.95
9/11/2021 2:00:00 AM 14.98 58.964 0.118 7.18 3.67 8.94
9/11/2021 2:15:00 AM 14.89 58.802 0.118 7.16 3.74 8.99
9/11/2021 2:30:00 AM 14.82 58.676 0.118 7.15 4.1 8.99
9/11/2021 2:45:00 AM 14.73 58.514 0.118 7.11 3.67 9.02
9/11/2021 3:00:00 AM 14.65 58.37 0.118 7.11 3.49 9.05
9/11/2021 3:15:00 AM 14.58 58.244 0.119 7.14 3.56 9.03
9/11/2021 3:30:00 AM 14.51 58.118 0.119 7.14 3.69 9.07
9/11/2021 3:45:00 AM 14.43 57.974 0.119 7.14 3.45 9.1
9/11/2021 4:00:00 AM 14.37 57.866 0.119 7.14 3.55 9.11
9/11/2021 4:15:00 AM 14.3 57.74 0.119 7.15 3.59 9.12
9/11/2021 4:30:00 AM 14.24 57.632 0.119 7.14 3.89 9.14
9/11/2021 4:45:00 AM 14.18 57.524 0.119 7.15 3.58 9.14
9/11/2021 5:00:00 AM 14.12 57.416 0.119 7.15 3.71 9.18
9/11/2021 5:15:00 AM 14.06 57.308 0.119 7.15 3.65 9.21
9/11/2021 5:30:00 AM 14.02 57.236 0.119 7.15 3.65 9.2
9/11/2021 5:45:00 AM 13.96 57.128 0.119 7.14 3.77 9.22
9/11/2021 6:00:00 AM 13.92 57.056 0.119 7.15 3.45 9.21
9/11/2021 6:15:00 AM 13.87 56.966 0.119 7.15 5.22 9.25
9/11/2021 6:30:00 AM 13.83 56.894 0.119 7.14 8.5 9.24
9/11/2021 6:45:00 AM 13.79 56.822 0.119 7.14 7.46 9.26
9/11/2021 7:00:00 AM 13.76 56.768 0.119 7.14 7.76 9.27
9/11/2021 7:15:00 AM 13.73 56.714 0.119 7.15 6.04 9.32
9/11/2021 7:30:00 AM 14.05 57.29 0.118 7.16 4.98 9.3
9/11/2021 7:45:00 AM 14.02 57.236 0.118 7.18 3.76 9.4
9/11/2021 8:00:00 AM 14 57.2 0.118 7.18 3.39 9.48
9/11/2021 8:15:00 AM 13.98 57.164 0.118 7.22 3.12 9.66
9/11/2021 8:30:00 AM 13.98 57.164 0.118 7.25 3.08 9.78
9/11/2021 8:45:00 AM 13.99 57.182 0.118 7.27 3.19 9.88
9/11/2021 9:00:00 AM 14.02 57.236 0.118 7.3 3.21 10.03
9/11/2021 9:15:00 AM 14.06 57.308 0.118 7.33 3.17 10.14
9/11/2021 9:30:00 AM 14.1 57.38 0.118 7.36 2.93 10.26
9/11/2021 9:45:00 AM 14.17 57.506 0.117 7.4 3.03 10.4
9/11/2021 10:00:00 AM 14.26 57.668 0.117 7.43 3.1 10.52
9/11/2021 10:15:00 AM 14.38 57.884 0.117 7.47 2.99 10.61
9/11/2021 10:30:00 AM 14.49 58.082 0.117 7.51 2.99 10.71
9/11/2021 10:45:00 AM 14.64 58.352 0.117 7.55 3.05 10.82
9/11/2021 11:00:00 AM 14.82 58.676 0.117 7.59 2.95 10.9
9/11/2021 11:15:00 AM 15 59 0.117 7.63 2.98 10.94
9/11/2021 11:30:00 AM 15.19 59.342 0.116 7.66 3.06 10.97
9/11/2021 11:45:00 AM 15.38 59.684 0.116 7.69 3.04 11
9/11/2021 12:00:00 PM 15.58 60.044 0.116 7.72 3.08 11.01
9/11/2021 12:15:00 PM 15.8 60.44 0.116 7.78 2.9 11.04
9/11/2021 12:30:00 PM 16.04 60.872 0.116 7.81 3.38 11.05
9/11/2021 12:45:00 PM 16.35 61.43 0.116 7.88 3.17 11.09
9/11/2021 1:00:00 PM 16.67 62.006 0.116 7.96 3.16 11.09
9/11/2021 1:15:00 PM 16.99 62.582 0.115 8.02 3.21 11.1
9/11/2021 1:30:00 PM 17.31 63.158 0.115 8.14 3.18 11.1
9/11/2021 1:45:00 PM 17.55 63.59 0.115 8.21 3.21 11.07
9/11/2021 2:00:00 PM 17.73 63.914 0.115 8.28 3.12 11.02
9/11/2021 2:15:00 PM 17.89 64.202 0.115 8.34 3.09 10.97
9/11/2021 2:30:00 PM 18.1 64.58 0.115 8.41 3.13 10.96
9/11/2021 2:45:00 PM 18.32 64.976 0.115 8.48 3.12 10.95
9/11/2021 3:00:00 PM 18.52 65.336 0.115 8.53 3.19 10.92
9/11/2021 3:15:00 PM 18.65 65.57 0.115 8.54 3.24 10.88
9/11/2021 3:30:00 PM 18.71 65.67799 0.115 8.54 3.29 10.76
9/11/2021 3:45:00 PM 18.79 65.82201 0.115 8.56 3.17 10.73
9/11/2021 4:00:00 PM 18.84 65.912 0.115 8.56 3.26 10.69
9/11/2021 4:15:00 PM 18.89 66.002 0.115 8.58 3.18 10.65
9/11/2021 4:30:00 PM 18.92 66.056 0.115 8.56 3.18 10.6
9/11/2021 4:45:00 PM 18.91 66.038 0.115 8.54 3.19 10.54
9/11/2021 5:00:00 PM 18.92 66.056 0.115 8.51 3.11 10.48
9/11/2021 5:15:00 PM 18.92 66.056 0.115 8.49 3.23 10.42
9/11/2021 5:30:00 PM 18.88 65.984 0.115 8.42 3.14 10.31
9/11/2021 5:45:00 PM 18.82 65.876 0.115 8.34 3.35 10.22
9/11/2021 6:00:00 PM 18.72 65.696 0.115 8.23 3.17 10.07
9/11/2021 6:15:00 PM 18.63 65.534 0.115 8.1 3.31 9.93
9/11/2021 6:30:00 PM 18.54 65.372 0.115 7.96 3.27 9.78
9/11/2021 6:45:00 PM 18.44 65.192 0.115 7.83 3.37 9.61
9/11/2021 7:00:00 PM 18.34 65.012 0.116 7.7 6.76 9.42
9/11/2021 7:15:00 PM 18.22 64.796 0.116 7.61 3.77 9.22
9/11/2021 7:30:00 PM 18.12 64.616 0.116 7.53 4.27 9.02
9/11/2021 7:45:00 PM 18.01 64.418 0.117 7.46 3.38 8.84
9/11/2021 8:00:00 PM 17.91 64.238 0.117 7.41 5.86 8.7
9/11/2021 8:15:00 PM 17.81 64.058 0.117 7.36 3.7 8.59
9/11/2021 8:30:00 PM 17.72 63.896 0.117 7.33 3.75 8.51
9/11/2021 8:45:00 PM 17.6 63.68 0.117 7.31 3.53 8.46
9/11/2021 9:00:00 PM 17.5 63.5 0.117 7.29 3.61 8.44
9/11/2021 9:15:00 PM 17.4 63.32 0.118 7.27 3.57 8.41
9/11/2021 9:30:00 PM 17.31 63.158 0.118 7.26 3.67 8.39
9/11/2021 9:45:00 PM 17.22 62.996 0.118 7.25 3.52 8.4
9/11/2021 10:00:00 PM 17.13 62.834 0.118 7.24 3.53 8.39
9/11/2021 10:15:00 PM 17.04 62.672 0.118 7.23 3.52 8.39
9/11/2021 10:30:00 PM 16.95 62.51 0.118 7.22 3.53 8.41
9/11/2021 10:45:00 PM 16.86 62.348 0.118 7.21 3.64 8.42
9/11/2021 11:00:00 PM 16.78 62.204 0.118 7.21 3.67 8.43
9/11/2021 11:15:00 PM 16.7 62.06 0.118 7.2 5.28 8.45
9/11/2021 11:30:00 PM 16.63 61.934 0.118 7.2 3.73 8.47
9/11/2021 11:45:00 PM 16.56 61.808 0.118 7.2 3.6 8.46
9/12/2021 12:00:00 AM 16.49 61.682 0.118 7.2 3.57 8.45
9/12/2021 12:15:00 AM 16.41 61.538 0.118 7.19 3.61 8.5
9/12/2021 12:30:00 AM 16.35 61.43 0.118 7.19 3.52 8.53
9/12/2021 12:45:00 AM 16.29 61.322 0.118 7.19 3.42 8.51
9/12/2021 1:00:00 AM 16.2 61.16 0.118 7.19 3.56 8.57
9/12/2021 1:15:00 AM 16.15 61.07 0.118 7.2 3.62 8.57
9/12/2021 1:30:00 AM 16.1 60.98 0.118 7.19 3.62 8.58
9/12/2021 1:45:00 AM 16.04 60.872 0.118 7.19 3.85 8.58
9/12/2021 2:00:00 AM 15.99 60.782 0.118 7.18 3.69 8.58
9/12/2021 2:15:00 AM 15.95 60.71 0.119 7.19 3.7 8.6
9/12/2021 2:30:00 AM 15.89 60.602 0.119 7.18 3.62 8.64
9/12/2021 2:45:00 AM 15.85 60.53 0.119 7.19 3.65 8.64
9/12/2021 3:00:00 AM 15.83 60.494 0.119 7.19 6.41 8.64
9/12/2021 3:15:00 AM 15.8 60.44 0.119 7.19 3.85 8.63
9/12/2021 3:30:00 AM 15.78 60.404 0.119 7.19 3.74 8.68
9/12/2021 3:45:00 AM 15.76 60.368 0.119 7.19 3.61 8.67
9/12/2021 4:00:00 AM 15.74 60.332 0.119 7.19 3.52 8.66
9/12/2021 4:15:00 AM 15.73 60.314 0.119 7.18 3.73 8.65
9/12/2021 4:30:00 AM 15.71 60.278 0.119 7.19 3.7 8.66
9/12/2021 4:45:00 AM 15.7 60.26 0.119 7.19 3.67 8.67
9/12/2021 5:00:00 AM 15.69 60.242 0.119 7.18 3.79 8.67
9/12/2021 5:15:00 AM 15.67 60.206 0.119 7.18 5.89 8.67
9/12/2021 5:30:00 AM 15.66 60.188 0.119 7.18 7.04 8.69
9/12/2021 5:45:00 AM 15.66 60.188 0.119 7.18 6.55 8.69
9/12/2021 6:00:00 AM 15.66 60.188 0.119 7.18 9.09 8.7
9/12/2021 6:15:00 AM 15.66 60.188 0.119 7.18 6.75 8.68
9/12/2021 6:30:00 AM 15.66 60.188 0.119 7.18 6.44 8.68
9/12/2021 6:45:00 AM 15.65 60.17 0.119 7.18 5.85 8.69
9/12/2021 7:00:00 AM 15.64 60.152 0.119 7.19 5.32 8.71
9/12/2021 7:15:00 AM 15.64 60.152 0.119 7.19 4.46 8.73
9/12/2021 7:30:00 AM 15.64 60.152 0.119 7.19 3.88 8.79
9/12/2021 7:45:00 AM 15.65 60.17 0.119 7.21 3.72 8.88
9/12/2021 8:00:00 AM 15.67 60.206 0.119 7.22 3.53 8.98
9/12/2021 8:15:00 AM 15.7 60.26 0.119 7.22 3.48 9.1
9/12/2021 8:30:00 AM 15.73 60.314 0.119 7.27 3.7 9.27
9/12/2021 8:45:00 AM 15.76 60.368 0.119 7.28 3.48 9.36
9/12/2021 9:00:00 AM 15.82 60.476 0.119 7.33 3.55 9.63
9/12/2021 9:15:00 AM 15.87 60.566 0.118 7.36 3.55 9.82
9/12/2021 9:30:00 AM 15.93 60.674 0.118 7.4 3.84 9.99
9/12/2021 9:45:00 AM 16 60.8 0.118 7.43 3.58 10.08
9/12/2021 10:00:00 AM 16.08 60.944 0.118 7.48 3.44 10.29
9/12/2021 10:15:00 AM 16.18 61.124 0.118 7.54 3.23 10.44
9/12/2021 10:30:00 AM 16.31 61.358 0.117 7.59 3.28 10.59
9/12/2021 10:45:00 AM 16.42 61.556 0.117 7.64 3.32 10.69
9/12/2021 11:00:00 AM 16.52 61.736 0.117 7.7 3.29 10.8
9/12/2021 11:15:00 AM 16.67 62.006 0.117 7.76 3.22 10.88
9/12/2021 11:30:00 AM 16.82 62.276 0.116 7.83 3.32 10.94
9/12/2021 11:45:00 AM 16.99 62.582 0.116 7.95 3.31 11.04
9/12/2021 12:00:00 PM 17.15 62.87 0.116 8.05 3.2 11.08
9/12/2021 12:15:00 PM 17.32 63.176 0.116 8.15 3.21 11.13
9/12/2021 12:30:00 PM 17.43 63.374 0.116 8.21 3.3 11.05
9/12/2021 12:45:00 PM 17.49 63.482 0.116 8.26 3.31 10.94
9/12/2021 1:00:00 PM 17.58 63.644 0.115 8.27 3.26 10.86
9/12/2021 1:15:00 PM 17.71 63.878 0.115 8.28 3.21 10.83
9/12/2021 1:30:00 PM 17.89 64.202 0.115 8.34 3.2 10.87
9/12/2021 1:45:00 PM 18.03 64.454 0.115 8.4 3.06 10.91
9/12/2021 2:00:00 PM 18.19 64.742 0.115 8.5 3.11 10.96
9/12/2021 2:15:00 PM 18.28 64.904 0.115 8.54 3.17 10.93
9/12/2021 2:30:00 PM 18.32 64.976 0.115 8.56 3.15 10.82
9/12/2021 2:45:00 PM 18.32 64.976 0.115 8.53 3.21 10.64
9/12/2021 3:00:00 PM 18.33 64.994 0.115 8.45 3.22 10.48
9/12/2021 3:15:00 PM 18.33 64.994 0.115 8.32 3.03 10.28
9/12/2021 3:30:00 PM 18.34 65.012 0.115 8.21 3.14 10.18
9/12/2021 3:45:00 PM 18.36 65.048 0.115 8.12 3.12 10.13
9/12/2021 4:00:00 PM 18.4 65.12 0.115 8.08 3.17 10.15
9/12/2021 4:15:00 PM 18.45 65.21 0.115 8.07 3.08 10.21
9/12/2021 4:30:00 PM 18.52 65.336 0.115 8.09 3.33 10.27
9/12/2021 4:45:00 PM 18.64 65.552 0.115 8.15 3.24 10.41
9/12/2021 5:00:00 PM 18.75 65.75 0.115 8.23 3.07 10.48
9/12/2021 5:15:00 PM 18.83 65.894 0.115 8.28 3.09 10.49
9/12/2021 5:30:00 PM 18.91 66.038 0.115 8.35 2.96 10.46
9/12/2021 5:45:00 PM 18.94 66.092 0.115 8.35 3.06 10.36
9/12/2021 6:00:00 PM 18.94 66.092 0.115 8.28 3.24 10.18
9/12/2021 6:15:00 PM 18.92 66.056 0.115 8.15 3.38 9.93
9/12/2021 6:30:00 PM 18.89 66.002 0.115 8 3.12 9.71
9/12/2021 6:45:00 PM 18.85 65.93 0.116 7.82 3.27 9.46
9/12/2021 7:00:00 PM 18.82 65.876 0.116 7.69 3.28 9.22
9/12/2021 7:15:00 PM 18.78 65.804 0.116 7.57 4.14 8.96
9/12/2021 7:30:00 PM 18.75 65.75 0.116 7.49 3.8 8.79
9/12/2021 7:45:00 PM 18.72 65.696 0.116 7.43 5.98 8.61
9/12/2021 8:00:00 PM 18.69 65.642 0.116 7.38 5.92 8.47
9/12/2021 8:15:00 PM 18.66 65.588 0.117 7.34 7.04 8.35
9/12/2021 8:30:00 PM 18.62 65.516 0.117 7.3 4.58 8.26
9/12/2021 8:45:00 PM 18.59 65.462 0.117 7.28 4.2 8.19
9/12/2021 9:00:00 PM 18.56 65.408 0.117 7.26 3.54 8.16
9/12/2021 9:15:00 PM 18.53 65.354 0.117 7.24 3.45 8.11
9/12/2021 9:30:00 PM 18.5 65.3 0.118 7.23 3.51 8.06
9/12/2021 9:45:00 PM 18.47 65.246 0.118 7.22 3.71 8.07
9/12/2021 10:00:00 PM 18.44 65.192 0.118 7.21 3.6 8.03
9/12/2021 10:15:00 PM 18.39 65.102 0.118 7.2 3.82 8.07
9/12/2021 10:30:00 PM 18.37 65.066 0.118 7.19 4.01 8.05
9/12/2021 10:45:00 PM 18.33 64.994 0.118 7.19 3.88 8.05
9/12/2021 11:00:00 PM 18.29 64.922 0.119 7.19 6.44 8.05
9/12/2021 11:15:00 PM 18.26 64.868 0.119 7.18 3.4 8.03
9/12/2021 11:30:00 PM 18.23 64.814 0.119 7.18 3.46 8.03
9/12/2021 11:45:00 PM 18.19 64.742 0.119 7.17 3.36 8.06
9/13/2021 12:00:00 AM 18.15 64.67 0.119 7.17 3.28 8.05
9/13/2021 12:15:00 AM 18.11 64.598 0.119 7.17 3.33 8.07
9/13/2021 12:30:00 AM 18.07 64.526 0.119 7.17 3.56 8.06
9/13/2021 12:45:00 AM 18.03 64.454 0.119 7.16 3.25 8.05
9/13/2021 1:00:00 AM 18 64.4 0.119 7.16 3.32 8.07
9/13/2021 1:15:00 AM 17.97 64.346 0.119 7.16 3.36 8.07
9/13/2021 1:30:00 AM 17.96 64.328 0.119 7.16 3.58 8.09
9/13/2021 1:45:00 AM 17.94 64.292 0.119 7.16 3.41 8.07
9/13/2021 2:00:00 AM 17.92 64.256 0.119 7.16 3.55 8.07
9/13/2021 2:15:00 AM 17.91 64.238 0.119 7.17 3.22 8.09
9/13/2021 2:30:00 AM 17.9 64.22 0.119 7.16 3.35 8.09
9/13/2021 2:45:00 AM 17.88 64.184 0.12 7.16 3.24 8.09
9/13/2021 3:00:00 AM 17.86 64.148 0.12 7.16 3.29 8.1
9/13/2021 3:15:00 AM 17.85 64.13 0.12 7.16 3.39 8.07
9/13/2021 3:30:00 AM 17.83 64.094 0.12 7.15 3.61 8.11
9/13/2021 3:45:00 AM 17.8 64.04 0.12 7.16 3.55 8.12
9/13/2021 4:00:00 AM 17.78 64.004 0.12 7.16 3.27 8.13
9/13/2021 4:15:00 AM 17.75 63.95 0.12 7.16 3.79 8.13
9/13/2021 4:30:00 AM 17.73 63.914 0.12 7.16 3.52 8.12
9/13/2021 4:45:00 AM 17.7 63.86 0.12 7.16 4.01 8.13
9/13/2021 5:00:00 AM 17.68 63.824 0.12 7.16 3.98 8.13
9/13/2021 5:15:00 AM 17.66 63.788 0.12 7.16 3.63 8.13
9/13/2021 5:30:00 AM 17.63 63.734 0.12 7.16 3.46 8.14
9/13/2021 5:45:00 AM 17.61 63.698 0.12 7.17 3.62 8.16
9/13/2021 6:00:00 AM 17.58 63.644 0.12 7.17 3.52 8.15
9/13/2021 6:15:00 AM 17.56 63.608 0.12 7.16 5.51 8.15
9/13/2021 6:30:00 AM 17.53 63.554 0.12 7.16 5.67 8.18
9/13/2021 6:45:00 AM 17.52 63.536 0.12 7.16 5.56 8.16
9/13/2021 7:00:00 AM 17.51 63.518 0.12 7.17 5.26 8.18
9/13/2021 7:15:00 AM 17.49 63.482 0.12 7.17 5.09 8.2
9/13/2021 7:30:00 AM 17.48 63.464 0.12 7.18 4.22 8.27
9/13/2021 7:45:00 AM 17.47 63.446 0.12 7.16 4.24 8.31
9/13/2021 8:00:00 AM 17.45 63.41 0.12 7.2 4 8.4
9/13/2021 8:15:00 AM 17.45 63.41 0.12 7.22 3.47 8.6
9/13/2021 8:30:00 AM 17.46 63.428 0.12 7.25 3.16 8.81
9/13/2021 8:45:00 AM 17.48 63.464 0.12 7.28 3.15 8.93
9/13/2021 9:00:00 AM 17.51 63.518 0.12 7.31 3.11 9.17
9/13/2021 9:15:00 AM 17.54 63.572 0.119 7.34 2.99 9.37
9/13/2021 9:30:00 AM 17.6 63.68 0.119 7.4 3.04 9.61
9/13/2021 9:45:00 AM 17.65 63.77 0.119 7.44 3.08 9.77
9/13/2021 10:00:00 AM 17.7 63.86 0.119 7.48 2.93 9.94
9/13/2021 10:15:00 AM 17.79 64.022 0.118 7.53 2.96 10.07
9/13/2021 10:30:00 AM 17.87 64.166 0.118 7.59 2.94 10.27
9/13/2021 10:45:00 AM 17.95 64.31 0.118 7.65 2.88 10.39
9/13/2021 11:00:00 AM 18.05 64.49 0.118 7.73 2.91 10.53
9/13/2021 11:15:00 AM 18.17 64.706 0.117 7.8 3 10.63
9/13/2021 11:30:00 AM 18.34 65.012 0.117 7.94 2.84 10.77
9/13/2021 11:45:00 AM 18.5 65.3 0.117 8.07 3.11 10.85
9/13/2021 12:00:00 PM 18.65 65.57 0.117 8.19 3.08 10.91
9/13/2021 12:15:00 PM 18.81 65.858 0.116 8.3 2.79 10.96
9/13/2021 12:30:00 PM 18.98 66.164 0.116 8.4 2.84 10.97
9/13/2021 12:45:00 PM 19.17 66.506 0.116 8.52 2.82 10.96
9/13/2021 1:00:00 PM 19.3 66.74 0.116 8.6 2.82 10.99
9/13/2021 1:15:00 PM 19.43 66.974 0.116 8.67 2.89 10.97
9/13/2021 1:30:00 PM 19.65 67.37 0.115 8.74 2.82 10.98
9/13/2021 1:45:00 PM 19.9 67.82 0.115 8.8 2.86 10.96
9/13/2021 2:00:00 PM 20.09 68.162 0.115 8.83 2.74 10.93
9/13/2021 2:15:00 PM 20.28 68.504 0.115 8.88 2.86 10.92
9/13/2021 2:30:00 PM 20.44 68.792 0.115 8.91 2.84 10.88
9/13/2021 2:45:00 PM 20.56 69.008 0.115 8.93 2.76 10.85
9/13/2021 3:00:00 PM 20.63 69.134 0.115 8.94 2.75 10.82
9/13/2021 3:15:00 PM 20.68 69.224 0.115 8.97 2.74 10.74
9/13/2021 3:30:00 PM 20.72 69.296 0.115 8.98 2.74 10.7
9/13/2021 3:45:00 PM 20.76 69.368 0.115 8.99 2.8 10.65
9/13/2021 4:00:00 PM 20.77 69.386 0.115 8.98 2.85 10.58
9/13/2021 4:15:00 PM 20.75 69.35 0.115 8.99 2.88 10.49
9/13/2021 4:30:00 PM 20.72 69.296 0.115 8.97 3.02 10.41
9/13/2021 4:45:00 PM 20.71 69.278 0.115 8.95 2.83 10.32
9/13/2021 5:00:00 PM 20.66 69.188 0.115 8.93 3.02 10.26
9/13/2021 5:15:00 PM 20.59 69.062 0.115 8.88 2.81 10.15
9/13/2021 5:30:00 PM 20.52 68.936 0.115 8.82 2.84 10.05
9/13/2021 5:45:00 PM 20.43 68.774 0.115 8.75 2.8 9.96
9/13/2021 6:00:00 PM 20.36 68.648 0.115 8.67 3.05 9.85
9/13/2021 6:15:00 PM 20.28 68.504 0.115 8.55 2.91 9.71
9/13/2021 6:30:00 PM 20.22 68.396 0.115 8.43 2.93 9.56
9/13/2021 6:45:00 PM 20.13 68.234 0.116 8.23 2.89 9.36
9/13/2021 7:00:00 PM 20.04 68.07201 0.116 8.02 3.52 9.16
9/13/2021 7:15:00 PM 19.93 67.874 0.116 7.8 4.23 8.91
9/13/2021 7:30:00 PM 19.83 67.694 0.117 7.66 3.61 8.69
9/13/2021 7:45:00 PM 19.73 67.514 0.117 7.56 3.03 8.47
9/13/2021 8:00:00 PM 19.63 67.334 0.117 7.46 12.15 8.29
9/13/2021 8:15:00 PM 19.55 67.19 0.118 7.4 4.09 8.19
9/13/2021 8:30:00 PM 19.47 67.046 0.118 7.36 3.11 8.08
9/13/2021 8:45:00 PM 19.41 66.938 0.118 7.32 3.08 7.99
9/13/2021 9:00:00 PM 19.33 66.794 0.118 7.3 3.47 7.95
9/13/2021 9:15:00 PM 19.26 66.668 0.118 7.28 3.2 7.91
9/13/2021 9:30:00 PM 19.19 66.542 0.119 7.25 2.97 7.87
9/13/2021 9:45:00 PM 19.13 66.434 0.119 7.24 3.07 7.84
9/13/2021 10:00:00 PM 19.05 66.29 0.119 7.24 3.21 7.85
9/13/2021 10:15:00 PM 18.97 66.146 0.119 7.21 3.07 7.84
9/13/2021 10:30:00 PM 18.92 66.056 0.119 7.22 3.05 7.81
9/13/2021 10:45:00 PM 18.84 65.912 0.119 7.2 3.23 7.82
9/13/2021 11:00:00 PM 18.77 65.786 0.12 7.21 3.1 7.84
9/13/2021 11:15:00 PM 18.7 65.66 0.12 7.19 3.15 7.84
9/13/2021 11:30:00 PM 18.64 65.552 0.12 7.19 2.98 7.83
9/13/2021 11:45:00 PM 18.58 65.444 0.12 7.17 3.41 7.86
9/14/2021 12:00:00 AM 18.53 65.354 0.12 7.19 3.05 7.86
9/14/2021 12:15:00 AM 18.49 65.282 0.12 7.17 3.33 7.86
9/14/2021 12:30:00 AM 18.45 65.21 0.12 7.17 3.09 7.87
9/14/2021 12:45:00 AM 18.4 65.12 0.12 7.18 3.06 7.89
9/14/2021 1:00:00 AM 18.36 65.048 0.12 7.18 3.54 7.88
9/14/2021 1:15:00 AM 18.32 64.976 0.12 7.15 3.12 7.92
9/14/2021 1:30:00 AM 18.28 64.904 0.12 7.17 4.46 7.92
9/14/2021 1:45:00 AM 18.23 64.814 0.12 7.18 3.28 7.96
9/14/2021 2:00:00 AM 18.19 64.742 0.119 7.18 3.23 7.96
9/14/2021 2:15:00 AM 18.15 64.67 0.119 7.15 3.37 7.95
9/14/2021 2:30:00 AM 18.11 64.598 0.119 7.17 3.68 7.94
9/14/2021 2:45:00 AM 18.07 64.526 0.119 7.17 3.18 7.96
9/14/2021 3:00:00 AM 18.03 64.454 0.119 7.15 3.42 7.98
9/14/2021 3:15:00 AM 18 64.4 0.119 7.17 3.34 7.98
9/14/2021 3:30:00 AM 17.97 64.346 0.119 7.17 3.07 7.98
9/14/2021 3:45:00 AM 17.93 64.274 0.119 7.16 3.57 7.98
9/14/2021 4:00:00 AM 17.89 64.202 0.119 7.17 3.28 8.01
9/14/2021 4:15:00 AM 17.86 64.148 0.119 7.17 3.26 7.99
9/14/2021 4:30:00 AM 17.83 64.094 0.119 7.17 3.37 8.01
9/14/2021 4:45:00 AM 17.79 64.022 0.119 7.14 3.31 8.05
9/14/2021 5:00:00 AM 17.77 63.986 0.119 7.16 3.3 8.01
9/14/2021 5:15:00 AM 17.74 63.932 0.119 7.15 3.38 8.04
9/14/2021 5:30:00 AM 17.71 63.878 0.119 7.17 3.3 8.07
9/14/2021 5:45:00 AM 17.68 63.824 0.119 7.17 3.41 8.04
9/14/2021 6:00:00 AM 17.64 63.752 0.119 7.16 3.51 8.09
9/14/2021 6:15:00 AM 17.62 63.716 0.119 7.17 6.83 8.07
9/14/2021 6:30:00 AM 17.6 63.68 0.119 7.15 5.38 8.05
9/14/2021 6:45:00 AM 17.57 63.626 0.12 7.16 5.41 8.11
9/14/2021 7:00:00 AM 17.55 63.59 0.12 7.16 7.99 8.11
9/14/2021 7:15:00 AM 17.52 63.536 0.12 7.17 6.05 8.12
9/14/2021 7:30:00 AM 17.49 63.482 0.12 7.18 4.35 8.24
9/14/2021 7:45:00 AM 17.46 63.428 0.12 7.19 3.62 8.29
9/14/2021 8:00:00 AM 17.44 63.392 0.12 7.21 3.74 8.33
9/14/2021 8:15:00 AM 17.42 63.356 0.12 7.22 3.51 8.44
9/14/2021 8:30:00 AM 17.41 63.338 0.12 7.26 3.29 8.68
9/14/2021 8:45:00 AM 17.42 63.356 0.12 7.25 3.2 8.84
9/14/2021 9:00:00 AM 17.43 63.374 0.12 7.31 3.19 9.03
9/14/2021 9:15:00 AM 17.46 63.428 0.12 7.34 3.19 9.2
9/14/2021 9:30:00 AM 17.5 63.5 0.119 7.38 3.22 9.38
9/14/2021 9:45:00 AM 17.54 63.572 0.119 7.42 3.35 9.57
9/14/2021 10:00:00 AM 17.61 63.698 0.119 7.45 3.07 9.73
9/14/2021 10:15:00 AM 17.71 63.878 0.119 7.51 3.12 9.92
9/14/2021 10:30:00 AM 17.82 64.076 0.119 7.56 3.27 10.04
9/14/2021 10:45:00 AM 17.96 64.328 0.118 7.6 3.06 10.2
9/14/2021 11:00:00 AM 18.05 64.49 0.118 7.66 3.06 10.24
9/14/2021 11:15:00 AM 18.11 64.598 0.118 7.7 3.17 10.26
9/14/2021 11:30:00 AM 18.2 64.76 0.118 7.74 3.1 10.34
9/14/2021 11:45:00 AM 18.41 65.138 0.117 7.86 2.97 10.48
9/14/2021 12:00:00 PM 18.64 65.552 0.117 7.98 2.91 10.57
9/14/2021 12:15:00 PM 18.82 65.876 0.117 8.08 3 10.6
9/14/2021 12:30:00 PM 18.97 66.146 0.117 8.18 2.99 10.63
9/14/2021 12:45:00 PM 19.12 66.416 0.116 8.31 2.88 10.66
9/14/2021 1:00:00 PM 19.25 66.65 0.116 8.4 3.05 10.64
9/14/2021 1:15:00 PM 19.39 66.902 0.116 8.48 2.87 10.65
9/14/2021 1:30:00 PM 19.53 67.154 0.116 8.56 2.99 10.63
9/14/2021 1:45:00 PM 19.71 67.478 0.116 8.6 3 10.64
9/14/2021 2:00:00 PM 19.88 67.784 0.116 8.67 2.87 10.61
9/14/2021 2:15:00 PM 20.05 68.09 0.116 8.7 2.91 10.58
9/14/2021 2:30:00 PM 20.19 68.342 0.115 8.76 2.9 10.53
9/14/2021 2:45:00 PM 20.29 68.522 0.115 8.8 2.92 10.54
9/14/2021 3:00:00 PM 20.44 68.792 0.115 8.83 2.82 10.54
9/14/2021 3:15:00 PM 20.54 68.972 0.115 8.84 3.02 10.45
9/14/2021 3:30:00 PM 20.65 69.17 0.115 8.87 2.86 10.41
9/14/2021 3:45:00 PM 20.78 69.404 0.115 8.87 2.84 10.39
9/14/2021 4:00:00 PM 20.91 69.638 0.115 8.89 2.83 10.34
9/14/2021 4:15:00 PM 21 69.8 0.115 8.89 2.76 10.33
9/14/2021 4:30:00 PM 21.06 69.908 0.115 8.91 2.92 10.22
9/14/2021 4:45:00 PM 21.07 69.926 0.115 8.9 2.87 10.17
9/14/2021 5:00:00 PM 21.05 69.89 0.115 8.88 2.85 10.03
9/14/2021 5:15:00 PM 21.01 69.818 0.116 8.83 2.9 9.87
9/14/2021 5:30:00 PM 20.95 69.71 0.116 8.74 3.09 9.73
9/14/2021 5:45:00 PM 20.88 69.584 0.116 8.63 2.83 9.57
9/14/2021 6:00:00 PM 20.8 69.44 0.116 8.49 2.92 9.41
9/14/2021 6:15:00 PM 20.74 69.332 0.116 8.32 2.8 9.24
9/14/2021 6:30:00 PM 20.66 69.188 0.116 8.11 3.06 9.08
9/14/2021 6:45:00 PM 20.6 69.08 0.116 7.95 2.86 8.94
9/14/2021 7:00:00 PM 20.53 68.954 0.117 7.8 3 8.8
9/14/2021 7:15:00 PM 20.44 68.792 0.117 7.66 2.9 8.61
9/14/2021 7:30:00 PM 20.35 68.63 0.118 7.56 5.85 8.38
9/14/2021 7:45:00 PM 20.28 68.504 0.118 7.48 4.02 8.26
9/14/2021 8:00:00 PM 20.18 68.324 0.118 7.43 4.83 8.09
9/14/2021 8:15:00 PM 20.1 68.18 0.119 7.37 3.55 7.96
9/14/2021 8:30:00 PM 20.02 68.036 0.119 7.35 3.09 7.79
9/14/2021 8:45:00 PM 19.93 67.874 0.119 7.32 3.41 7.82
9/14/2021 9:00:00 PM 19.84 67.712 0.12 7.29 3.23 7.78
9/14/2021 9:15:00 PM 19.77 67.586 0.12 7.27 3.32 7.73
9/14/2021 9:30:00 PM 19.69 67.442 0.12 7.25 3.34 7.68
9/14/2021 9:45:00 PM 19.62 67.316 0.12 7.24 3.62 7.68
9/14/2021 10:00:00 PM 19.54 67.172 0.12 7.22 3.19 7.66
9/14/2021 10:15:00 PM 19.46 67.028 0.12 7.21 3.24 7.7
9/14/2021 10:30:00 PM 19.4 66.92 0.12 7.21 3.35 7.69
9/14/2021 10:45:00 PM 19.33 66.794 0.121 7.2 3.25 7.69
9/14/2021 11:00:00 PM 19.25 66.65 0.121 7.19 3.14 7.65
9/14/2021 11:15:00 PM 19.2 66.56 0.121 7.17 3.14 7.69
9/14/2021 11:30:00 PM 19.15 66.47 0.121 7.18 3.42 7.69
9/14/2021 11:45:00 PM 19.11 66.398 0.121 7.18 3.29 7.68
9/15/2021 12:00:00 AM 19.06 66.308 0.121 7.18 3.36 7.69
9/15/2021 12:15:00 AM 19.02 66.236 0.121 7.18 3.67 7.69
9/15/2021 12:30:00 AM 18.99 66.182 0.121 7.18 3.21 7.71
9/15/2021 12:45:00 AM 18.95 66.11 0.121 7.18 3.14 7.72
9/15/2021 1:00:00 AM 18.91 66.038 0.121 7.17 3.13 7.7
9/15/2021 1:15:00 AM 18.88 65.984 0.121 7.18 3.57 7.75
9/15/2021 1:30:00 AM 18.83 65.894 0.121 7.18 3.29 7.73
9/15/2021 1:45:00 AM 18.8 65.84 0.121 7.16 3.61 7.73
9/15/2021 2:00:00 AM 18.76 65.768 0.121 7.17 3.51 7.72
9/15/2021 2:15:00 AM 18.71 65.67799 0.121 7.18 3.26 7.75
9/15/2021 2:30:00 AM 18.68 65.624 0.121 7.18 3.24 7.73
9/15/2021 2:45:00 AM 18.64 65.552 0.121 7.17 3.2 7.79
9/15/2021 3:00:00 AM 18.6 65.48 0.122 7.15 3.3 7.79
9/15/2021 3:15:00 AM 18.56 65.408 0.122 7.16 3.68 7.78
9/15/2021 3:30:00 AM 18.51 65.318 0.122 7.17 3.58 7.8
9/15/2021 3:45:00 AM 18.46 65.228 0.122 7.17 3.42 7.8
9/15/2021 4:00:00 AM 18.42 65.156 0.122 7.15 3.42 7.84
9/15/2021 4:15:00 AM 18.39 65.102 0.122 7.16 3.18 7.81
9/15/2021 4:30:00 AM 18.35 65.03 0.122 7.14 3.3 7.85
9/15/2021 4:45:00 AM 18.33 64.994 0.122 7.15 3.31 7.87
9/15/2021 5:00:00 AM 18.3 64.94 0.122 7.15 3.29 7.86
9/15/2021 5:15:00 AM 18.29 64.922 0.122 7.15 3.99 7.84
9/15/2021 5:30:00 AM 18.26 64.868 0.122 7.15 3.72 7.87
9/15/2021 5:45:00 AM 18.24 64.832 0.122 7.15 3.52 7.91
9/15/2021 6:00:00 AM 18.23 64.814 0.122 7.14 3.43 7.9
9/15/2021 6:15:00 AM 18.2 64.76 0.122 7.15 5.57 7.89
9/15/2021 6:30:00 AM 18.18 64.724 0.122 7.15 5.28 7.9
9/15/2021 6:45:00 AM 18.16 64.688 0.123 7.15 4.75 7.89
9/15/2021 7:00:00 AM 18.14 64.652 0.123 7.14 5.37 7.89
9/15/2021 7:15:00 AM 18.12 64.616 0.123 7.15 4.12 7.91
9/15/2021 7:30:00 AM 18.1 64.58 0.123 7.15 3.35 7.95
9/15/2021 7:45:00 AM 18.09 64.562 0.123 7.16 3.26 8.02
9/15/2021 8:00:00 AM 18.08 64.544 0.123 7.15 3.12 8.15
9/15/2021 8:15:00 AM 18.09 64.562 0.123 7.2 3.02 8.36
9/15/2021 8:30:00 AM 18.11 64.598 0.123 7.23 3.14 8.53
9/15/2021 8:45:00 AM 18.14 64.652 0.122 7.25 3.12 8.69
9/15/2021 9:00:00 AM 18.18 64.724 0.122 7.28 3.04 8.84
9/15/2021 9:15:00 AM 18.22 64.796 0.122 7.3 3.09 8.96
9/15/2021 9:30:00 AM 18.27 64.886 0.122 7.34 3.06 9.06
9/15/2021 9:45:00 AM 18.33 64.994 0.122 7.37 2.98 9.28
9/15/2021 10:00:00 AM 18.41 65.138 0.122 7.38 2.94 9.4
9/15/2021 10:15:00 AM 18.51 65.318 0.122 7.44 2.93 9.56
9/15/2021 10:30:00 AM 18.63 65.534 0.122 7.47 2.98 9.7
9/15/2021 10:45:00 AM 18.75 65.75 0.121 7.51 3.01 9.83
9/15/2021 11:00:00 AM 18.92 66.056 0.121 7.58 2.99 10.01
9/15/2021 11:15:00 AM 19.1 66.38 0.121 7.62 2.93 10.08
9/15/2021 11:30:00 AM 19.3 66.74 0.121 7.68 2.93 10.15
9/15/2021 11:45:00 AM 19.49 67.082 0.121 7.74 2.88 10.25
9/15/2021 12:00:00 PM 19.68 67.424 0.12 7.79 2.89 10.3
9/15/2021 12:15:00 PM 19.87 67.766 0.12 7.86 2.83 10.33
9/15/2021 12:30:00 PM 20.11 68.198 0.12 7.94 2.79 10.35
9/15/2021 12:45:00 PM 20.35 68.63 0.12 8.02 3.38 10.36
9/15/2021 1:00:00 PM 20.58 69.044 0.12 8.1 2.86 10.39
9/15/2021 1:15:00 PM 20.76 69.368 0.119 8.21 2.88 10.37
9/15/2021 1:30:00 PM 21.02 69.836 0.119 8.32 2.88 10.41
9/15/2021 1:45:00 PM 21.19 70.142 0.119 8.4 2.93 10.34
9/15/2021 2:00:00 PM 21.29 70.32201 0.119 8.47 3.04 10.26
9/15/2021 2:15:00 PM 21.33 70.394 0.119 8.5 2.92 10.13
9/15/2021 2:30:00 PM 21.34 70.412 0.119 8.5 3.02 9.98
9/15/2021 2:45:00 PM 21.3 70.34 0.119 8.45 2.95 9.74
9/15/2021 3:00:00 PM 21.24 70.232 0.119 8.34 3.2 9.52
9/15/2021 3:15:00 PM 21.17 70.106 0.119 8.19 3.52 9.24
9/15/2021 3:30:00 PM 21.1 69.98 0.119 8.01 3.91 9.01
9/15/2021 3:45:00 PM 21.04 69.872 0.119 7.84 3.86 8.81
9/15/2021 4:00:00 PM 20.97 69.746 0.119 7.73 3.73 8.65
9/15/2021 4:15:00 PM 20.9 69.62 0.119 7.62 3.82 8.56
9/15/2021 4:30:00 PM 20.84 69.512 0.119 7.57 3.8 8.5
9/15/2021 4:45:00 PM 20.77 69.386 0.12 7.54 3.46 8.47
9/15/2021 5:00:00 PM 20.7 69.26 0.12 7.5 3.23 8.39
9/15/2021 5:15:00 PM 20.63 69.134 0.12 7.46 3.35 8.32
9/15/2021 5:30:00 PM 20.55 68.99 0.12 7.41 3.19 8.21
9/15/2021 5:45:00 PM 20.48 68.864 0.12 7.39 3.18 8.13
9/15/2021 6:00:00 PM 20.41 68.738 0.12 7.35 3.29 8.06
9/15/2021 6:15:00 PM 20.35 68.63 0.12 7.33 3.39 7.98
9/15/2021 6:30:00 PM 20.3 68.54 0.12 7.32 3.12 7.92
9/15/2021 6:45:00 PM 20.22 68.396 0.12 7.28 3.15 7.87
9/15/2021 7:00:00 PM 20.16 68.288 0.121 7.28 3.86 7.83
9/15/2021 7:15:00 PM 20.09 68.162 0.121 7.26 6.7 7.8
9/15/2021 7:30:00 PM 20.01 68.018 0.121 7.26 6.34 7.77
9/15/2021 7:45:00 PM 19.94 67.892 0.121 7.25 4.21 7.73
9/15/2021 8:00:00 PM 19.87 67.766 0.121 7.24 4.15 7.72
9/15/2021 8:15:00 PM 19.79 67.622 0.121 7.21 3.98 7.7
9/15/2021 8:30:00 PM 19.72 67.496 0.121 7.22 3.61 7.7
9/15/2021 8:45:00 PM 19.66 67.388 0.121 7.19 3.73 7.66
9/15/2021 9:00:00 PM 19.6 67.28 0.121 7.21 3.67 7.71
9/15/2021 9:15:00 PM 19.54 67.172 0.121 7.21 5.26 7.67
9/15/2021 9:30:00 PM 19.48 67.064 0.121 7.2 3.79 7.71
9/15/2021 9:45:00 PM 19.42 66.956 0.121 7.2 3.82 7.74
9/15/2021 10:00:00 PM 19.36 66.848 0.121 7.21 3.71 7.76
9/15/2021 10:15:00 PM 19.31 66.758 0.121 7.21 5.04 7.73
9/15/2021 10:30:00 PM 19.26 66.668 0.121 7.21 4.17 7.8
9/15/2021 10:45:00 PM 19.2 66.56 0.12 7.21 3.99 7.83
9/15/2021 11:00:00 PM 19.14 66.452 0.12 7.21 4.15 7.84
9/15/2021 11:15:00 PM 19.1 66.38 0.12 7.21 4.64 7.84
9/15/2021 11:30:00 PM 19.05 66.29 0.12 7.21 5.59 7.9
9/15/2021 11:45:00 PM 19 66.2 0.12 7.22 4.98 7.92
9/16/2021 12:00:00 AM 18.95 66.11 0.12 7.22 5.02 7.93
9/16/2021 12:15:00 AM 18.89 66.002 0.12 7.22 5.92 7.95
9/16/2021 12:30:00 AM 18.84 65.912 0.12 7.23 6.05 7.98
9/16/2021 12:45:00 AM 18.78 65.804 0.12 7.23 6.22 7.98
9/16/2021 1:00:00 AM 18.73 65.714 0.12 7.23 7.03 8.01
9/16/2021 1:15:00 AM 18.68 65.624 0.12 7.24 6.6 8.04
9/16/2021 1:30:00 AM 18.62 65.516 0.12 7.24 6.26 8.09
9/16/2021 1:45:00 AM 18.57 65.426 0.12 7.24 6.39 8.14
9/16/2021 2:00:00 AM 18.52 65.336 0.12 7.25 6.99 8.16
9/16/2021 2:15:00 AM 18.47 65.246 0.119 7.26 8.48 8.21
9/16/2021 2:30:00 AM 18.43 65.174 0.12 7.27 7.75 8.24
9/16/2021 2:45:00 AM 18.37 65.066 0.12 7.28 8.74 8.3
9/16/2021 3:00:00 AM 18.33 64.994 0.12 7.29 8.34 8.32
9/16/2021 3:15:00 AM 18.27 64.886 0.12 7.29 8 8.37
9/16/2021 3:30:00 AM 18.22 64.796 0.12 7.3 6.99 8.4
9/16/2021 3:45:00 AM 18.18 64.724 0.12 7.3 7.13 8.41
9/16/2021 4:00:00 AM 18.13 64.634 0.12 7.31 6.61 8.44
9/16/2021 4:15:00 AM 18.08 64.544 0.12 7.31 6.63 8.47
9/16/2021 4:30:00 AM 18.03 64.454 0.12 7.32 6.4 8.49
9/16/2021 4:45:00 AM 17.99 64.382 0.12 7.32 6.49 8.51
9/16/2021 5:00:00 AM 17.95 64.31 0.121 7.32 6.73 8.53
9/16/2021 5:15:00 AM 17.91 64.238 0.121 7.32 38.8 8.53
9/16/2021 5:30:00 AM 17.87 64.166 0.12 7.33 6.64 8.55
9/16/2021 5:45:00 AM 17.83 64.094 0.12 7.33 6.75 8.57
9/16/2021 6:00:00 AM 17.8 64.04 0.119 7.33 6.92 8.58
9/16/2021 6:15:00 AM 17.76 63.968 0.119 7.32 7.75 8.59
9/16/2021 6:30:00 AM 17.72 63.896 0.119 7.32 6.79 8.6
9/16/2021 6:45:00 AM 17.69 63.842 0.118 7.32 6.65 8.59
9/16/2021 7:00:00 AM 17.66 63.788 0.118 7.32 7.35 8.6
9/16/2021 7:15:00 AM 17.63 63.734 0.118 7.31 7.22 8.63
9/16/2021 7:30:00 AM 17.61 63.698 0.118 7.32 6.66 8.66
9/16/2021 7:45:00 AM 17.59 63.662 0.118 7.33 5.22 8.72
9/16/2021 8:00:00 AM 17.58 63.644 0.118 7.34 5.46 8.79
9/16/2021 8:15:00 AM 17.57 63.626 0.118 7.36 5.39 8.86
9/16/2021 8:30:00 AM 17.57 63.626 0.118 7.37 5.26 8.9
9/16/2021 8:45:00 AM 17.56 63.608 0.118 7.38 5.11 8.98
9/16/2021 9:00:00 AM 17.56 63.608 0.118 7.4 5.51 9.05
9/16/2021 9:15:00 AM 17.56 63.608 0.118 7.41 5.3 9.1
9/16/2021 9:30:00 AM 17.55 63.59 0.118 7.41 4.72 9.12
9/16/2021 9:45:00 AM 17.56 63.608 0.118 7.43 4.61 9.2
9/16/2021 10:00:00 AM 17.6 63.68 0.118 7.47 4.41 9.36
9/16/2021 10:15:00 AM 17.64 63.752 0.118 7.51 4.38 9.56
9/16/2021 10:30:00 AM 17.69 63.842 0.117 7.57 4.26 9.73
9/16/2021 10:45:00 AM 17.76 63.968 0.117 7.61 4.38 9.86
9/16/2021 11:00:00 AM 17.84 64.112 0.117 7.66 4.22 9.97
9/16/2021 11:15:00 AM 17.92 64.256 0.117 7.71 4.12 10.07
9/16/2021 11:30:00 AM 18.03 64.454 0.117 7.78 4.17 10.19
9/16/2021 11:45:00 AM 18.15 64.67 0.117 7.84 4.05 10.27
9/16/2021 12:00:00 PM 18.29 64.922 0.117 7.89 4.02 10.31
9/16/2021 12:15:00 PM 18.52 65.336 0.116 7.95 4.09 10.36
9/16/2021 12:30:00 PM 18.66 65.588 0.116 8 3.87 10.36
9/16/2021 12:45:00 PM 18.8 65.84 0.116 8.05 3.84 10.34
9/16/2021 1:00:00 PM 18.96 66.128 0.116 8.09 3.82 10.34
9/16/2021 1:15:00 PM 19.09 66.362 0.116 8.11 3.85 10.29
9/16/2021 1:30:00 PM 19.3 66.74 0.116 8.17 3.84 10.32
9/16/2021 1:45:00 PM 19.61 67.298 0.116 8.25 4.25 10.34
9/16/2021 2:00:00 PM 19.9 67.82 0.115 8.31 3.75 10.34
9/16/2021 2:15:00 PM 20.12 68.216 0.115 8.35 3.66 10.3
9/16/2021 2:30:00 PM 20.28 68.504 0.115 8.4 3.7 10.28
9/16/2021 2:45:00 PM 20.39 68.702 0.115 8.44 3.74 10.27
9/16/2021 3:00:00 PM 20.47 68.846 0.115 8.47 3.56 10.26
9/16/2021 3:15:00 PM 20.53 68.954 0.115 8.51 3.6 10.27
9/16/2021 3:30:00 PM 20.57 69.026 0.115 8.54 3.6 10.24
9/16/2021 3:45:00 PM 20.57 69.026 0.115 8.53 3.65 10.16
9/16/2021 4:00:00 PM 20.51 68.918 0.116 8.5 3.58 10.03
9/16/2021 4:15:00 PM 20.41 68.738 0.116 8.43 3.58 9.9
9/16/2021 4:30:00 PM 20.34 68.612 0.116 8.33 3.91 9.78
9/16/2021 4:45:00 PM 20.28 68.504 0.116 8.25 3.64 9.74
9/16/2021 5:00:00 PM 20.26 68.468 0.116 8.19 3.56 9.72
9/16/2021 5:15:00 PM 20.25 68.45 0.116 8.15 3.59 9.69
9/16/2021 5:30:00 PM 20.23 68.414 0.116 8.09 3.57 9.61
9/16/2021 5:45:00 PM 20.21 68.378 0.116 8.01 3.64 9.49
9/16/2021 6:00:00 PM 20.17 68.306 0.116 7.92 3.62 9.36
9/16/2021 6:15:00 PM 20.11 68.198 0.116 7.81 3.84 9.19
9/16/2021 6:30:00 PM 20.03 68.054 0.117 7.71 3.71 9.02
9/16/2021 6:45:00 PM 19.94 67.892 0.117 7.62 3.68 8.82
9/16/2021 7:00:00 PM 19.87 67.766 0.117 7.54 3.55 8.64
9/16/2021 7:15:00 PM 19.8 67.64 0.117 7.48 3.64 8.48
9/16/2021 7:30:00 PM 19.74 67.532 0.118 7.43 3.71 8.36
9/16/2021 7:45:00 PM 19.67 67.406 0.118 7.39 3.62 8.25
9/16/2021 8:00:00 PM 19.6 67.28 0.118 7.35 3.5 8.18
9/16/2021 8:15:00 PM 19.54 67.172 0.118 7.33 3.83 8.13
9/16/2021 8:30:00 PM 19.5 67.1 0.118 7.31 3.63 8.08
9/16/2021 8:45:00 PM 19.44 66.992 0.118 7.29 3.78 8.07
9/16/2021 9:00:00 PM 19.39 66.902 0.119 7.28 3.87 8.05
9/16/2021 9:15:00 PM 19.35 66.83 0.119 7.27 3.62 8.03
9/16/2021 9:30:00 PM 19.3 66.74 0.119 7.26 3.93 8.02
9/16/2021 9:45:00 PM 19.25 66.65 0.119 7.25 3.65 8.03
9/16/2021 10:00:00 PM 19.2 66.56 0.119 7.25 3.83 8.03
9/16/2021 10:15:00 PM 19.15 66.47 0.119 7.24 3.58 8.03
9/16/2021 10:30:00 PM 19.12 66.416 0.12 7.23 7.72 8.02
9/16/2021 10:45:00 PM 19.06 66.308 0.12 7.23 3.71 8.05
9/16/2021 11:00:00 PM 19.02 66.236 0.12 7.23 3.74 8.06
9/16/2021 11:15:00 PM 18.98 66.164 0.12 7.22 3.76 8.05
9/16/2021 11:30:00 PM 18.93 66.074 0.12 7.22 3.65 8.07
9/16/2021 11:45:00 PM 18.9 66.02 0.12 7.22 172.27 8.06
9/17/2021 12:00:00 AM 18.86 65.948 0.12 7.22 3.87 8.08
9/17/2021 12:15:00 AM 18.83 65.894 0.12 7.22 3.51 8.07
9/17/2021 12:30:00 AM 18.79 65.82201 0.12 7.21 3.63 8.08
9/17/2021 12:45:00 AM 18.75 65.75 0.12 7.21 3.67 8.09
9/17/2021 1:00:00 AM 18.7 65.66 0.121 7.22 3.55 8.11
9/17/2021 1:15:00 AM 18.66 65.588 0.121 7.21 3.7 8.08
9/17/2021 1:30:00 AM 18.61 65.498 0.121 7.2 3.59 8.08
9/17/2021 1:45:00 AM 18.57 65.426 0.121 7.21 3.61 8.12
9/17/2021 2:00:00 AM 18.53 65.354 0.121 7.2 3.71 8.12
9/17/2021 2:15:00 AM 18.49 65.282 0.121 7.19 3.55 8.1
9/17/2021 2:30:00 AM 18.44 65.192 0.121 7.21 3.43 8.13
9/17/2021 2:45:00 AM 18.4 65.12 0.121 7.21 3.57 8.15
9/17/2021 3:00:00 AM 18.39 65.102 0.121 7.2 3.44 8.13
9/17/2021 3:15:00 AM 18.36 65.048 0.121 7.21 3.57 8.16
9/17/2021 3:30:00 AM 18.33 64.994 0.122 7.2 3.57 8.17
9/17/2021 3:45:00 AM 18.31 64.958 0.122 7.2 3.88 8.16
9/17/2021 4:00:00 AM 18.29 64.922 0.122 7.19 3.68 8.16
9/17/2021 4:15:00 AM 18.27 64.886 0.122 7.2 3.5 8.15
9/17/2021 4:30:00 AM 18.25 64.85 0.122 7.2 3.55 8.17
9/17/2021 4:45:00 AM 18.23 64.814 0.122 7.2 3.53 8.18
9/17/2021 5:00:00 AM 18.22 64.796 0.122 7.19 3.54 8.17
9/17/2021 5:15:00 AM 18.2 64.76 0.122 7.2 3.56 8.18
9/17/2021 5:30:00 AM 18.18 64.724 0.122 7.2 3.48 8.19
9/17/2021 5:45:00 AM 18.17 64.706 0.122 7.19 3.62 8.18
9/17/2021 6:00:00 AM 18.15 64.67 0.122 7.19 3.79 8.19
9/17/2021 6:15:00 AM 18.14 64.652 0.122 7.19 5.07 8.19
9/17/2021 6:30:00 AM 18.13 64.634 0.123 7.19 6.52 8.2
9/17/2021 6:45:00 AM 18.11 64.598 0.123 7.19 3.95 8.19
9/17/2021 7:00:00 AM 18.1 64.58 0.123 7.19 3.9 8.2
9/17/2021 7:15:00 AM 18.09 64.562 0.123 7.19 5.22 8.22
9/17/2021 7:30:00 AM 18.09 64.562 0.123 7.16 5.04 8.25
9/17/2021 7:45:00 AM 18.09 64.562 0.123 7.19 4.48 8.26
9/17/2021 8:00:00 AM 18.09 64.562 0.123 7.21 4.4 8.36
9/17/2021 8:15:00 AM 18.1 64.58 0.123 7.22 3.81 8.44
9/17/2021 8:30:00 AM 18.11 64.598 0.123 7.24 3.57 8.55
9/17/2021 8:45:00 AM 18.12 64.616 0.123 7.25 3.3 8.63
9/17/2021 9:00:00 AM 18.14 64.652 0.123 7.26 3.16 8.71
9/17/2021 9:15:00 AM 18.18 64.724 0.123 7.3 3.03 8.91
9/17/2021 9:30:00 AM 18.24 64.832 0.123 7.32 2.99 9.09
9/17/2021 9:45:00 AM 18.29 64.922 0.122 7.34 2.98 9.23
9/17/2021 10:00:00 AM 18.34 65.012 0.122 7.4 3 9.41
9/17/2021 10:15:00 AM 18.38 65.084 0.122 7.42 2.89 9.48
9/17/2021 10:30:00 AM 18.42 65.156 0.122 7.44 3.1 9.52
9/17/2021 10:45:00 AM 18.48 65.264 0.122 7.48 3.21 9.63
9/17/2021 11:00:00 AM 18.52 65.336 0.122 7.5 3 9.69
9/17/2021 11:15:00 AM 18.56 65.408 0.122 7.53 2.9 9.71
9/17/2021 11:30:00 AM 18.61 65.498 0.122 7.56 2.85 9.77
9/17/2021 11:45:00 AM 18.65 65.57 0.122 7.57 2.91 9.79
9/17/2021 12:00:00 PM 18.71 65.67799 0.122 7.6 2.87 9.88
9/17/2021 12:15:00 PM 18.77 65.786 0.122 7.64 2.81 9.96
9/17/2021 12:30:00 PM 18.83 65.894 0.122 7.68 2.86 9.99
9/17/2021 12:45:00 PM 18.92 66.056 0.121 7.72 2.84 10.08
9/17/2021 1:00:00 PM 19.05 66.29 0.121 7.79 2.88 10.21
9/17/2021 1:15:00 PM 19.15 66.47 0.121 7.86 2.87 10.27
9/17/2021 1:30:00 PM 19.21 66.578 0.121 7.93 2.85 10.29
9/17/2021 1:45:00 PM 19.29 66.722 0.121 7.99 2.86 10.33
9/17/2021 2:00:00 PM 19.36 66.848 0.12 8.03 2.95 10.31
9/17/2021 2:15:00 PM 19.43 66.974 0.12 8.08 2.92 10.32
9/17/2021 2:30:00 PM 19.5 67.1 0.12 8.12 2.84 10.31
9/17/2021 2:45:00 PM 19.56 67.208 0.12 8.18 3.02 10.29
9/17/2021 3:00:00 PM 19.59 67.262 0.12 8.19 2.87 10.23
9/17/2021 3:15:00 PM 19.62 67.316 0.12 8.18 2.83 10.14
9/17/2021 3:30:00 PM 19.65 67.37 0.12 8.15 2.75 10.07
9/17/2021 3:45:00 PM 19.68 67.424 0.12 8.1 2.99 10
9/17/2021 4:00:00 PM 19.72 67.496 0.12 8.1 2.81 9.99
9/17/2021 4:15:00 PM 19.75 67.55 0.12 8.09 2.86 9.94
9/17/2021 4:30:00 PM 19.77 67.586 0.12 8.08 2.85 9.9
9/17/2021 4:45:00 PM 19.8 67.64 0.12 8.04 2.8 9.84
9/17/2021 5:00:00 PM 19.84 67.712 0.12 8.03 2.9 9.84
9/17/2021 5:15:00 PM 19.88 67.784 0.12 8.01 2.88 9.79
9/17/2021 5:30:00 PM 19.9 67.82 0.12 7.97 2.81 9.73
9/17/2021 5:45:00 PM 19.93 67.874 0.12 7.93 3.17 9.68
9/17/2021 6:00:00 PM 19.97 67.946 0.12 7.91 2.94 9.64
9/17/2021 6:15:00 PM 20 68 0.121 7.9 2.86 9.6
9/17/2021 6:30:00 PM 20 68 0.121 7.86 2.82 9.49
9/17/2021 6:45:00 PM 19.97 67.946 0.121 7.77 3.05 9.31
9/17/2021 7:00:00 PM 19.92 67.856 0.122 7.68 2.78 9.07
9/17/2021 7:15:00 PM 19.85 67.73 0.122 7.58 2.85 8.84
9/17/2021 7:30:00 PM 19.79 67.622 0.122 7.51 2.91 8.64
9/17/2021 7:45:00 PM 19.73 67.514 0.123 7.44 2.95 8.42
9/17/2021 8:00:00 PM 19.66 67.388 0.123 7.39 3.07 8.28
9/17/2021 8:15:00 PM 19.62 67.316 0.123 7.35 3.2 8.18
9/17/2021 8:30:00 PM 19.56 67.208 0.123 7.32 3.04 8.1
9/17/2021 8:45:00 PM 19.51 67.118 0.123 7.29 3.08 8.03
9/17/2021 9:00:00 PM 19.46 67.028 0.124 7.27 3.05 7.98
9/17/2021 9:15:00 PM 19.41 66.938 0.124 7.26 3.09 7.96
9/17/2021 9:30:00 PM 19.36 66.848 0.124 7.25 3.39 7.94
9/17/2021 9:45:00 PM 19.31 66.758 0.124 7.23 3.06 7.92
9/17/2021 10:00:00 PM 19.25 66.65 0.124 7.23 3.34 7.9
9/17/2021 10:15:00 PM 19.2 66.56 0.124 7.22 3.12 7.87
9/17/2021 10:30:00 PM 19.14 66.452 0.125 7.21 3.06 7.9
9/17/2021 10:45:00 PM 19.09 66.362 0.125 7.21 3.18 7.91
9/17/2021 11:00:00 PM 19.03 66.254 0.125 7.2 3.58 7.91
9/17/2021 11:15:00 PM 18.97 66.146 0.125 7.2 3.37 7.93
9/17/2021 11:30:00 PM 18.92 66.056 0.126 7.2 3.1 7.95
9/17/2021 11:45:00 PM 18.87 65.966 0.126 7.2 3.1 7.94
9/18/2021 12:00:00 AM 18.82 65.876 0.126 7.19 3.97 7.94
9/18/2021 12:15:00 AM 18.76 65.768 0.126 7.19 3.17 7.94
9/18/2021 12:30:00 AM 18.72 65.696 0.127 7.19 4.3 7.94
9/18/2021 12:45:00 AM 18.67 65.606 0.127 7.18 3.19 7.95
9/18/2021 1:00:00 AM 18.63 65.534 0.127 7.18 3.34 7.95
9/18/2021 1:15:00 AM 18.59 65.462 0.127 7.18 3.32 7.96
9/18/2021 1:30:00 AM 18.55 65.39 0.127 7.18 3.19 7.99
9/18/2021 1:45:00 AM 18.51 65.318 0.128 7.18 3.14 8.01
9/18/2021 2:00:00 AM 18.48 65.264 0.128 7.17 3.42 8.01
9/18/2021 2:15:00 AM 18.46 65.228 0.128 7.17 3.69 7.98
9/18/2021 2:30:00 AM 18.42 65.156 0.128 7.17 3.36 8.01
9/18/2021 2:45:00 AM 18.38 65.084 0.128 7.17 3.28 8.02
9/18/2021 3:00:00 AM 18.35 65.03 0.128 7.17 3.3 8.03
9/18/2021 3:15:00 AM 18.32 64.976 0.128 7.17 3.37 8.03
9/18/2021 3:30:00 AM 18.27 64.886 0.128 7.18 3.2 8.05
9/18/2021 3:45:00 AM 18.24 64.832 0.128 7.17 3.23 8.02
9/18/2021 4:00:00 AM 18.22 64.796 0.128 7.18 3.47 8.05
9/18/2021 4:15:00 AM 18.19 64.742 0.128 7.18 3.28 8.07
9/18/2021 4:30:00 AM 18.18 64.724 0.128 7.17 3.31 8.07
9/18/2021 4:45:00 AM 18.17 64.706 0.128 7.18 3.2 8.07
9/18/2021 5:00:00 AM 18.15 64.67 0.127 7.18 3.31 8.09
9/18/2021 5:15:00 AM 18.14 64.652 0.127 7.17 3.38 8.07
9/18/2021 5:30:00 AM 18.13 64.634 0.127 7.18 3.3 8.08
9/18/2021 5:45:00 AM 18.12 64.616 0.127 7.18 3.26 8.09
9/18/2021 6:00:00 AM 18.1 64.58 0.127 7.19 3.24 8.11
9/18/2021 6:15:00 AM 18.09 64.562 0.127 7.18 3.46 8.07
9/18/2021 6:30:00 AM 18.08 64.544 0.127 7.18 4.91 8.06
9/18/2021 6:45:00 AM 18.06 64.508 0.127 7.17 4.14 8.08
9/18/2021 7:00:00 AM 18.05 64.49 0.127 7.18 4.09 8.1
9/18/2021 7:15:00 AM 18.04 64.472 0.127 7.17 4.06 8.09
9/18/2021 7:30:00 AM 18.02 64.436 0.126 7.18 6.59 8.12
9/18/2021 7:45:00 AM 18.01 64.418 0.126 7.18 5.96 8.18
9/18/2021 8:00:00 AM 18.01 64.418 0.126 7.2 4.33 8.27
9/18/2021 8:15:00 AM 18.01 64.418 0.126 7.2 3.76 8.37
9/18/2021 8:30:00 AM 18.01 64.418 0.126 7.23 4.23 8.44
9/18/2021 8:45:00 AM 18.04 64.472 0.126 7.26 3.42 8.68
9/18/2021 9:00:00 AM 18.07 64.526 0.126 7.27 3.3 8.78
9/18/2021 9:15:00 AM 18.12 64.616 0.125 7.32 3.08 9.05
9/18/2021 9:30:00 AM 18.17 64.706 0.125 7.35 3.13 9.23
9/18/2021 9:45:00 AM 18.22 64.796 0.125 7.38 3.01 9.29
9/18/2021 10:00:00 AM 18.28 64.904 0.125 7.41 2.91 9.47
9/18/2021 10:15:00 AM 18.34 65.012 0.125 7.44 3.01 9.54
9/18/2021 10:30:00 AM 18.43 65.174 0.124 7.49 2.91 9.72
9/18/2021 10:45:00 AM 18.51 65.318 0.124 7.52 3.06 9.85
9/18/2021 11:00:00 AM 18.6 65.48 0.124 7.56 2.92 9.95
9/18/2021 11:15:00 AM 18.68 65.624 0.123 7.6 2.88 9.99
9/18/2021 11:30:00 AM 18.8 65.84 0.123 7.64 2.92 10.07
9/18/2021 11:45:00 AM 18.93 66.074 0.123 7.68 2.89 10.1
9/18/2021 12:00:00 PM 19.17 66.506 0.123 7.74 2.92 10.2
9/18/2021 12:15:00 PM 19.35 66.83 0.123 7.76 2.94 10.19
9/18/2021 12:30:00 PM 19.6 67.28 0.122 7.84 2.83 10.26
9/18/2021 12:45:00 PM 19.81 67.658 0.122 7.87 2.81 10.28
9/18/2021 1:00:00 PM 19.99 67.982 0.122 7.94 2.8 10.29
9/18/2021 1:15:00 PM 20.21 68.378 0.122 8.01 2.7 10.32
9/18/2021 1:30:00 PM 20.43 68.774 0.121 8.11 2.8 10.32
9/18/2021 1:45:00 PM 20.66 69.188 0.121 8.19 2.82 10.34
9/18/2021 2:00:00 PM 20.89 69.602 0.121 8.31 2.73 10.36
9/18/2021 2:15:00 PM 21.08 69.944 0.121 8.36 2.73 10.34
9/18/2021 2:30:00 PM 21.19 70.142 0.121 8.43 2.91 10.29
9/18/2021 2:45:00 PM 21.28 70.304 0.121 8.51 3.13 10.25
9/18/2021 3:00:00 PM 21.35 70.43 0.12 8.54 2.7 10.19
9/18/2021 3:15:00 PM 21.4 70.52 0.12 8.56 2.79 10.13
9/18/2021 3:30:00 PM 21.41 70.538 0.12 8.57 2.75 10.07
9/18/2021 3:45:00 PM 21.4 70.52 0.12 8.55 2.86 9.96
9/18/2021 4:00:00 PM 21.39 70.502 0.12 8.52 3.01 9.88
9/18/2021 4:15:00 PM 21.38 70.484 0.12 8.47 2.93 9.81
9/18/2021 4:30:00 PM 21.36 70.448 0.12 8.44 2.88 9.75
9/18/2021 4:45:00 PM 21.34 70.412 0.12 8.39 2.97 9.73
9/18/2021 5:00:00 PM 21.32 70.376 0.12 8.36 2.93 9.69
9/18/2021 5:15:00 PM 21.3 70.34 0.12 8.33 2.89 9.65
9/18/2021 5:30:00 PM 21.27 70.286 0.12 8.3 3.21 9.6
9/18/2021 5:45:00 PM 21.24 70.232 0.12 8.22 3.11 9.5
9/18/2021 6:00:00 PM 21.19 70.142 0.12 8.12 3.14 9.4
9/18/2021 6:15:00 PM 21.11 69.998 0.12 8.01 3.39 9.26
9/18/2021 6:30:00 PM 21.03 69.854 0.12 7.89 3.5 9.14
9/18/2021 6:45:00 PM 20.94 69.692 0.121 7.78 3.23 8.97
9/18/2021 7:00:00 PM 20.85 69.53 0.121 7.66 3.38 8.76
9/18/2021 7:15:00 PM 20.75 69.35 0.121 7.58 4.99 8.56
9/18/2021 7:30:00 PM 20.66 69.188 0.121 7.5 7.39 8.36
9/18/2021 7:45:00 PM 20.56 69.008 0.122 7.43 7.19 8.18
9/18/2021 8:00:00 PM 20.45 68.81 0.122 7.38 6.04 8.03
9/18/2021 8:15:00 PM 20.35 68.63 0.122 7.35 4.12 7.94
9/18/2021 8:30:00 PM 20.24 68.432 0.122 7.32 3.61 7.85
9/18/2021 8:45:00 PM 20.15 68.27 0.123 7.28 3.55 7.8
9/18/2021 9:00:00 PM 20.05 68.09 0.123 7.28 3.47 7.77
9/18/2021 9:15:00 PM 19.98 67.964 0.123 7.24 3.71 7.71
9/18/2021 9:30:00 PM 19.88 67.784 0.123 7.24 3.43 7.72
9/18/2021 9:45:00 PM 19.78 67.604 0.123 7.24 3.76 7.72
9/18/2021 10:00:00 PM 19.7 67.46 0.123 7.23 4.28 7.7
9/18/2021 10:15:00 PM 19.61 67.298 0.123 7.22 4.03 7.71
9/18/2021 10:30:00 PM 19.52 67.136 0.124 7.22 3.66 7.74
9/18/2021 10:45:00 PM 19.45 67.01 0.124 7.21 3.67 7.72
9/18/2021 11:00:00 PM 19.35 66.83 0.124 7.2 3.51 7.74
9/18/2021 11:15:00 PM 19.25 66.65 0.124 7.18 3.46 7.75
9/18/2021 11:30:00 PM 19.16 66.488 0.124 7.18 3.98 7.75
9/18/2021 11:45:00 PM 19.06 66.308 0.124 7.19 3.64 7.77
9/19/2021 12:00:00 AM 18.96 66.128 0.124 7.19 3.61 7.8
9/19/2021 12:15:00 AM 18.86 65.948 0.124 7.19 4.28 7.83
9/19/2021 12:30:00 AM 18.78 65.804 0.124 7.19 3.53 7.83
9/19/2021 12:45:00 AM 18.67 65.606 0.124 7.19 3.71 7.86
9/19/2021 1:00:00 AM 18.59 65.462 0.124 7.18 3.61 7.85
9/19/2021 1:15:00 AM 18.49 65.282 0.124 7.19 3.52 7.89
9/19/2021 1:30:00 AM 18.4 65.12 0.124 7.18 3.49 7.9
9/19/2021 1:45:00 AM 18.31 64.958 0.124 7.17 3.95 7.92
9/19/2021 2:00:00 AM 18.21 64.778 0.124 7.17 3.65 7.97
9/19/2021 2:15:00 AM 18.12 64.616 0.124 7.18 3.43 7.99
9/19/2021 2:30:00 AM 18.05 64.49 0.124 7.18 3.55 7.99
9/19/2021 2:45:00 AM 17.95 64.31 0.124 7.18 3.52 8.03
9/19/2021 3:00:00 AM 17.88 64.184 0.124 7.18 5.42 8.02
9/19/2021 3:15:00 AM 17.82 64.076 0.123 7.17 4.03 8.02
9/19/2021 3:30:00 AM 17.74 63.932 0.124 7.18 4.07 8.07
9/19/2021 3:45:00 AM 17.68 63.824 0.124 7.17 3.79 8.05
9/19/2021 4:00:00 AM 17.6 63.68 0.124 7.18 3.73 8.1
9/19/2021 4:15:00 AM 17.54 63.572 0.124 7.18 3.55 8.1
9/19/2021 4:30:00 AM 17.47 63.446 0.124 7.18 3.58 8.1
9/19/2021 4:45:00 AM 17.39 63.302 0.124 7.18 3.68 8.15
9/19/2021 5:00:00 AM 17.31 63.158 0.124 7.18 3.63 8.17
9/19/2021 5:15:00 AM 17.25 63.05 0.124 7.18 3.65 8.18
9/19/2021 5:30:00 AM 17.18 62.924 0.124 7.18 4.23 8.18
9/19/2021 5:45:00 AM 17.12 62.816 0.124 7.18 3.67 8.21
9/19/2021 6:00:00 AM 17.07 62.726 0.124 7.18 3.69 8.21
9/19/2021 6:15:00 AM 17.01 62.618 0.124 7.18 3.83 8.25
9/19/2021 6:30:00 AM 16.97 62.546 0.125 7.18 3.85 8.24
9/19/2021 6:45:00 AM 16.92 62.456 0.125 7.18 8.17 8.26
9/19/2021 7:00:00 AM 16.88 62.384 0.125 7.18 5.29 8.25
9/19/2021 7:15:00 AM 16.83 62.294 0.125 7.18 4.87 8.3
9/19/2021 7:30:00 AM 16.77 62.186 0.125 7.19 4.47 8.35
9/19/2021 7:45:00 AM 16.71 62.078 0.125 7.18 4.07 8.43
9/19/2021 8:00:00 AM 16.67 62.006 0.125 7.21 4.41 8.5
9/19/2021 8:15:00 AM 16.65 61.97 0.125 7.21 3.83 8.6
9/19/2021 8:30:00 AM 16.65 61.97 0.124 7.24 3.78 8.78
9/19/2021 8:45:00 AM 16.65 61.97 0.124 7.26 3.72 8.91
9/19/2021 9:00:00 AM 16.64 61.952 0.124 7.27 3.43 9.01
9/19/2021 9:15:00 AM 16.6 61.88 0.124 7.3 3.31 9.11
9/19/2021 9:30:00 AM 16.59 61.862 0.124 7.3 3.22 9.15
9/19/2021 9:45:00 AM 16.59 61.862 0.124 7.32 3.22 9.24
9/19/2021 10:00:00 AM 16.64 61.952 0.124 7.34 3.18 9.38
9/19/2021 10:15:00 AM 16.7 62.06 0.124 7.36 3.24 9.45
9/19/2021 10:30:00 AM 16.79 62.222 0.124 7.39 3.19 9.61
9/19/2021 10:45:00 AM 16.87 62.366 0.124 7.41 3.18 9.68
9/19/2021 11:00:00 AM 17 62.6 0.123 7.44 3.1 9.83
9/19/2021 11:15:00 AM 17.1 62.78 0.123 7.46 3.15 9.85
9/19/2021 11:30:00 AM 17.26 63.068 0.123 7.48 3.12 9.95
9/19/2021 11:45:00 AM 17.43 63.374 0.123 7.51 3.01 10.03
9/19/2021 12:00:00 PM 17.59 63.662 0.123 7.53 3.07 10.09
9/19/2021 12:15:00 PM 17.73 63.914 0.123 7.56 3.02 10.09
9/19/2021 12:30:00 PM 17.93 64.274 0.122 7.58 3.02 10.18
9/19/2021 12:45:00 PM 18.15 64.67 0.122 7.62 3.04 10.23
9/19/2021 1:00:00 PM 18.41 65.138 0.122 7.65 3.06 10.23
9/19/2021 1:15:00 PM 18.64 65.552 0.122 7.69 2.99 10.26
9/19/2021 1:30:00 PM 18.92 66.056 0.121 7.74 3.14 10.34
9/19/2021 1:45:00 PM 19.19 66.542 0.121 7.8 3.01 10.38
9/19/2021 2:00:00 PM 19.43 66.974 0.121 7.85 2.94 10.38
9/19/2021 2:15:00 PM 19.67 67.406 0.121 7.92 2.94 10.39
9/19/2021 2:30:00 PM 19.9 67.82 0.121 8 2.93 10.3
9/19/2021 2:45:00 PM 20.07 68.126 0.121 8.03 2.96 10.29
9/19/2021 3:00:00 PM 20.23 68.414 0.121 8.08 3 10.28
9/19/2021 3:15:00 PM 20.37 68.666 0.121 8.13 3.03 10.24
9/19/2021 3:30:00 PM 20.47 68.846 0.121 8.15 3.41 10.16
9/19/2021 3:45:00 PM 20.55 68.99 0.12 8.18 3.2 10.11
9/19/2021 4:00:00 PM 20.61 69.098 0.121 8.18 3.09 10.05
9/19/2021 4:15:00 PM 20.65 69.17 0.121 8.2 3.02 10.01
9/19/2021 4:30:00 PM 20.66 69.188 0.121 8.19 3.19 9.92
9/19/2021 4:45:00 PM 20.65 69.17 0.121 8.18 3.04 9.88
9/19/2021 5:00:00 PM 20.6 69.08 0.121 8.15 3.07 9.79
9/19/2021 5:15:00 PM 20.49 68.882 0.121 8.1 2.98 9.7
9/19/2021 5:30:00 PM 20.37 68.666 0.121 8.03 3.07 9.6
9/19/2021 5:45:00 PM 20.22 68.396 0.121 7.93 3.1 9.49
9/19/2021 6:00:00 PM 20.05 68.09 0.121 7.83 3.02 9.33
9/19/2021 6:15:00 PM 19.9 67.82 0.122 7.75 3.09 9.21
9/19/2021 6:30:00 PM 19.7 67.46 0.122 7.65 2.99 9.04
9/19/2021 6:45:00 PM 19.55 67.19 0.122 7.58 3.03 8.9
9/19/2021 7:00:00 PM 19.4 66.92 0.122 7.51 3.46 8.76
9/19/2021 7:15:00 PM 19.24 66.632 0.123 7.46 3.36 8.63
9/19/2021 7:30:00 PM 19.09 66.362 0.123 7.41 3.8 8.48
9/19/2021 7:45:00 PM 18.95 66.11 0.123 7.37 3.89 8.36
9/19/2021 8:00:00 PM 18.8 65.84 0.123 7.33 3.62 8.24
9/19/2021 8:15:00 PM 18.67 65.606 0.123 7.3 3.53 8.16
9/19/2021 8:30:00 PM 18.52 65.336 0.124 7.28 3.39 8.11
9/19/2021 8:45:00 PM 18.39 65.102 0.124 7.26 3.34 8.06
9/19/2021 9:00:00 PM 18.25 64.85 0.124 7.24 3.4 8.03
9/19/2021 9:15:00 PM 18.12 64.616 0.124 7.23 3.43 8.03
9/19/2021 9:30:00 PM 17.98 64.364 0.124 7.22 3.4 8.05
9/19/2021 9:45:00 PM 17.85 64.13 0.124 7.22 3.41 8.05
9/19/2021 10:00:00 PM 17.73 63.914 0.124 7.21 3.37 8.04
9/19/2021 10:15:00 PM 17.6 63.68 0.124 7.2 3.47 8.08
9/19/2021 10:30:00 PM 17.47 63.446 0.124 7.2 3.38 8.1
9/19/2021 10:45:00 PM 17.38 63.284 0.124 7.19 5.14 8.1
9/19/2021 11:00:00 PM 17.28 63.104 0.124 7.17 4.23 8.1
9/19/2021 11:15:00 PM 17.16 62.888 0.124 7.18 3.36 8.11
9/19/2021 11:30:00 PM 17.05 62.69 0.124 7.18 3.35 8.14
9/19/2021 11:45:00 PM 16.94 62.492 0.124 7.18 3.68 8.17
9/20/2021 12:00:00 AM 16.82 62.276 0.124 7.18 3.42 8.21
9/20/2021 12:15:00 AM 16.74 62.132 0.124 7.17 3.39 8.22
9/20/2021 12:30:00 AM 16.63 61.934 0.124 7.17 3.46 8.24
9/20/2021 12:45:00 AM 16.52 61.736 0.124 7.15 3.42 8.28
9/20/2021 1:00:00 AM 16.4 61.52 0.125 7.17 3.49 8.33
9/20/2021 1:15:00 AM 16.3 61.34 0.125 7.16 3.41 8.33
9/20/2021 1:30:00 AM 16.21 61.178 0.125 7.16 3.61 8.35
9/20/2021 1:45:00 AM 16.12 61.016 0.125 7.16 3.5 8.36
9/20/2021 2:00:00 AM 16.02 60.836 0.125 7.16 3.51 8.35
9/20/2021 2:15:00 AM 15.9 60.62 0.125 7.16 3.52 8.41
9/20/2021 2:30:00 AM 15.8 60.44 0.125 7.16 3.53 8.43
9/20/2021 2:45:00 AM 15.71 60.278 0.125 7.14 3.5 8.44
9/20/2021 3:00:00 AM 15.61 60.098 0.125 7.14 3.43 8.51
9/20/2021 3:15:00 AM 15.52 59.936 0.125 7.09 3.52 8.51
9/20/2021 3:30:00 AM 15.42 59.756 0.125 7.09 3.44 8.53
9/20/2021 3:45:00 AM 15.32 59.576 0.125 7.09 3.45 8.58
9/20/2021 4:00:00 AM 15.23 59.414 0.125 7.09 3.59 8.6
9/20/2021 4:15:00 AM 15.14 59.252 0.125 7.09 3.46 8.63
9/20/2021 4:30:00 AM 15.05 59.09 0.125 7.09 4.08 8.65
9/20/2021 4:45:00 AM 14.97 58.946 0.125 7.1 3.7 8.68
9/20/2021 5:00:00 AM 14.88 58.784 0.125 7.1 3.47 8.7
9/20/2021 5:15:00 AM 14.79 58.622 0.125 7.1 3.45 8.73
9/20/2021 5:30:00 AM 14.73 58.514 0.125 7.1 4.03 8.74
9/20/2021 5:45:00 AM 14.64 58.352 0.126 7.11 3.94 8.74
9/20/2021 6:00:00 AM 14.56 58.208 0.126 7.1 4.86 8.78
9/20/2021 6:15:00 AM 14.48 58.064 0.126 7.1 8.08 8.82
9/20/2021 6:30:00 AM 14.42 57.956 0.126 7.1 13.1 8.81
9/20/2021 6:45:00 AM 14.35 57.83 0.126 7.1 6.54 8.83
9/20/2021 7:00:00 AM 14.28 57.704 0.126 7.1 5.7 8.87
9/20/2021 7:15:00 AM 14.23 57.614 0.126 7.1 5.47 8.88
9/20/2021 7:30:00 AM 14.17 57.506 0.126 7.11 5.9 8.93
9/20/2021 7:45:00 AM 14.12 57.416 0.126 7.12 4.58 8.98
9/20/2021 8:00:00 AM 14.07 57.326 0.126 7.14 3.61 9.1
9/20/2021 8:15:00 AM 14.04 57.272 0.126 7.15 3.91 9.15
9/20/2021 8:30:00 AM 14.02 57.236 0.126 7.16 3.74 9.26
9/20/2021 8:45:00 AM 14 57.2 0.126 7.17 3.41 9.38
9/20/2021 9:00:00 AM 13.99 57.182 0.125 7.19 3.21 9.5
9/20/2021 9:15:00 AM 14 57.2 0.125 7.21 3.33 9.56
9/20/2021 9:30:00 AM 14.02 57.236 0.125 7.21 3.24 9.62
9/20/2021 9:45:00 AM 14.07 57.326 0.125 7.25 3.26 9.79
9/20/2021 10:00:00 AM 14.15 57.47 0.125 7.28 3.23 9.92
9/20/2021 10:15:00 AM 14.23 57.614 0.125 7.3 3.34 10
9/20/2021 10:30:00 AM 14.38 57.884 0.125 7.33 3.2 10.17
9/20/2021 10:45:00 AM 14.53 58.154 0.125 7.36 3.17 10.28
9/20/2021 11:00:00 AM 14.68 58.424 0.125 7.38 3.14 10.31
9/20/2021 11:15:00 AM 14.86 58.748 0.125 7.41 3.12 10.37
9/20/2021 11:30:00 AM 15.1 59.18 0.124 7.43 3.09 10.44
9/20/2021 11:45:00 AM 15.34 59.612 0.124 7.46 3.08 10.5
9/20/2021 12:00:00 PM 15.6 60.08 0.124 7.48 3.17 10.56
9/20/2021 12:15:00 PM 15.81 60.458 0.124 7.51 3.07 10.6
9/20/2021 12:30:00 PM 16.03 60.854 0.124 7.53 3.14 10.62
9/20/2021 12:45:00 PM 16.32 61.376 0.123 7.55 3.07 10.67
9/20/2021 1:00:00 PM 16.64 61.952 0.123 7.59 3.05 10.71
9/20/2021 1:15:00 PM 16.99 62.582 0.123 7.63 3.04 10.78
9/20/2021 1:30:00 PM 17.33 63.194 0.122 7.67 3 10.81
9/20/2021 1:45:00 PM 17.67 63.806 0.122 7.71 3 10.8
9/20/2021 2:00:00 PM 18.01 64.418 0.122 7.77 3 10.79
9/20/2021 2:15:00 PM 18.3 64.94 0.122 7.82 3.05 10.75
9/20/2021 2:30:00 PM 18.6 65.48 0.121 7.87 2.95 10.71
9/20/2021 2:45:00 PM 18.83 65.894 0.121 7.92 2.97 10.66
9/20/2021 3:00:00 PM 19.05 66.29 0.121 7.97 2.91 10.61
9/20/2021 3:15:00 PM 19.21 66.578 0.121 7.97 3 10.53
9/20/2021 3:30:00 PM 19.39 66.902 0.121 8.03 2.99 10.48
9/20/2021 3:45:00 PM 19.54 67.172 0.121 8.06 2.94 10.42
9/20/2021 4:00:00 PM 19.66 67.388 0.121 8.11 2.99 10.36
9/20/2021 4:15:00 PM 19.75 67.55 0.121 8.1 2.96 10.29
9/20/2021 4:30:00 PM 19.82 67.676 0.121 8.13 2.99 10.21
9/20/2021 4:45:00 PM 19.85 67.73 0.121 8.15 3.02 10.13
9/20/2021 5:00:00 PM 19.83 67.694 0.121 8.09 3.64 10.02
9/20/2021 5:15:00 PM 19.8 67.64 0.121 8.04 3.4 9.96
9/20/2021 5:30:00 PM 19.71 67.478 0.121 8.05 2.99 9.88
9/20/2021 5:45:00 PM 19.6 67.28 0.121 7.98 2.99 9.78
9/20/2021 6:00:00 PM 19.47 67.046 0.121 7.9 3 9.65
9/20/2021 6:15:00 PM 19.33 66.794 0.121 7.8 3 9.52
9/20/2021 6:30:00 PM 19.19 66.542 0.122 7.72 3.05 9.36
9/20/2021 6:45:00 PM 19.05 66.29 0.122 7.63 3.19 9.22
9/20/2021 7:00:00 PM 18.92 66.056 0.122 7.56 3.23 9.06
9/20/2021 7:15:00 PM 18.79 65.82201 0.123 7.48 3.21 8.92
9/20/2021 7:30:00 PM 18.7 65.66 0.123 7.44 7.65 8.74
9/20/2021 7:45:00 PM 18.56 65.408 0.123 7.39 4.53 8.59
9/20/2021 8:00:00 PM 18.45 65.21 0.123 7.35 3.69 8.46
9/20/2021 8:15:00 PM 18.34 65.012 0.123 7.31 3.43 8.34
9/20/2021 8:30:00 PM 18.23 64.814 0.124 7.29 3.45 8.26
9/20/2021 8:45:00 PM 18.12 64.616 0.124 7.26 3.54 8.2
9/20/2021 9:00:00 PM 18.01 64.418 0.124 7.24 3.59 8.14
9/20/2021 9:15:00 PM 17.91 64.238 0.124 7.23 3.46 8.1
9/20/2021 9:30:00 PM 17.79 64.022 0.124 7.21 3.44 8.08
9/20/2021 9:45:00 PM 17.69 63.842 0.124 7.2 3.69 8.08
9/20/2021 10:00:00 PM 17.6 63.68 0.124 7.19 3.5 8.07
9/20/2021 10:15:00 PM 17.5 63.5 0.124 7.18 3.36 8.06
9/20/2021 10:30:00 PM 17.41 63.338 0.124 7.17 3.57 8.07
9/20/2021 10:45:00 PM 17.3 63.14 0.124 7.17 3.85 8.07
9/20/2021 11:00:00 PM 17.22 62.996 0.125 7.16 4.14 8.05
9/20/2021 11:15:00 PM 17.14 62.852 0.125 7.16 3.49 8.08
9/20/2021 11:30:00 PM 17.06 62.708 0.125 7.16 3.23 8.1
9/20/2021 11:45:00 PM 17 62.6 0.125 7.16 3.37 8.1
9/21/2021 12:00:00 AM 16.92 62.456 0.125 7.16 3.16 8.13
9/21/2021 12:15:00 AM 16.85 62.33 0.125 7.15 3.3 8.14
9/21/2021 12:30:00 AM 16.79 62.222 0.125 7.16 3.26 8.14
9/21/2021 12:45:00 AM 16.73 62.114 0.125 7.15 3.29 8.16
9/21/2021 1:00:00 AM 16.67 62.006 0.125 7.15 3.31 8.17
9/21/2021 1:15:00 AM 16.62 61.916 0.125 7.15 3.51 8.14
9/21/2021 1:30:00 AM 16.55 61.79 0.125 7.15 3.46 8.2
9/21/2021 1:45:00 AM 16.49 61.682 0.125 7.15 7.41 8.2
9/21/2021 2:00:00 AM 16.42 61.556 0.125 7.15 3.37 8.23
9/21/2021 2:15:00 AM 16.37 61.466 0.125 7.14 3.5 8.23
9/21/2021 2:30:00 AM 16.31 61.358 0.125 7.14 3.41 8.24
9/21/2021 2:45:00 AM 16.24 61.232 0.125 7.15 3.37 8.29
9/21/2021 3:00:00 AM 16.2 61.16 0.125 7.14 3.38 8.24
9/21/2021 3:15:00 AM 16.13 61.034 0.125 7.15 3.29 8.31
9/21/2021 3:30:00 AM 16.07 60.926 0.125 7.15 3.28 8.27
9/21/2021 3:45:00 AM 16.02 60.836 0.125 7.15 4.7 8.3
9/21/2021 4:00:00 AM 15.97 60.746 0.125 7.14 4.05 8.3
9/21/2021 4:15:00 AM 15.91 60.638 0.125 7.15 3.78 8.35
9/21/2021 4:30:00 AM 15.86 60.548 0.125 7.15 7.89 8.34
9/21/2021 4:45:00 AM 15.82 60.476 0.125 7.15 4.1 8.36
9/21/2021 5:00:00 AM 15.78 60.404 0.125 7.15 3.49 8.39
9/21/2021 5:15:00 AM 15.74 60.332 0.125 7.14 3.59 8.38
9/21/2021 5:30:00 AM 15.7 60.26 0.125 7.14 3.44 8.4
9/21/2021 5:45:00 AM 15.67 60.206 0.126 7.14 3.55 8.37
9/21/2021 6:00:00 AM 15.61 60.098 0.126 7.14 3.53 8.39
9/21/2021 6:15:00 AM 15.57 60.026 0.126 7.14 3.45 8.41
9/21/2021 6:30:00 AM 15.52 59.936 0.126 7.14 3.28 8.44
9/21/2021 6:45:00 AM 15.48 59.864 0.126 7.14 4.83 8.43
9/21/2021 7:00:00 AM 15.43 59.774 0.126 7.13 5.59 8.46
9/21/2021 7:15:00 AM 15.4 59.72 0.126 7.13 7.62 8.5
9/21/2021 7:30:00 AM 15.36 59.648 0.126 7.14 6.34 8.51
9/21/2021 7:45:00 AM 15.33 59.594 0.126 7.14 6.45 8.56
9/21/2021 8:00:00 AM 15.29 59.522 0.126 7.15 4.52 8.64
9/21/2021 8:15:00 AM 15.27 59.486 0.126 7.16 3.54 8.8
9/21/2021 8:30:00 AM 15.26 59.468 0.125 7.18 3.76 8.94
9/21/2021 8:45:00 AM 15.27 59.486 0.126 7.18 3.66 8.97
9/21/2021 9:00:00 AM 15.28 59.504 0.125 7.21 3.24 9.15
9/21/2021 9:15:00 AM 15.3 59.54 0.125 7.22 3.06 9.27
9/21/2021 9:30:00 AM 15.34 59.612 0.125 7.25 3.05 9.46
9/21/2021 9:45:00 AM 15.37 59.666 0.125 7.26 3.18 9.56
9/21/2021 10:00:00 AM 15.43 59.774 0.125 7.3 3.01 9.74
9/21/2021 10:15:00 AM 15.48 59.864 0.125 7.31 3.02 9.87
9/21/2021 10:30:00 AM 15.55 59.99 0.125 7.34 2.94 10.04
9/21/2021 10:45:00 AM 15.66 60.188 0.124 7.38 2.96 10.16
9/21/2021 11:00:00 AM 15.79 60.422 0.124 7.41 3.35 10.32
9/21/2021 11:15:00 AM 15.93 60.674 0.124 7.45 3.39 10.45
9/21/2021 11:30:00 AM 16.09 60.962 0.123 7.48 3.21 10.53
9/21/2021 11:45:00 AM 16.29 61.322 0.123 7.51 2.99 10.62
9/21/2021 12:00:00 PM 16.47 61.646 0.123 7.56 2.96 10.72
9/21/2021 12:15:00 PM 16.57 61.826 0.123 7.57 2.87 10.68
9/21/2021 12:30:00 PM 16.72 62.096 0.123 7.62 2.9 10.75
9/21/2021 12:45:00 PM 16.91 62.438 0.122 7.66 2.83 10.79
9/21/2021 1:00:00 PM 17.11 62.798 0.122 7.71 3.04 10.85
9/21/2021 1:15:00 PM 17.33 63.194 0.122 7.76 2.8 10.88
9/21/2021 1:30:00 PM 17.52 63.536 0.122 7.8 2.89 10.86
9/21/2021 1:45:00 PM 17.65 63.77 0.121 7.85 2.81 10.83
9/21/2021 2:00:00 PM 17.82 64.076 0.121 7.91 2.78 10.85
9/21/2021 2:15:00 PM 17.94 64.292 0.121 7.96 2.87 10.83
9/21/2021 2:30:00 PM 18.04 64.472 0.121 8.04 2.78 10.79
9/21/2021 2:45:00 PM 18.09 64.562 0.121 8.04 2.79 10.72
9/21/2021 3:00:00 PM 18.15 64.67 0.121 8.11 2.95 10.69
9/21/2021 3:15:00 PM 18.2 64.76 0.12 8.12 3.54 10.62
9/21/2021 3:30:00 PM 18.26 64.868 0.12 8.13 2.93 10.57
9/21/2021 3:45:00 PM 18.32 64.976 0.12 8.15 2.91 10.53
9/21/2021 4:00:00 PM 18.36 65.048 0.12 8.13 3 10.48
9/21/2021 4:15:00 PM 18.4 65.12 0.12 8.16 2.98 10.42
9/21/2021 4:30:00 PM 18.41 65.138 0.12 8.13 2.89 10.37
9/21/2021 4:45:00 PM 18.42 65.156 0.12 8.11 3.12 10.3
9/21/2021 5:00:00 PM -99999.99 -179968 -99999.99 -99999.99 -99999.99 -99999.99
9/21/2021 5:15:00 PM 18.36 65.048 0.118 7.36 6.17 10.09
9/21/2021 5:30:00 PM 18.33 64.994 0.118 7.58 3.64 10.01
9/21/2021 5:45:00 PM 18.31 64.958 0.118 7.54 3 9.9
9/21/2021 6:00:00 PM 18.28 64.904 0.118 7.54 3.09 9.8
9/21/2021 6:15:00 PM 18.25 64.85 0.118 7.53 3.05 9.68
9/21/2021 6:30:00 PM 18.22 64.796 0.118 7.5 2.99 9.57
9/21/2021 6:45:00 PM 18.19 64.742 0.118 7.47 2.89 9.46
9/21/2021 7:00:00 PM 18.15 64.67 0.118 7.42 3.12 9.29
9/21/2021 7:15:00 PM 18.12 64.616 0.119 7.36 3.09 9.12
9/21/2021 7:30:00 PM 18.06 64.508 0.119 7.31 6.02 8.91
9/21/2021 7:45:00 PM 18.02 64.436 0.119 7.25 5.49 8.74
9/21/2021 8:00:00 PM 17.98 64.364 0.119 7.22 5.89 8.58
9/21/2021 8:15:00 PM 17.93 64.274 0.12 7.16 4.11 8.44
9/21/2021 8:30:00 PM 17.88 64.184 0.12 7.12 3.5 8.33
9/21/2021 8:45:00 PM 17.82 64.076 0.12 7.09 3.21 8.24
9/21/2021 9:00:00 PM 17.77 63.986 0.12 7.06 3.25 8.17
9/21/2021 9:15:00 PM 17.72 63.896 0.12 7.04 3.18 8.12
9/21/2021 9:30:00 PM 17.66 63.788 0.121 7.02 3.33 8.06
9/21/2021 9:45:00 PM 17.61 63.698 0.121 7.01 3.15 8.03
9/21/2021 10:00:00 PM 17.56 63.608 0.121 6.99 3.25 8
9/21/2021 10:15:00 PM 17.5 63.5 0.121 6.98 3.14 7.99
9/21/2021 10:30:00 PM 17.44 63.392 0.121 6.97 3.03 7.96
9/21/2021 10:45:00 PM 17.38 63.284 0.121 6.96 3.46 7.95
9/21/2021 11:00:00 PM 17.33 63.194 0.121 6.95 3.73 7.95
9/21/2021 11:15:00 PM 17.27 63.086 0.121 6.94 2.98 7.96
9/21/2021 11:30:00 PM 17.21 62.978 0.121 6.94 2.82 7.97
9/21/2021 11:45:00 PM 17.16 62.888 0.121 6.93 3.13 7.95
9/22/2021 12:00:00 AM 17.11 62.798 0.122 6.93 3.01 7.95
9/22/2021 12:15:00 AM 17.07 62.726 0.122 6.94 2.98 7.96
9/22/2021 12:30:00 AM 17.03 62.654 0.122 6.94 3.11 7.97
9/22/2021 12:45:00 AM 16.99 62.582 0.122 6.93 3.1 7.97
9/22/2021 1:00:00 AM 16.96 62.528 0.122 6.93 3.31 7.98
9/22/2021 1:15:00 AM 16.94 62.492 0.122 6.94 3.32 7.97
9/22/2021 1:30:00 AM 16.92 62.456 0.122 6.94 3.78 7.98
9/22/2021 1:45:00 AM 16.9 62.42 0.122 6.94 4.2 7.98
9/22/2021 2:00:00 AM 16.89 62.402 0.122 6.94 3.11 7.98
9/22/2021 2:15:00 AM 16.88 62.384 0.122 6.95 2.97 7.99
9/22/2021 2:30:00 AM 16.87 62.366 0.122 6.94 2.91 7.99
9/22/2021 2:45:00 AM 16.86 62.348 0.122 6.94 8.78 7.99
9/22/2021 3:00:00 AM 16.85 62.33 0.122 6.95 6.81 7.99
9/22/2021 3:15:00 AM 16.83 62.294 0.122 6.94 4.03 8
9/22/2021 3:30:00 AM 16.82 62.276 0.122 6.94 3.01 7.99
9/22/2021 3:45:00 AM 16.81 62.258 0.122 6.95 4.8 7.99
9/22/2021 4:00:00 AM 16.8 62.24 0.122 6.94 4.36 8
9/22/2021 4:15:00 AM 16.78 62.204 0.122 6.93 8.07 8.04
9/22/2021 4:30:00 AM 16.78 62.204 0.122 6.94 4.54 8.01
9/22/2021 4:45:00 AM 16.77 62.186 0.122 6.94 3.64 8.01
9/22/2021 5:00:00 AM 16.77 62.186 0.122 6.95 3.19 8
9/22/2021 5:15:00 AM 16.76 62.168 0.122 6.94 3.63 7.99
9/22/2021 5:30:00 AM 16.76 62.168 0.122 6.94 3.51 8
9/22/2021 5:45:00 AM 16.75 62.15 0.122 6.95 5.59 8.01
9/22/2021 6:00:00 AM 16.75 62.15 0.122 6.94 7.16 8.02
9/22/2021 6:15:00 AM 16.75 62.15 0.122 6.94 9.03 8.02
9/22/2021 6:30:00 AM 16.74 62.132 0.122 6.93 9.56 8.01
9/22/2021 6:45:00 AM 16.74 62.132 0.122 6.93 8.89 7.96
9/22/2021 7:00:00 AM 16.73 62.114 0.122 6.93 5.87 8
9/22/2021 7:15:00 AM 16.72 62.096 0.122 6.93 5.89 7.98
9/22/2021 7:30:00 AM 16.72 62.096 0.122 6.94 5.21 7.99
9/22/2021 7:45:00 AM 16.72 62.096 0.122 6.94 5.23 8.02
9/22/2021 8:00:00 AM 16.73 62.114 0.122 6.96 4.46 8.09
9/22/2021 8:15:00 AM 16.75 62.15 0.122 6.96 3.73 8.16
9/22/2021 8:30:00 AM 16.79 62.222 0.122 6.98 2.93 8.39
9/22/2021 8:45:00 AM 16.84 62.312 0.122 6.98 2.77 8.47
9/22/2021 9:00:00 AM 16.88 62.384 0.122 7.01 3.05 8.62
9/22/2021 9:15:00 AM 16.92 62.456 0.122 7.04 3.32 8.82
9/22/2021 9:30:00 AM 16.98 62.564 0.122 7.04 2.45 8.9
9/22/2021 9:45:00 AM 17.07 62.726 0.122 7.08 2.47 9.15
9/22/2021 10:00:00 AM 17.21 62.978 0.122 7.12 2.91 9.4
9/22/2021 10:15:00 AM 17.32 63.176 0.121 7.15 2.61 9.53
9/22/2021 10:30:00 AM 17.41 63.338 0.121 7.18 2.62 9.66
9/22/2021 10:45:00 AM 17.52 63.536 0.121 7.22 2.33 9.83
9/22/2021 11:00:00 AM 17.59 63.662 0.121 7.25 2.48 9.9
9/22/2021 11:15:00 AM 17.63 63.734 0.121 7.27 2.29 9.93
9/22/2021 11:30:00 AM 17.7 63.86 0.121 7.3 2.38 9.98
9/22/2021 11:45:00 AM 17.77 63.986 0.121 7.33 2.88 9.96
9/22/2021 12:00:00 PM 17.9 64.22 0.12 7.35 2.31 10.06
9/22/2021 12:15:00 PM 18.07 64.526 0.12 7.38 2.41 10.15
9/22/2021 12:30:00 PM 18.24 64.832 0.12 7.42 2.23 10.23
9/22/2021 12:45:00 PM 18.39 65.102 0.12 7.46 2.34 10.32
9/22/2021 1:00:00 PM 18.49 65.282 0.12 7.5 2.41 10.31
9/22/2021 1:15:00 PM 18.61 65.498 0.119 7.54 2.38 10.36
9/22/2021 1:30:00 PM 18.8 65.84 0.119 7.6 2.32 10.44
9/22/2021 1:45:00 PM 18.95 66.11 0.119 7.67 2.28 10.51
9/22/2021 2:00:00 PM 19.07 66.326 0.119 7.73 2.26 10.5
9/22/2021 2:15:00 PM 19.14 66.452 0.119 7.77 2.43 10.46
9/22/2021 2:30:00 PM 19.23 66.614 0.119 7.82 2.41 10.42
9/22/2021 2:45:00 PM 19.27 66.686 0.118 7.85 2.45 10.34
9/22/2021 3:00:00 PM 19.3 66.74 0.118 7.87 2.71 10.27
9/22/2021 3:15:00 PM 19.34 66.812 0.118 7.89 2.57 10.18
9/22/2021 3:30:00 PM 19.35 66.83 0.118 7.9 2.49 10.09
9/22/2021 3:45:00 PM 19.35 66.83 0.118 7.88 2.47 10.01
9/22/2021 4:00:00 PM 19.37 66.866 0.118 7.86 2.44 9.94
9/22/2021 4:15:00 PM 19.39 66.902 0.118 7.85 2.46 9.88
9/22/2021 4:30:00 PM 19.4 66.92 0.118 7.83 2.43 9.84
9/22/2021 4:45:00 PM 19.41 66.938 0.118 7.81 2.36 9.79
9/22/2021 5:00:00 PM 19.4 66.92 0.118 7.78 2.53 9.73
9/22/2021 5:15:00 PM 19.39 66.902 0.118 7.76 2.65 9.68
9/22/2021 5:30:00 PM 19.37 66.866 0.118 7.71 2.5 9.58
9/22/2021 5:45:00 PM 19.34 66.812 0.118 7.69 2.49 9.45
9/22/2021 6:00:00 PM 19.3 66.74 0.118 7.62 2.66 9.32
9/22/2021 6:15:00 PM 19.25 66.65 0.119 7.55 2.41 9.12
9/22/2021 6:30:00 PM 19.21 66.578 0.119 7.48 2.64 8.93
9/22/2021 6:45:00 PM 19.15 66.47 0.119 7.41 2.57 8.69
9/22/2021 7:00:00 PM 19.11 66.398 0.119 7.35 2.96 8.52
9/22/2021 7:15:00 PM 19.06 66.308 0.119 7.3 2.95 8.38
9/22/2021 7:30:00 PM 19.02 66.236 0.119 7.26 4 8.23
9/22/2021 7:45:00 PM 18.98 66.164 0.119 7.21 2.97 8.12
9/22/2021 8:00:00 PM 18.93 66.074 0.119 7.17 2.85 8.01
9/22/2021 8:15:00 PM 18.89 66.002 0.119 7.14 3.39 7.92
9/22/2021 8:30:00 PM 18.84 65.912 0.12 7.12 2.87 7.84
9/22/2021 8:45:00 PM 18.81 65.858 0.12 7.1 2.84 7.78
9/22/2021 9:00:00 PM 18.77 65.786 0.12 7.07 3.03 7.74
9/22/2021 9:15:00 PM 18.74 65.732 0.12 7.07 3.65 7.71
9/22/2021 9:30:00 PM 18.7 65.66 0.12 7.05 3.23 7.68
9/22/2021 9:45:00 PM 18.67 65.606 0.12 7.04 2.87 7.66
9/22/2021 10:00:00 PM 18.64 65.552 0.12 7.03 2.91 7.65
9/22/2021 10:15:00 PM 18.61 65.498 0.12 7.02 2.99 7.63
9/22/2021 10:30:00 PM 18.57 65.426 0.121 7.02 3.01 7.63
9/22/2021 10:45:00 PM 18.54 65.372 0.12 7.01 3.79 7.64
9/22/2021 11:00:00 PM 18.51 65.318 0.12 7.01 3.54 7.63
9/22/2021 11:15:00 PM 18.47 65.246 0.121 7 2.98 7.64
9/22/2021 11:30:00 PM 18.45 65.21 0.12 7 3.39 7.62
9/22/2021 11:45:00 PM 18.41 65.138 0.121 7 3.04 7.66
9/23/2021 12:00:00 AM 18.37 65.066 0.121 7 2.94 7.66
9/23/2021 12:15:00 AM 18.35 65.03 0.121 7 3.09 7.68
9/23/2021 12:30:00 AM 18.33 64.994 0.121 7 3.03 7.64
9/23/2021 12:45:00 AM 18.3 64.94 0.121 7 3.17 7.68
9/23/2021 1:00:00 AM 18.28 64.904 0.121 7.01 2.88 7.69
9/23/2021 1:15:00 AM 18.26 64.868 0.121 7 2.89 7.68
9/23/2021 1:30:00 AM 18.24 64.832 0.121 7 3.14 7.68
9/23/2021 1:45:00 AM 18.22 64.796 0.121 7 2.75 7.69
9/23/2021 2:00:00 AM 18.2 64.76 0.121 7 2.94 7.7
9/23/2021 2:15:00 AM 18.19 64.742 0.121 7 3.01 7.7
9/23/2021 2:30:00 AM 18.18 64.724 0.121 6.99 3.22 7.72
9/23/2021 2:45:00 AM 18.16 64.688 0.121 6.99 2.79 7.71
9/23/2021 3:00:00 AM 18.16 64.688 0.122 7 2.85 7.75
9/23/2021 3:15:00 AM 18.15 64.67 0.122 6.99 2.7 7.74
9/23/2021 3:30:00 AM 18.15 64.67 0.121 6.99 2.78 7.74
9/23/2021 3:45:00 AM 18.14 64.652 0.121 6.98 2.92 7.75
9/23/2021 4:00:00 AM 18.14 64.652 0.121 7 3 7.75
9/23/2021 4:15:00 AM 18.14 64.652 0.122 6.99 3.5 7.75
9/23/2021 4:30:00 AM 18.15 64.67 0.122 6.99 3.01 7.76
9/23/2021 4:45:00 AM 18.14 64.652 0.121 7 3.26 7.76
9/23/2021 5:00:00 AM 18.13 64.634 0.122 7 4.06 7.75
9/23/2021 5:15:00 AM 18.13 64.634 0.122 7 3.1 7.75
9/23/2021 5:30:00 AM 18.13 64.634 0.122 7.01 3.16 7.77
9/23/2021 5:45:00 AM 18.13 64.634 0.122 7 3.22 7.77
9/23/2021 6:00:00 AM 18.13 64.634 0.122 7 3.36 7.76
9/23/2021 6:15:00 AM 18.13 64.634 0.122 7 3.3 7.74
9/23/2021 6:30:00 AM 18.12 64.616 0.122 7.01 3.58 7.76
9/23/2021 6:45:00 AM 18.11 64.598 0.121 7.01 3.63 7.75
9/23/2021 7:00:00 AM 18.11 64.598 0.122 6.98 4.38 7.73
9/23/2021 7:15:00 AM 18.1 64.58 0.122 6.99 5.23 7.72
9/23/2021 7:30:00 AM 18.09 64.562 0.121 6.99 3.81 7.76
9/23/2021 7:45:00 AM 18.1 64.58 0.122 7 3.83 7.78
9/23/2021 8:00:00 AM 18.12 64.616 0.122 6.99 4.08 7.84
9/23/2021 8:15:00 AM 18.14 64.652 0.121 7.02 2.85 8.02
9/23/2021 8:30:00 AM 18.17 64.706 0.121 7.05 2.84 8.11
9/23/2021 8:45:00 AM 18.2 64.76 0.121 7.07 2.61 8.25
9/23/2021 9:00:00 AM 18.24 64.832 0.121 7.09 2.47 8.37
9/23/2021 9:15:00 AM 18.27 64.886 0.121 7.1 2.34 8.53
9/23/2021 9:30:00 AM 18.3 64.94 0.121 7.11 2.3 8.63
9/23/2021 9:45:00 AM 18.34 65.012 0.12 7.13 2.32 8.74
9/23/2021 10:00:00 AM 18.4 65.12 0.12 7.17 2.25 8.91
9/23/2021 10:15:00 AM 18.5 65.3 0.12 7.21 2.19 9.08
9/23/2021 10:30:00 AM 18.58 65.444 0.12 7.24 2.2 9.26
9/23/2021 10:45:00 AM 18.63 65.534 0.12 7.26 2.27 9.38
9/23/2021 11:00:00 AM 18.67 65.606 0.12 7.28 2.28 9.41
9/23/2021 11:15:00 AM 18.68 65.624 0.12 7.31 2.36 9.37
9/23/2021 11:30:00 AM 18.68 65.624 0.119 7.29 2.34 9.25
9/23/2021 11:45:00 AM 18.68 65.624 0.119 7.3 2.29 9.1
9/23/2021 12:00:00 PM 18.68 65.624 0.119 7.3 2.6 8.97
9/23/2021 12:15:00 PM 18.68 65.624 0.118 7.28 2.67 8.87
9/23/2021 12:30:00 PM 18.68 65.624 0.117 7.27 2.54 8.78
9/23/2021 12:45:00 PM 18.66 65.588 0.116 7.27 2.57 8.69
9/23/2021 1:00:00 PM 18.64 65.552 0.115 7.24 2.6 8.6
9/23/2021 1:15:00 PM 18.6 65.48 0.114 7.23 3.17 8.54
9/23/2021 1:30:00 PM 18.56 65.408 0.112 7.23 5.37 8.51
9/23/2021 1:45:00 PM 18.52 65.336 0.111 7.22 26.78 8.45
9/23/2021 2:00:00 PM 18.47 65.246 0.11 7.21 78.54 8.37
9/23/2021 2:15:00 PM 18.42 65.156 0.108 7.21 81.27 8.41
9/23/2021 2:30:00 PM 18.32 64.976 0.105 7.21 186.09 8.51
9/23/2021 2:45:00 PM 18.12 64.616 0.101 7.15 211.27 8.67
9/23/2021 3:00:00 PM 17.96 64.328 0.09 7.2 214.04 8.78
9/23/2021 3:15:00 PM 17.86 64.148 0.085 7.19 225.54 8.86
9/23/2021 3:30:00 PM 17.79 64.022 0.081 7.15 227.05 8.89
9/23/2021 3:45:00 PM 17.76 63.968 0.077 7.12 212.18 8.91
9/23/2021 4:00:00 PM 17.76 63.968 0.075 7.1 201.64 8.92
9/23/2021 4:15:00 PM 17.77 63.986 0.075 7.07 145.12 8.92
9/23/2021 4:30:00 PM 17.78 64.004 0.075 7.01 131.35 8.93
9/23/2021 4:45:00 PM 17.79 64.022 0.074 7.02 114.9 8.93
9/23/2021 5:00:00 PM 17.81 64.058 0.073 7.02 97.99 8.92
9/23/2021 5:15:00 PM 17.82 64.076 0.072 7.02 92.33 8.92
9/23/2021 5:30:00 PM 17.83 64.094 0.071 7.02 79.64 8.92
9/23/2021 5:45:00 PM 17.84 64.112 0.071 7.02 73.59 8.92
9/23/2021 6:00:00 PM 17.84 64.112 0.071 7.02 68.5 8.91
9/23/2021 6:15:00 PM 17.84 64.112 0.071 7.02 63.15 8.91
9/23/2021 6:30:00 PM 17.83 64.094 0.071 7.02 57.68 8.91
9/23/2021 6:45:00 PM 17.83 64.094 0.071 7.02 52.06 8.91
9/23/2021 7:00:00 PM 17.81 64.058 0.072 7.02 50.35 8.91
9/23/2021 7:15:00 PM 17.79 64.022 0.073 7.03 46.67 8.91
9/23/2021 7:30:00 PM 17.77 63.986 0.073 7.03 42.87 8.91
9/23/2021 7:45:00 PM 17.74 63.932 0.074 7.03 40.5 8.9
9/23/2021 8:00:00 PM 17.72 63.896 0.075 7.03 38.98 8.9
9/23/2021 8:15:00 PM 17.69 63.842 0.075 7.02 36.41 8.9
9/23/2021 8:30:00 PM 17.67 63.806 0.076 7.03 34.26 8.91
9/23/2021 8:45:00 PM 17.64 63.752 0.077 7.03 32.38 8.9
9/23/2021 9:00:00 PM 17.61 63.698 0.078 7.03 31.56 8.91
9/23/2021 9:15:00 PM 17.57 63.626 0.078 7.04 30.08 8.91
9/23/2021 9:30:00 PM 17.52 63.536 0.079 7.05 28.09 8.91
9/23/2021 9:45:00 PM 17.48 63.464 0.079 7.05 26.61 8.92
9/23/2021 10:00:00 PM 17.43 63.374 0.08 7.05 26.19 8.93
9/23/2021 10:15:00 PM 17.38 63.284 0.081 7.05 24.15 8.93
9/23/2021 10:30:00 PM 17.32 63.176 0.081 7.05 23.95 8.94
9/23/2021 10:45:00 PM 17.27 63.086 0.082 7.04 22.78 8.95
9/23/2021 11:00:00 PM 17.2 62.96 0.082 7.05 21.75 8.97
9/23/2021 11:15:00 PM 17.13 62.834 0.083 7.06 21.45 8.97
9/23/2021 11:30:00 PM 17.06 62.708 0.083 7.05 20.93 8.98
9/23/2021 11:45:00 PM 16.99 62.582 0.084 7.05 19.82 9
9/24/2021 12:00:00 AM 16.91 62.438 0.085 7.06 19.78 9.01
9/24/2021 12:15:00 AM 16.83 62.294 0.085 7.03 18.38 9.02
9/24/2021 12:30:00 AM 16.75 62.15 0.086 7.01 18.27 9.03
9/24/2021 12:45:00 AM 16.67 62.006 0.086 7.02 17.77 9.04
9/24/2021 1:00:00 AM 16.59 61.862 0.087 7.02 17.84 9.05
9/24/2021 1:15:00 AM 16.49 61.682 0.087 6.99 17.07 9.08
9/24/2021 1:30:00 AM 16.41 61.538 0.087 7 16.52 9.09
9/24/2021 1:45:00 AM 16.33 61.394 0.088 6.99 16.2 9.1
9/24/2021 2:00:00 AM 16.24 61.232 0.088 6.98 17.39 9.12
9/24/2021 2:15:00 AM 16.16 61.088 0.088 6.97 15.64 9.13
9/24/2021 2:30:00 AM 16.08 60.944 0.089 6.96 16.24 9.14
9/24/2021 2:45:00 AM 15.99 60.782 0.089 6.98 15.46 9.17
9/24/2021 3:00:00 AM 15.92 60.656 0.089 6.96 14.59 9.18
9/24/2021 3:15:00 AM 15.85 60.53 0.09 6.97 16.95 9.19
9/24/2021 3:30:00 AM 15.77 60.386 0.09 6.99 14.87 9.2
9/24/2021 3:45:00 AM 15.71 60.278 0.09 6.99 15 9.22
9/24/2021 4:00:00 AM 15.64 60.152 0.091 6.98 14.41 9.23
9/24/2021 4:15:00 AM 15.57 60.026 0.091 6.98 13.73 9.24
9/24/2021 4:30:00 AM 15.5 59.9 0.092 6.98 13.97 9.25
9/24/2021 4:45:00 AM 15.43 59.774 0.092 6.97 13.49 9.26
9/24/2021 5:00:00 AM 15.36 59.648 0.092 6.97 13.22 9.29
9/24/2021 5:15:00 AM 15.28 59.504 0.092 6.98 13.54 9.3
9/24/2021 5:30:00 AM 15.2 59.36 0.093 6.98 12.96 9.32
9/24/2021 5:45:00 AM 15.13 59.234 0.093 6.98 13.34 9.32
9/24/2021 6:00:00 AM 15.06 59.108 0.093 6.99 12.68 9.35
9/24/2021 6:15:00 AM 14.98 58.964 0.093 6.98 12.41 9.36
9/24/2021 6:30:00 AM 14.92 58.856 0.094 6.98 12.13 9.38
9/24/2021 6:45:00 AM 14.85 58.73 0.094 6.99 11.95 9.39
9/24/2021 7:00:00 AM 14.79 58.622 0.094 6.98 11.78 9.4
9/24/2021 7:15:00 AM 14.72 58.496 0.094 6.97 11.54 9.41
9/24/2021 7:30:00 AM 14.66 58.388 0.095 6.99 11.32 9.46
9/24/2021 7:45:00 AM 14.61 58.298 0.094 7 11.1 9.47
9/24/2021 8:00:00 AM 14.56 58.208 0.094 6.99 11.04 9.49
9/24/2021 8:15:00 AM 14.52 58.136 0.095 7 10.94 9.52
9/24/2021 8:30:00 AM 14.48 58.064 0.095 7.01 10.63 9.55
9/24/2021 8:45:00 AM 14.45 58.01 0.095 7.02 10 9.58
9/24/2021 9:00:00 AM 14.43 57.974 0.095 7.03 9.3 9.6
9/24/2021 9:15:00 AM 14.43 57.974 0.095 7.05 9.3 9.63
9/24/2021 9:30:00 AM 14.45 58.01 0.095 7.06 8.81 9.67
9/24/2021 9:45:00 AM 14.47 58.046 0.095 7.07 8.76 9.69
9/24/2021 10:00:00 AM 14.51 58.118 0.095 7.09 8.79 9.72
9/24/2021 10:15:00 AM 14.56 58.208 0.095 7.1 8.83 9.73
9/24/2021 10:30:00 AM 14.63 58.334 0.095 7.12 8.7 9.76
9/24/2021 10:45:00 AM 14.71 58.478 0.095 7.13 8.54 9.77
9/24/2021 11:00:00 AM 14.8 58.64 0.096 7.14 8.21 9.79
9/24/2021 11:15:00 AM 14.93 58.874 0.095 7.15 8.24 9.8
9/24/2021 11:30:00 AM 15.08 59.144 0.096 7.17 7.88 9.82
9/24/2021 11:45:00 AM 15.2 59.36 0.102 7.18 7.98 9.81
9/24/2021 12:00:00 PM 15.35 59.63 0.102 7.2 7.9 9.82
9/24/2021 12:15:00 PM 15.5 59.9 0.102 7.21 8.02 9.81
9/24/2021 12:30:00 PM 15.68 60.224 0.102 7.22 7.76 9.83
9/24/2021 12:45:00 PM 15.84 60.512 0.101 7.24 7.83 9.83
9/24/2021 1:00:00 PM 16.06 60.908 0.101 7.26 7.68 9.83
9/24/2021 1:15:00 PM 16.18 61.124 0.095 7.29 7.85 9.8
9/24/2021 1:30:00 PM 16.28 61.304 0.101 7.29 7.96 9.78
9/24/2021 1:45:00 PM 16.43 61.574 0.101 7.29 7.87 9.77
9/24/2021 2:00:00 PM 16.5 61.7 0.101 7.3 7.7 9.76
9/24/2021 2:15:00 PM 16.59 61.862 0.101 7.31 7.75 9.74
9/24/2021 2:30:00 PM 16.76 62.168 0.101 7.32 7.78 9.72
9/24/2021 2:45:00 PM 16.87 62.366 0.101 7.32 8.12 9.68
9/24/2021 3:00:00 PM 16.92 62.456 0.101 7.31 8.03 9.64
9/24/2021 3:15:00 PM 16.89 62.402 0.101 7.3 7.86 9.61
9/24/2021 3:30:00 PM 16.91 62.438 0.101 7.3 8 9.59
9/24/2021 3:45:00 PM 16.86 62.348 0.101 7.29 7.98 9.55
9/24/2021 4:00:00 PM 16.81 62.258 0.101 7.28 7.84 9.51
9/24/2021 4:15:00 PM 16.82 62.276 0.101 7.28 7.97 9.48
9/24/2021 4:30:00 PM 16.86 62.348 0.101 7.27 7.76 9.47
9/24/2021 4:45:00 PM 16.85 62.33 0.101 7.26 7.88 9.46
9/24/2021 5:00:00 PM 16.82 62.276 0.101 7.26 7.86 9.45
9/24/2021 5:15:00 PM 16.8 62.24 0.101 7.24 7.81 9.43
9/24/2021 5:30:00 PM 16.77 62.186 0.101 7.23 7.6 9.41
9/24/2021 5:45:00 PM 16.72 62.096 0.101 7.22 7.7 9.36
9/24/2021 6:00:00 PM 16.66 61.988 0.101 7.21 7.54 9.3
9/24/2021 6:15:00 PM 16.6 61.88 0.101 7.18 7.59 9.23
9/24/2021 6:30:00 PM 16.52 61.736 0.101 7.16 7.85 9.19
9/24/2021 6:45:00 PM 16.44 61.592 0.101 7.15 7.92 9.14
9/24/2021 7:00:00 PM 16.35 61.43 0.101 7.12 7.7 9.1
9/24/2021 7:15:00 PM 16.24 61.232 0.101 7.1 7.77 9.07
9/24/2021 7:30:00 PM 16.14 61.052 0.101 7.1 8.39 9.05
9/24/2021 7:45:00 PM 16.05 60.89 0.101 7.09 8.32 9.05
9/24/2021 8:00:00 PM 15.95 60.71 0.101 7.07 9.01 9.06
9/24/2021 8:15:00 PM 15.88 60.584 0.101 7.05 8.63 9.07
9/24/2021 8:30:00 PM 15.79 60.422 0.096 7.04 8.45 9.07
9/24/2021 8:45:00 PM 15.71 60.278 0.101 7.03 8.45 9.06
9/24/2021 9:00:00 PM 15.62 60.116 0.101 7.03 8.3 9.1
9/24/2021 9:15:00 PM 15.54 59.972 0.096 7.03 8.34 9.11
9/24/2021 9:30:00 PM 15.46 59.828 0.095 7.02 8.71 9.12
9/24/2021 9:45:00 PM 15.38 59.684 0.095 7.01 8.56 9.13
9/24/2021 10:00:00 PM 15.31 59.558 0.095 7.01 8.65 9.15
9/24/2021 10:15:00 PM 15.23 59.414 0.101 7.01 8.71 9.17
9/24/2021 10:30:00 PM 15.15 59.27 0.095 7.01 8.37 9.19
9/24/2021 10:45:00 PM 15.08 59.144 0.095 7.01 8.51 9.2
9/24/2021 11:00:00 PM 15 59 0.095 7 8.6 9.23
9/24/2021 11:15:00 PM 14.93 58.874 0.095 7 8.71 9.24
9/24/2021 11:30:00 PM 14.87 58.766 0.095 7 8.57 9.25
9/24/2021 11:45:00 PM 14.8 58.64 0.095 6.99 8.29 9.26
9/25/2021 12:00:00 AM 14.73 58.514 0.095 6.99 8.55 9.27
9/25/2021 12:15:00 AM 14.66 58.388 0.095 6.99 8.5 9.3
9/25/2021 12:30:00 AM 14.59 58.262 0.095 6.98 8.26 9.31
9/25/2021 12:45:00 AM 14.53 58.154 0.095 6.93 8.64 9.33
9/25/2021 1:00:00 AM 14.47 58.046 0.095 6.92 8.36 9.34
9/25/2021 1:15:00 AM 14.4 57.92 0.095 6.93 8.13 9.36
9/25/2021 1:30:00 AM 14.35 57.83 0.095 6.92 9.91 9.36
9/25/2021 1:45:00 AM 14.29 57.722 0.095 6.95 9.41 9.37
9/25/2021 2:00:00 AM 14.22 57.596 0.095 6.92 7.9 9.4
9/25/2021 2:15:00 AM 14.17 57.506 0.095 6.92 9.29 9.41
9/25/2021 2:30:00 AM 14.12 57.416 0.095 6.92 8.66 9.42
9/25/2021 2:45:00 AM 14.06 57.308 0.095 6.92 8.17 9.44
9/25/2021 3:00:00 AM 14.01 57.218 0.095 6.92 8.28 9.44
9/25/2021 3:15:00 AM 13.96 57.128 0.095 6.93 8.05 9.46
9/25/2021 3:30:00 AM 13.9 57.02 0.095 6.92 7.63 9.48
9/25/2021 3:45:00 AM 13.85 56.93 0.095 6.92 8.36 9.48
9/25/2021 4:00:00 AM 13.8 56.84 0.095 6.93 7.7 9.5
9/25/2021 4:15:00 AM 13.75 56.75 0.095 6.93 7.86 9.5
9/25/2021 4:30:00 AM 13.7 56.66 0.095 6.93 11.32 9.5
9/25/2021 4:45:00 AM 13.64 56.552 0.095 6.96 11.6 9.52
9/25/2021 5:00:00 AM 13.59 56.462 0.095 6.95 8.4 9.54
9/25/2021 5:15:00 AM 13.55 56.39 0.095 6.94 12.44 9.52
9/25/2021 5:30:00 AM 13.5 56.3 0.095 6.94 11.62 9.54
9/25/2021 5:45:00 AM 13.45 56.21 0.095 6.95 10.37 9.56
9/25/2021 6:00:00 AM 13.4 56.12 0.095 6.95 8.14 9.58
9/25/2021 6:15:00 AM 13.35 56.03 0.095 6.95 9 9.59
9/25/2021 6:30:00 AM 13.3 55.94 0.095 6.94 7.76 9.6
9/25/2021 6:45:00 AM 13.26 55.868 0.095 6.96 7.42 9.62
9/25/2021 7:00:00 AM 13.22 55.796 0.095 6.96 7.03 9.62
9/25/2021 7:15:00 AM 13.17 55.706 0.095 6.96 6.58 9.64
9/25/2021 7:30:00 AM 13.14 55.652 0.095 6.95 6.62 9.68
9/25/2021 7:45:00 AM 13.11 55.598 0.095 6.97 6.55 9.7
9/25/2021 8:00:00 AM 13.09 55.562 0.095 6.96 6.29 9.78
9/25/2021 8:15:00 AM 13.08 55.544 0.095 7 6.27 9.85
9/25/2021 8:30:00 AM 13.06 55.508 0.095 7.01 6.77 9.9
9/25/2021 8:45:00 AM 13.06 55.508 0.095 7 6.19 9.93
9/25/2021 9:00:00 AM 13.08 55.544 0.095 7.04 6.3 9.99
9/25/2021 9:15:00 AM 13.12 55.616 0.095 7.06 5.98 10.07
9/25/2021 9:30:00 AM 13.17 55.706 0.095 7.07 5.97 10.11
9/25/2021 9:45:00 AM 13.26 55.868 0.095 7.09 5.89 10.17
9/25/2021 10:00:00 AM 13.35 56.03 0.095 7.09 5.94 10.21
9/25/2021 10:15:00 AM 13.42 56.156 0.095 7.13 5.82 10.22
9/25/2021 10:30:00 AM 13.53 56.354 0.095 7.14 5.73 10.25
9/25/2021 10:45:00 AM 13.62 56.516 0.095 7.16 5.69 10.24
9/25/2021 11:00:00 AM 13.78 56.804 0.095 7.17 5.59 10.25
9/25/2021 11:15:00 AM 13.95 57.11 0.095 7.18 5.66 10.25
9/25/2021 11:30:00 AM 14.1 57.38 0.095 7.19 5.5 10.23
9/25/2021 11:45:00 AM 14.29 57.722 0.095 7.21 5.6 10.21
9/25/2021 12:00:00 PM 14.53 58.154 0.095 7.22 5.46 10.22
9/25/2021 12:15:00 PM 14.77 58.586 0.095 7.24 5.41 10.21
9/25/2021 12:30:00 PM 15 59 0.095 7.26 5.52 10.19
9/25/2021 12:45:00 PM 15.29 59.522 0.101 7.28 5.71 10.21
9/25/2021 1:00:00 PM 15.54 59.972 0.101 7.3 5.55 10.2
9/25/2021 1:15:00 PM 15.78 60.404 0.095 7.32 5.61 10.2
9/25/2021 1:30:00 PM 15.98 60.764 0.095 7.35 5.8 10.19
9/25/2021 1:45:00 PM 16.19 61.142 0.101 7.34 5.61 10.17
9/25/2021 2:00:00 PM 16.36 61.448 0.101 7.38 5.48 10.14
9/25/2021 2:15:00 PM 16.51 61.718 0.101 7.39 5.56 10.11
9/25/2021 2:30:00 PM 16.62 61.916 0.101 7.4 5.66 10.09
9/25/2021 2:45:00 PM 16.73 62.114 0.101 7.42 5.62 10.08
9/25/2021 3:00:00 PM 16.83 62.294 0.101 7.42 5.58 10.04
9/25/2021 3:15:00 PM 16.9 62.42 0.101 7.43 5.71 10.01
9/25/2021 3:30:00 PM 16.96 62.528 0.101 7.43 6.95 9.97
9/25/2021 3:45:00 PM 17.01 62.618 0.101 7.43 7.37 9.95
9/25/2021 4:00:00 PM 17.05 62.69 0.101 7.42 6.71 9.89
9/25/2021 4:15:00 PM 17.06 62.708 0.101 7.42 6.25 9.83
9/25/2021 4:30:00 PM 17.04 62.672 0.101 7.4 6.19 9.78
9/25/2021 4:45:00 PM 16.99 62.582 0.101 7.38 5.82 9.72
9/25/2021 5:00:00 PM 16.96 62.528 0.101 7.37 5.57 9.67
9/25/2021 5:15:00 PM 16.91 62.438 0.101 7.34 5.65 9.61
9/25/2021 5:30:00 PM 16.85 62.33 0.101 7.32 5.61 9.53
9/25/2021 5:45:00 PM 16.79 62.222 0.101 7.29 5.77 9.44
9/25/2021 6:00:00 PM 16.71 62.078 0.101 7.27 5.55 9.37
9/25/2021 6:15:00 PM 16.66 61.988 0.101 7.25 5.75 9.31
9/25/2021 6:30:00 PM 16.59 61.862 0.101 7.22 5.8 9.25
9/25/2021 6:45:00 PM 16.51 61.718 0.102 7.19 5.93 9.18
9/25/2021 7:00:00 PM 16.44 61.592 0.102 7.16 5.99 9.1
9/25/2021 7:15:00 PM 16.36 61.448 0.102 7.14 6.89 9.03
9/25/2021 7:30:00 PM 16.29 61.322 0.102 7.13 9.94 8.97
9/25/2021 7:45:00 PM 16.21 61.178 0.102 7.1 6.4 8.94
9/25/2021 8:00:00 PM 16.14 61.052 0.102 7.08 7.76 8.9
9/25/2021 8:15:00 PM 16.06 60.908 0.102 7.07 6.51 8.89
9/25/2021 8:30:00 PM 15.99 60.782 0.102 7.06 6.61 8.89
9/25/2021 8:45:00 PM 15.91 60.638 0.102 7.05 6.49 8.91
9/25/2021 9:00:00 PM 15.85 60.53 0.102 7.05 6.37 8.91
9/25/2021 9:15:00 PM 15.78 60.404 0.102 7.03 6.21 8.92
9/25/2021 9:30:00 PM 15.71 60.278 0.102 7.03 6.62 8.93
9/25/2021 9:45:00 PM 15.66 60.188 0.103 7.03 6.67 8.92
9/25/2021 10:00:00 PM 15.57 60.026 0.103 7.02 6.41 8.95
9/25/2021 10:15:00 PM 15.51 59.918 0.103 7.02 6.67 8.97
9/25/2021 10:30:00 PM 15.45 59.81 0.103 7.01 6.69 8.97
9/25/2021 10:45:00 PM 15.4 59.72 0.103 7.01 7.21 8.98
9/25/2021 11:00:00 PM 15.35 59.63 0.103 7.01 6.81 9
9/25/2021 11:15:00 PM 15.3 59.54 0.103 7.01 6.57 9
9/25/2021 11:30:00 PM 15.25 59.45 0.103 7 6.64 9.02
9/25/2021 11:45:00 PM 15.21 59.378 0.103 7 6.77 9.03
9/26/2021 12:00:00 AM 15.16 59.288 0.097 7.02 6.48 9.04
9/26/2021 12:15:00 AM 15.12 59.216 0.103 7.01 7.5 9.05
9/26/2021 12:30:00 AM 15.08 59.144 0.103 7 6.75 9.05
9/26/2021 12:45:00 AM 15.03 59.054 0.103 7.01 7.19 9.06
9/26/2021 1:00:00 AM 14.98 58.964 0.103 7 8.68 9.09
9/26/2021 1:15:00 AM 14.94 58.892 0.103 7.01 7.04 9.09
9/26/2021 1:30:00 AM 14.91 58.838 0.097 7 6.25 9.1
9/26/2021 1:45:00 AM 14.89 58.802 0.103 7 6.41 9.1
9/26/2021 2:00:00 AM 14.87 58.766 0.103 7 6.2 9.13
9/26/2021 2:15:00 AM 14.85 58.73 0.097 7 6.61 9.12
9/26/2021 2:30:00 AM 14.83 58.694 0.103 7 7.32 9.13
9/26/2021 2:45:00 AM 14.8 58.64 0.103 6.99 6.49 9.14
9/26/2021 3:00:00 AM 14.78 58.604 0.103 7 7.27 9.14
9/26/2021 3:15:00 AM 14.76 58.568 0.103 7 7.65 9.13
9/26/2021 3:30:00 AM 14.74 58.532 0.097 7 6.98 9.15
9/26/2021 3:45:00 AM 14.72 58.496 0.103 6.99 6.75 9.17
9/26/2021 4:00:00 AM 14.7 58.46 0.103 7.01 6.7 9.17
9/26/2021 4:15:00 AM 14.68 58.424 0.103 7.01 7.45 9.16
9/26/2021 4:30:00 AM 14.66 58.388 0.103 7.01 7.52 9.18
9/26/2021 4:45:00 AM 14.65 58.37 0.103 6.99 8.04 9.18
9/26/2021 5:00:00 AM 14.63 58.334 0.103 6.98 9.13 9.18
9/26/2021 5:15:00 AM 14.61 58.298 0.097 7 9.58 9.16
9/26/2021 5:30:00 AM 14.57 58.226 0.097 6.98 11.84 9.16
9/26/2021 5:45:00 AM 14.52 58.136 0.103 7.01 8.3 9.19
9/26/2021 6:00:00 AM 14.47 58.046 0.103 6.98 16.08 9.18
9/26/2021 6:15:00 AM 14.42 57.956 0.103 6.95 14.68 9.17
9/26/2021 6:30:00 AM 14.37 57.866 0.103 6.96 14.75 9.18
9/26/2021 6:45:00 AM 14.32 57.776 0.098 6.98 8.93 9.2
9/26/2021 7:00:00 AM 14.26 57.668 0.098 6.98 7 9.25
9/26/2021 7:15:00 AM 14.21 57.578 0.103 6.99 6.58 9.27
9/26/2021 7:30:00 AM 14.16 57.488 0.097 6.98 6.41 9.29
9/26/2021 7:45:00 AM 14.11 57.398 0.103 7 6.18 9.35
9/26/2021 8:00:00 AM 14.07 57.326 0.097 7.01 5.9 9.38
9/26/2021 8:15:00 AM 14.03 57.254 0.099 7.01 5.93 9.45
9/26/2021 8:30:00 AM 13.98 57.164 0.097 7.03 5.97 9.5
9/26/2021 8:45:00 AM 13.95 57.11 0.097 7.03 5.79 9.56
9/26/2021 9:00:00 AM 13.93 57.074 0.097 7.04 6.03 9.63
9/26/2021 9:15:00 AM 13.92 57.056 0.097 7.05 5.87 9.69
9/26/2021 9:30:00 AM 13.93 57.074 0.097 7.07 5.87 9.75
9/26/2021 9:45:00 AM 13.96 57.128 0.103 7.08 5.97 9.86
9/26/2021 10:00:00 AM 14 57.2 0.097 7.11 5.71 9.92
9/26/2021 10:15:00 AM 14.06 57.308 0.103 7.11 5.91 9.99
9/26/2021 10:30:00 AM 14.12 57.416 0.097 7.13 6.15 10.02
9/26/2021 10:45:00 AM 14.19 57.542 0.097 7.16 6.59 10.06
9/26/2021 11:00:00 AM 14.29 57.722 0.103 7.16 8.63 10.1
9/26/2021 11:15:00 AM 14.42 57.956 0.103 7.18 7.06 10.18
9/26/2021 11:30:00 AM 14.53 58.154 0.103 7.2 6.31 10.2
9/26/2021 11:45:00 AM 14.66 58.388 0.103 7.22 5.92 10.25
9/26/2021 12:00:00 PM 14.83 58.694 0.102 7.25 5.6 10.31
9/26/2021 12:15:00 PM 14.95 58.91 0.103 7.27 5.63 10.3
9/26/2021 12:30:00 PM 15.13 59.234 0.102 7.29 5.51 10.33
9/26/2021 12:45:00 PM 15.36 59.648 0.102 7.32 5.47 10.35
9/26/2021 1:00:00 PM 15.52 59.936 0.102 7.33 5.64 10.32
9/26/2021 1:15:00 PM 15.73 60.314 0.102 7.35 5.56 10.31
9/26/2021 1:30:00 PM 16 60.8 0.102 7.37 5.71 10.35
9/26/2021 1:45:00 PM 16.24 61.232 0.102 7.41 5.62 10.34
9/26/2021 2:00:00 PM 16.36 61.448 0.102 7.43 5.78 10.3
9/26/2021 2:15:00 PM 16.46 61.628 0.102 7.44 5.54 10.26
9/26/2021 2:30:00 PM 16.55 61.79 0.102 7.46 6.43 10.25
9/26/2021 2:45:00 PM 16.61 61.898 0.102 7.46 5.86 10.22
9/26/2021 3:00:00 PM 16.62 61.916 0.102 7.47 5.42 10.2
9/26/2021 3:15:00 PM 16.66 61.988 0.102 7.47 5.73 10.18
9/26/2021 3:30:00 PM 16.7 62.06 0.102 7.47 5.51 10.14
9/26/2021 3:45:00 PM 16.76 62.168 0.102 7.47 5.66 10.08
9/26/2021 4:00:00 PM 16.77 62.186 0.102 7.48 5.64 10.04
9/26/2021 4:15:00 PM 16.82 62.276 0.102 7.46 5.61 9.98
9/26/2021 4:30:00 PM 16.79 62.222 0.102 7.43 5.6 9.91
9/26/2021 4:45:00 PM 16.76 62.168 0.102 7.43 5.77 9.86
9/26/2021 5:00:00 PM 16.73 62.114 0.103 7.42 5.64 9.82
9/26/2021 5:15:00 PM 16.68 62.024 0.103 7.4 5.68 9.8
9/26/2021 5:30:00 PM 16.64 61.952 0.103 7.38 5.6 9.76
9/26/2021 5:45:00 PM 16.58 61.844 0.103 7.36 5.32 9.69
9/26/2021 6:00:00 PM 16.48 61.664 0.103 7.32 5.41 9.58
9/26/2021 6:15:00 PM 16.38 61.484 0.103 7.29 5.31 9.48
9/26/2021 6:30:00 PM 16.29 61.322 0.103 7.26 5.3 9.37
9/26/2021 6:45:00 PM 16.2 61.16 0.103 7.22 5.47 9.27
9/26/2021 7:00:00 PM 16.11 60.998 0.103 7.19 5.39 9.18
9/26/2021 7:15:00 PM 16.01 60.818 0.104 7.16 6.66 9.09
9/26/2021 7:30:00 PM 15.93 60.674 0.104 7.12 6.42 9.02
9/26/2021 7:45:00 PM 15.85 60.53 0.104 7.1 8.46 8.96
9/26/2021 8:00:00 PM 15.76 60.368 0.104 7.07 8.02 8.93
9/26/2021 8:15:00 PM 15.68 60.224 0.104 7.06 6.92 8.9
9/26/2021 8:30:00 PM 15.59 60.062 0.104 7.05 6.44 8.89
9/26/2021 8:45:00 PM 15.5 59.9 0.104 7.05 6.39 8.9
9/26/2021 9:00:00 PM 15.43 59.774 0.104 7.02 6.46 8.91
9/26/2021 9:15:00 PM 15.35 59.63 0.104 7.03 6.66 8.92
9/26/2021 9:30:00 PM 15.3 59.54 0.104 7.01 12.16 8.92
9/26/2021 9:45:00 PM 15.22 59.396 0.104 7.02 7.64 8.94
9/26/2021 10:00:00 PM 15.13 59.234 0.105 7.02 8.92 8.96
9/26/2021 10:15:00 PM 15.07 59.126 0.105 7.01 7.67 8.95
9/26/2021 10:30:00 PM 14.98 58.964 0.105 7.01 6.8 8.99
9/26/2021 10:45:00 PM 14.91 58.838 0.105 7 6.64 8.99
9/26/2021 11:00:00 PM 14.82 58.676 0.105 6.99 6.05 9.01
9/26/2021 11:15:00 PM 14.74 58.532 0.105 7.01 6.85 9.04
9/26/2021 11:30:00 PM 14.67 58.406 0.105 6.99 6.83 9.05
9/26/2021 11:45:00 PM 14.6 58.28 0.105 6.99 6.79 9.06
9/27/2021 12:00:00 AM 14.53 58.154 0.105 6.98 6.2 9.07
9/27/2021 12:15:00 AM 14.46 58.028 0.105 6.99 6.18 9.1
9/27/2021 12:30:00 AM 14.39 57.902 0.105 6.98 7.42 9.12
9/27/2021 12:45:00 AM 14.31 57.758 0.105 6.98 6.93 9.15
9/27/2021 1:00:00 AM 14.26 57.668 0.105 6.98 7.09 9.14
9/27/2021 1:15:00 AM 14.2 57.56 0.105 6.98 7.05 9.16
9/27/2021 1:30:00 AM 14.15 57.47 0.105 6.98 6.52 9.19
9/27/2021 1:45:00 AM 14.1 57.38 0.105 6.99 5.94 9.24
9/27/2021 2:00:00 AM 14.07 57.326 0.105 6.97 6.47 9.22
9/27/2021 2:15:00 AM 14.02 57.236 0.105 6.96 6.2 9.25
9/27/2021 2:30:00 AM 14 57.2 0.105 6.96 6.19 9.24
9/27/2021 2:45:00 AM 13.96 57.128 0.105 6.96 6.21 9.27
9/27/2021 3:00:00 AM 13.92 57.056 0.105 6.96 5.78 9.29
9/27/2021 3:15:00 AM 13.91 57.038 0.105 6.95 5.85 9.26
9/27/2021 3:30:00 AM 13.88 56.984 0.105 6.97 5.9 9.27
9/27/2021 3:45:00 AM 13.86 56.948 0.105 6.96 5.97 9.29
9/27/2021 4:00:00 AM 13.84 56.912 0.105 6.95 6 9.28
9/27/2021 4:15:00 AM 13.83 56.894 0.1 6.95 6.57 9.28
9/27/2021 4:30:00 AM 13.82 56.876 0.099 6.93 13.79 9.27
9/27/2021 4:45:00 AM 13.81 56.858 0.105 6.94 12.63 9.26
9/27/2021 5:00:00 AM 13.81 56.858 0.105 6.91 13.76 9.28
9/27/2021 5:15:00 AM 13.81 56.858 0.105 6.92 11.61 9.26
9/27/2021 5:30:00 AM 13.81 56.858 0.099 6.93 11.05 9.28
9/27/2021 5:45:00 AM 13.8 56.84 0.105 6.93 11.51 9.26
9/27/2021 6:00:00 AM 13.8 56.84 0.105 6.95 8.62 9.3
9/27/2021 6:15:00 AM 13.8 56.84 0.105 6.94 11.04 9.27
9/27/2021 6:30:00 AM 13.8 56.84 0.105 6.94 10.99 9.27
9/27/2021 6:45:00 AM 13.8 56.84 0.105 6.94 12.58 9.26
9/27/2021 7:00:00 AM 13.8 56.84 0.105 6.96 9.75 9.28
9/27/2021 7:15:00 AM 13.8 56.84 0.099 6.95 7.77 9.27
9/27/2021 7:30:00 AM 13.81 56.858 0.105 6.96 6.78 9.31
9/27/2021 7:45:00 AM 13.81 56.858 0.105 6.96 6.04 9.34
9/27/2021 8:00:00 AM 13.81 56.858 0.105 6.98 5.56 9.35
9/27/2021 8:15:00 AM 13.82 56.876 0.105 6.98 6.38 9.39
9/27/2021 8:30:00 AM 13.84 56.912 0.105 6.98 5.75 9.43
9/27/2021 8:45:00 AM 13.85 56.93 0.099 6.99 5.41 9.49
9/27/2021 9:00:00 AM 13.87 56.966 0.105 7.01 5.44 9.55
9/27/2021 9:15:00 AM 13.9 57.02 0.099 7.01 5.4 9.65
9/27/2021 9:30:00 AM 13.94 57.092 0.099 7.03 5.31 9.79
9/27/2021 9:45:00 AM 14 57.2 0.098 7.07 5.35 9.97
9/27/2021 10:00:00 AM 14.09 57.362 0.105 7.1 5.34 10.12
9/27/2021 10:15:00 AM 14.17 57.506 0.105 7.13 5.36 10.2
9/27/2021 10:30:00 AM 14.25 57.65 0.104 7.18 5.2 10.29
9/27/2021 10:45:00 AM 14.34 57.812 0.104 7.19 5.36 10.36
9/27/2021 11:00:00 AM 14.48 58.064 0.104 7.22 5.46 10.44
9/27/2021 11:15:00 AM 14.59 58.262 0.104 7.26 5.34 10.51
9/27/2021 11:30:00 AM 14.65 58.37 0.104 7.29 5.22 10.56
9/27/2021 11:45:00 AM 14.72 58.496 0.104 7.33 5.14 10.62
9/27/2021 12:00:00 PM 14.79 58.622 0.104 7.35 5.17 10.62
9/27/2021 12:15:00 PM 14.88 58.784 0.104 7.36 5.1 10.63
9/27/2021 12:30:00 PM 14.95 58.91 0.104 7.38 5.13 10.6
9/27/2021 12:45:00 PM 15.01 59.018 0.104 7.41 5.1 10.58
9/27/2021 1:00:00 PM 15.09 59.162 0.103 7.43 5.12 10.6
9/27/2021 1:15:00 PM 15.25 59.45 0.103 7.47 9.02 10.64
9/27/2021 1:30:00 PM 15.49 59.882 0.103 7.49 6.02 10.68
9/27/2021 1:45:00 PM 15.74 60.332 0.103 7.53 5.25 10.72
9/27/2021 2:00:00 PM 15.91 60.638 0.103 7.56 5.06 10.71
9/27/2021 2:15:00 PM 16.13 61.034 0.103 7.6 5.02 10.7
9/27/2021 2:30:00 PM 16.34 61.412 0.103 7.63 5.02 10.7
9/27/2021 2:45:00 PM 16.54 61.772 0.103 7.67 5.01 10.68
9/27/2021 3:00:00 PM 16.71 62.078 0.103 7.72 5.11 10.67
9/27/2021 3:15:00 PM 16.84 62.312 0.103 7.73 5.16 10.62
9/27/2021 3:30:00 PM 16.93 62.474 0.103 7.74 5.03 10.57
9/27/2021 3:45:00 PM 17 62.6 0.103 7.75 5.17 10.54
9/27/2021 4:00:00 PM 17.05 62.69 0.103 7.74 5.37 10.48
9/27/2021 4:15:00 PM 17.06 62.708 0.103 7.73 5.76 10.43
9/27/2021 4:30:00 PM 17.05 62.69 0.103 7.73 5.31 10.37
9/27/2021 4:45:00 PM 17.03 62.654 0.103 7.7 5.82 10.31
9/27/2021 5:00:00 PM 17.01 62.618 0.103 7.68 5.23 10.23
9/27/2021 5:15:00 PM 16.98 62.564 0.103 7.64 5.13 10.16
9/27/2021 5:30:00 PM 16.95 62.51 0.103 7.6 5.22 10.06
9/27/2021 5:45:00 PM 16.91 62.438 0.104 7.55 5.57 9.94
9/27/2021 6:00:00 PM 16.87 62.366 0.104 7.5 5.26 9.82
9/27/2021 6:15:00 PM 16.83 62.294 0.104 7.43 5.39 9.67
9/27/2021 6:30:00 PM 16.77 62.186 0.104 7.38 5.45 9.52
9/27/2021 6:45:00 PM 16.71 62.078 0.104 7.32 5.82 9.36
9/27/2021 7:00:00 PM 16.64 61.952 0.104 7.27 6.57 9.21
9/27/2021 7:15:00 PM 16.57 61.826 0.105 7.2 8.38 9.06
9/27/2021 7:30:00 PM 16.5 61.7 0.105 7.17 6.84 8.94
9/27/2021 7:45:00 PM 16.43 61.574 0.105 7.13 7.68 8.84
9/27/2021 8:00:00 PM 16.35 61.43 0.105 7.11 6.41 8.77
9/27/2021 8:15:00 PM 16.28 61.304 0.105 7.08 6.55 8.74
9/27/2021 8:30:00 PM 16.22 61.196 0.105 7.06 7.13 8.69
9/27/2021 8:45:00 PM 16.17 61.106 0.105 7.04 6.36 8.64
9/27/2021 9:00:00 PM 16.11 60.998 0.105 7.04 6.43 8.65
9/27/2021 9:15:00 PM 16.06 60.908 0.106 7.03 6.5 8.64
9/27/2021 9:30:00 PM 16 60.8 0.106 7.02 5.9 8.65
9/27/2021 9:45:00 PM 15.96 60.728 0.106 7.01 5.99 8.63
9/27/2021 10:00:00 PM 15.93 60.674 0.106 7 7.12 8.63
9/27/2021 10:15:00 PM 15.89 60.602 0.106 6.99 6.65 8.65
9/27/2021 10:30:00 PM 15.86 60.548 0.106 6.99 6.06 8.66
9/27/2021 10:45:00 PM 15.82 60.476 0.106 6.99 6.47 8.67
9/27/2021 11:00:00 PM 15.78 60.404 0.106 6.99 7.06 8.68
9/27/2021 11:15:00 PM 15.73 60.314 0.106 6.98 6.73 8.7
9/27/2021 11:30:00 PM 15.7 60.26 0.106 6.98 6.04 8.69
9/27/2021 11:45:00 PM 15.65 60.17 0.106 6.97 5.73 8.68
9/28/2021 12:00:00 AM 15.61 60.098 0.106 6.96 6.89 8.69
9/28/2021 12:15:00 AM 15.58 60.044 0.107 6.96 7.12 8.72
9/28/2021 12:30:00 AM 15.55 59.99 0.106 6.96 6.04 8.72
9/28/2021 12:45:00 AM 15.52 59.936 0.107 6.97 5.99 8.72
9/28/2021 1:00:00 AM 15.49 59.882 0.107 6.96 6.02 8.73
9/28/2021 1:15:00 AM 15.46 59.828 0.107 6.97 6.91 8.74
9/28/2021 1:30:00 AM 15.44 59.792 0.107 6.95 5.77 8.75
9/28/2021 1:45:00 AM 15.42 59.756 0.107 6.94 5.94 8.76
9/28/2021 2:00:00 AM 15.4 59.72 0.107 6.95 6.51 8.73
9/28/2021 2:15:00 AM 15.38 59.684 0.106 6.95 6.27 8.74
9/28/2021 2:30:00 AM 15.35 59.63 0.107 6.95 6.16 8.76
9/28/2021 2:45:00 AM 15.33 59.594 0.107 6.96 5.85 8.77
9/28/2021 3:00:00 AM 15.31 59.558 0.107 6.95 6.36 8.76
9/28/2021 3:15:00 AM 15.29 59.522 0.107 6.93 9.65 8.76
9/28/2021 3:30:00 AM 15.27 59.486 0.107 6.93 10.47 8.75
9/28/2021 3:45:00 AM 15.26 59.468 0.107 6.93 11.67 8.77
9/28/2021 4:00:00 AM 15.24 59.432 0.107 6.94 9.12 8.79
9/28/2021 4:15:00 AM 15.23 59.414 0.107 6.94 12.14 8.78
9/28/2021 4:30:00 AM 15.22 59.396 0.107 6.94 8.71 8.76
9/28/2021 4:45:00 AM 15.2 59.36 0.107 6.94 8.46 8.8
9/28/2021 5:00:00 AM 15.19 59.342 0.107 6.94 7.66 8.79
9/28/2021 5:15:00 AM 15.18 59.324 0.107 6.94 11.28 8.8
9/28/2021 5:30:00 AM 15.17 59.306 0.107 6.93 16.46 8.78
9/28/2021 5:45:00 AM 15.15 59.27 0.107 6.94 11.36 8.79
9/28/2021 6:00:00 AM 15.13 59.234 0.107 6.94 11.62 8.79
9/28/2021 6:15:00 AM 15.11 59.198 0.107 6.94 10.66 8.78
9/28/2021 6:30:00 AM 15.08 59.144 0.107 6.93 9.41 8.8
9/28/2021 6:45:00 AM 15.06 59.108 0.107 6.94 8.22 8.8
9/28/2021 7:00:00 AM 15.04 59.072 0.107 6.93 9.58 8.79
9/28/2021 7:15:00 AM 15.02 59.036 0.107 6.95 7.4 8.83
9/28/2021 7:30:00 AM 15.01 59.018 0.107 6.94 6.66 8.85
9/28/2021 7:45:00 AM 15.01 59.018 0.107 6.95 6.12 8.88
9/28/2021 8:00:00 AM 15.01 59.018 0.107 6.95 5.76 9.01
9/28/2021 8:15:00 AM 15.02 59.036 0.107 6.98 5.35 9.11
9/28/2021 8:30:00 AM 15.04 59.072 0.107 6.99 5.36 9.22
9/28/2021 8:45:00 AM 15.06 59.108 0.107 7 5.43 9.28
9/28/2021 9:00:00 AM 15.08 59.144 0.107 7.02 5.32 9.37
9/28/2021 9:15:00 AM 15.11 59.198 0.107 7.03 5.27 9.45
9/28/2021 9:30:00 AM 15.14 59.252 0.107 7.05 5.1 9.53
9/28/2021 9:45:00 AM 15.16 59.288 0.107 7.07 5.12 9.57
9/28/2021 10:00:00 AM 15.18 59.324 0.107 7.07 4.98 9.57
9/28/2021 10:15:00 AM 15.19 59.342 0.107 7.08 5.17 9.58
9/28/2021 10:30:00 AM 15.21 59.378 0.107 7.08 5.11 9.53
9/28/2021 10:45:00 AM 15.21 59.378 0.107 7.09 5.26 9.46
9/28/2021 11:00:00 AM 15.22 59.396 0.107 7.08 5.47 9.39
9/28/2021 11:15:00 AM 15.23 59.414 0.107 7.07 5.13 9.33
9/28/2021 11:30:00 AM 15.24 59.432 0.106 7.06 5.36 9.28
9/28/2021 11:45:00 AM 15.25 59.45 0.106 7.06 5.07 9.26
9/28/2021 12:00:00 PM 15.27 59.486 0.106 7.05 4.96 9.27
9/28/2021 12:15:00 PM 15.3 59.54 0.106 7.06 5.12 9.33
9/28/2021 12:30:00 PM 15.34 59.612 0.106 7.08 4.97 9.47
9/28/2021 12:45:00 PM 15.37 59.666 0.106 7.1 4.98 9.61
9/28/2021 1:00:00 PM 15.4 59.72 0.106 7.12 5.52 9.65
9/28/2021 1:15:00 PM 15.46 59.828 0.105 7.14 6.49 9.74
9/28/2021 1:30:00 PM 15.54 59.972 0.105 7.17 7.23 9.91
9/28/2021 1:45:00 PM 15.6 60.08 0.105 7.21 6.44 10.07
9/28/2021 2:00:00 PM 15.66 60.188 0.105 7.26 6.15 10.23
9/28/2021 2:15:00 PM 15.73 60.314 0.105 7.31 5.97 10.33
9/28/2021 2:30:00 PM 15.79 60.422 0.105 7.35 5.67 10.44
9/28/2021 2:45:00 PM 15.84 60.512 0.105 7.39 6.06 10.45
9/28/2021 3:00:00 PM 15.88 60.584 0.105 7.43 5.76 10.45
9/28/2021 3:15:00 PM 15.96 60.728 0.105 7.45 5.72 10.43
9/28/2021 3:30:00 PM 16.06 60.908 0.105 7.47 5.63 10.45
9/28/2021 3:45:00 PM 16.11 60.998 0.105 7.5 5.56 10.46
9/28/2021 4:00:00 PM 16.19 61.142 0.105 7.55 5.44 10.5
9/28/2021 4:15:00 PM 16.29 61.322 0.105 7.59 5.41 10.53
9/28/2021 4:30:00 PM 16.34 61.412 0.105 7.63 5.49 10.53
9/28/2021 4:45:00 PM 16.35 61.43 0.105 7.65 5.41 10.48
9/28/2021 5:00:00 PM 16.35 61.43 0.105 7.65 5.21 10.39
9/28/2021 5:15:00 PM 16.35 61.43 0.105 7.62 5.65 10.3
9/28/2021 5:30:00 PM 16.31 61.358 0.105 7.6 5.21 10.24
9/28/2021 5:45:00 PM 16.24 61.232 0.105 7.57 5.28 10.16
9/28/2021 6:00:00 PM 16.16 61.088 0.105 7.53 5.17 10.03
9/28/2021 6:15:00 PM 16.09 60.962 0.105 7.47 5.27 9.9
9/28/2021 6:30:00 PM 16.01 60.818 0.105 7.42 5.6 9.74
9/28/2021 6:45:00 PM 15.92 60.656 0.105 7.35 6.13 9.58
9/28/2021 7:00:00 PM 15.83 60.494 0.106 7.29 6.25 9.43
9/28/2021 7:15:00 PM 15.75 60.35 0.106 7.24 7.1 9.29
9/28/2021 7:30:00 PM 15.65 60.17 0.106 7.2 6.92 9.17
9/28/2021 7:45:00 PM 15.56 60.008 0.106 7.16 5.79 9.09
9/28/2021 8:00:00 PM 15.46 59.828 0.106 7.13 5.82 9.04
9/28/2021 8:15:00 PM 15.37 59.666 0.106 7.1 5.83 9
9/28/2021 8:30:00 PM 15.27 59.486 0.106 7.09 5.95 8.99
9/28/2021 8:45:00 PM 15.19 59.342 0.107 7.06 6.17 8.98
9/28/2021 9:00:00 PM 15.1 59.18 0.107 7.06 5.64 8.97
9/28/2021 9:15:00 PM 15.03 59.054 0.107 7.06 6.06 8.97
9/28/2021 9:30:00 PM 14.96 58.928 0.107 7.04 6.29 8.98
9/28/2021 9:45:00 PM 14.88 58.784 0.107 7.03 6.66 8.99
9/28/2021 10:00:00 PM 14.8 58.64 0.107 7.02 5.82 9
9/28/2021 10:15:00 PM 14.74 58.532 0.107 7.01 9.35 9
9/28/2021 10:30:00 PM 14.67 58.406 0.107 7 7.06 9.03
9/28/2021 10:45:00 PM 14.6 58.28 0.107 7.01 6.11 9.03
9/28/2021 11:00:00 PM 14.54 58.172 0.107 6.99 5.84 9.05
9/28/2021 11:15:00 PM 14.48 58.064 0.107 6.99 6.61 9.06
9/28/2021 11:30:00 PM 14.42 57.956 0.108 6.99 5.9 9.08
9/28/2021 11:45:00 PM 14.36 57.848 0.108 6.99 5.89 9.1
9/29/2021 12:00:00 AM 14.31 57.758 0.108 6.99 6.11 9.1
9/29/2021 12:15:00 AM 14.26 57.668 0.108 6.98 5.69 9.13
9/29/2021 12:30:00 AM 14.21 57.578 0.108 6.97 5.77 9.13
9/29/2021 12:45:00 AM 14.16 57.488 0.108 6.95 5.83 9.14
9/29/2021 1:00:00 AM 14.12 57.416 0.108 6.94 5.8 9.16
9/29/2021 1:15:00 AM 14.07 57.326 0.108 6.93 6.03 9.18
9/29/2021 1:30:00 AM 14.03 57.254 0.108 6.93 5.79 9.15
9/29/2021 1:45:00 AM 13.98 57.164 0.108 6.92 6.03 9.18
9/29/2021 2:00:00 AM 13.93 57.074 0.108 6.93 5.88 9.19
9/29/2021 2:15:00 AM 13.88 56.984 0.108 6.92 6.31 9.19
9/29/2021 2:30:00 AM 13.82 56.876 0.108 6.91 6.17 9.2
9/29/2021 2:45:00 AM 13.75 56.75 0.108 6.93 6.28 9.21
9/29/2021 3:00:00 AM 13.69 56.642 0.108 6.92 6.12 9.24
9/29/2021 3:15:00 AM 13.62 56.516 0.108 6.92 6.05 9.24
9/29/2021 3:30:00 AM 13.55 56.39 0.108 6.89 7.11 9.28
9/29/2021 3:45:00 AM 13.49 56.282 0.108 6.9 6.74 9.27
9/29/2021 4:00:00 AM 13.42 56.156 0.108 6.89 9.42 9.29
9/29/2021 4:15:00 AM 13.35 56.03 0.108 6.89 9.15 9.33
9/29/2021 4:30:00 AM 13.3 55.94 0.108 6.89 8.82 9.31
9/29/2021 4:45:00 AM 13.25 55.85 0.108 6.9 6.91 9.32
9/29/2021 5:00:00 AM 13.21 55.778 0.108 6.88 6.25 9.33
9/29/2021 5:15:00 AM 13.16 55.688 0.108 6.9 6.85 9.36
9/29/2021 5:30:00 AM 13.1 55.58 0.108 6.9 12.79 9.38
9/29/2021 5:45:00 AM 13.06 55.508 0.108 6.9 9.05 9.37
9/29/2021 6:00:00 AM 13 55.4 0.108 6.91 7.1 9.38
9/29/2021 6:15:00 AM 12.96 55.328 0.108 6.9 9.21 9.38
9/29/2021 6:30:00 AM 12.87 55.166 0.108 6.9 8.82 9.43
9/29/2021 6:45:00 AM 12.81 55.058 0.108 6.9 14.03 9.43
9/29/2021 7:00:00 AM 12.76 54.968 0.108 6.88 11.01 9.43
9/29/2021 7:15:00 AM 12.7 54.86 0.108 6.89 6.42 9.46
9/29/2021 7:30:00 AM 12.64 54.752 0.108 6.9 5.97 9.49
9/29/2021 7:45:00 AM 12.59 54.662 0.108 6.9 5.58 9.53
9/29/2021 8:00:00 AM 12.54 54.572 0.102 6.9 5.08 9.61
9/29/2021 8:15:00 AM 12.48 54.464 0.108 6.93 5.14 9.73
9/29/2021 8:30:00 AM 12.45 54.41 0.108 6.93 7.42 9.8
9/29/2021 8:45:00 AM 12.42 54.356 0.108 6.95 6.31 9.89
9/29/2021 9:00:00 AM 12.4 54.32 0.102 6.97 5.13 9.97
9/29/2021 9:15:00 AM 12.39 54.302 0.102 7 4.8 10.06
9/29/2021 9:30:00 AM 12.4 54.32 0.102 7.02 4.72 10.18
9/29/2021 9:45:00 AM 12.44 54.392 0.108 7.05 4.64 10.29
9/29/2021 10:00:00 AM 12.49 54.482 0.108 7.07 4.54 10.47
9/29/2021 10:15:00 AM 12.54 54.572 0.101 7.1 4.29 10.58
9/29/2021 10:30:00 AM 12.63 54.734 0.101 7.14 4.29 10.71
9/29/2021 10:45:00 AM 12.76 54.968 0.107 7.2 4.26 10.87
9/29/2021 11:00:00 AM 12.92 55.256 0.107 7.22 4.32 10.98
9/29/2021 11:15:00 AM 13.05 55.49 0.107 7.26 4.21 11.04
9/29/2021 11:30:00 AM 13.17 55.706 0.107 7.3 4.19 11.12
9/29/2021 11:45:00 AM 13.27 55.886 0.107 7.33 4.7 11.15
9/29/2021 12:00:00 PM 13.38 56.084 0.107 7.38 4.38 11.19
9/29/2021 12:15:00 PM 13.59 56.462 0.106 7.43 4.11 11.27
9/29/2021 12:30:00 PM 13.74 56.732 0.106 7.47 4.07 11.26
9/29/2021 12:45:00 PM 13.9 57.02 0.106 7.5 4.03 11.26
9/29/2021 1:00:00 PM 14.13 57.434 0.106 7.55 4.11 11.28
9/29/2021 1:15:00 PM 14.31 57.758 0.106 7.58 4.11 11.23
9/29/2021 1:30:00 PM 14.56 58.208 0.106 7.61 5.72 11.23
9/29/2021 1:45:00 PM 14.77 58.586 0.106 7.64 4.45 11.18
9/29/2021 2:00:00 PM 14.93 58.874 0.106 7.67 4.22 11.15
9/29/2021 2:15:00 PM 15.09 59.162 0.106 7.71 4.7 11.14
9/29/2021 2:30:00 PM 15.22 59.396 0.106 7.76 5.37 11.14
9/29/2021 2:45:00 PM 15.27 59.486 0.106 7.79 4.37 11.08
9/29/2021 3:00:00 PM 15.28 59.504 0.106 7.78 4.23 10.99
9/29/2021 3:15:00 PM 15.28 59.504 0.106 7.76 4.44 10.86
9/29/2021 3:30:00 PM 15.25 59.45 0.106 7.71 4.24 10.73
9/29/2021 3:45:00 PM 15.22 59.396 0.106 7.68 6.03 10.65
9/29/2021 4:00:00 PM 15.18 59.324 0.106 7.63 6.8 10.61
9/29/2021 4:15:00 PM 15.14 59.252 0.106 7.6 4.92 10.57
9/29/2021 4:30:00 PM 15.09 59.162 0.106 7.59 4.32 10.56
9/29/2021 4:45:00 PM 15.04 59.072 0.106 7.55 4.3 10.49
9/29/2021 5:00:00 PM 15 59 0.106 7.51 4.83 10.39
9/29/2021 5:15:00 PM 14.96 58.928 0.106 7.48 4.02 10.29
9/29/2021 5:30:00 PM 14.93 58.874 0.106 7.44 4.11 10.23
9/29/2021 5:45:00 PM 14.91 58.838 0.106 7.41 4.23 10.19
9/29/2021 6:00:00 PM 14.9 58.82 0.106 7.37 4.34 10.13
9/29/2021 6:15:00 PM 14.88 58.784 0.106 7.34 4.33 10.06
9/29/2021 6:30:00 PM 14.84 58.712 0.106 7.32 4.34 10
9/29/2021 6:45:00 PM 14.81 58.658 0.107 7.3 4.18 9.92
9/29/2021 7:00:00 PM 14.77 58.586 0.107 7.27 4.62 9.79
9/29/2021 7:15:00 PM 14.73 58.514 0.107 7.22 5.8 9.64
9/29/2021 7:30:00 PM 14.68 58.424 0.107 7.18 6.08 9.5
9/29/2021 7:45:00 PM 14.64 58.352 0.107 7.14 5.25 9.38
9/29/2021 8:00:00 PM 14.58 58.244 0.108 7.11 5.08 9.3
9/29/2021 8:15:00 PM 14.53 58.154 0.108 7.09 4.84 9.23
9/29/2021 8:30:00 PM 14.48 58.064 0.108 7.07 4.79 9.17
9/29/2021 8:45:00 PM 14.44 57.992 0.108 7.06 4.8 9.12
9/29/2021 9:00:00 PM 14.4 57.92 0.108 7.04 4.68 9.11
9/29/2021 9:15:00 PM 14.36 57.848 0.108 7.03 4.97 9.09
9/29/2021 9:30:00 PM 14.33 57.794 0.108 7.02 6.62 9.06
9/29/2021 9:45:00 PM 14.29 57.722 0.108 7.01 5.77 9.06
9/29/2021 10:00:00 PM 14.26 57.668 0.108 7 6.13 9.05
9/29/2021 10:15:00 PM 14.23 57.614 0.109 6.99 5.3 9.06
9/29/2021 10:30:00 PM 14.2 57.56 0.109 6.99 5.24 9.04
9/29/2021 10:45:00 PM 14.17 57.506 0.109 6.99 4.99 9.05
9/29/2021 11:00:00 PM 14.13 57.434 0.109 6.98 5.01 9.07
9/29/2021 11:15:00 PM 14.1 57.38 0.109 6.98 5.78 9.06
9/29/2021 11:30:00 PM 14.07 57.326 0.109 6.98 6.83 9.07
9/29/2021 11:45:00 PM 14.04 57.272 0.109 6.98 5.07 9.08
9/30/2021 12:00:00 AM 14.01 57.218 0.109 6.97 5.05 9.08
9/30/2021 12:15:00 AM 13.98 57.164 0.109 6.97 4.88 9.07
9/30/2021 12:30:00 AM 13.95 57.11 0.109 6.97 5.07 9.09
9/30/2021 12:45:00 AM 13.92 57.056 0.109 6.97 4.96 9.09
9/30/2021 1:00:00 AM 13.89 57.002 0.109 6.97 5.36 9.13
9/30/2021 1:15:00 AM 13.86 56.948 0.109 6.96 5.44 9.12
9/30/2021 1:30:00 AM 13.84 56.912 0.109 6.96 5.17 9.12
9/30/2021 1:45:00 AM 13.81 56.858 0.109 6.96 5.35 9.13
9/30/2021 2:00:00 AM 13.79 56.822 0.109 6.96 5.01 9.14
9/30/2021 2:15:00 AM 13.77 56.786 0.109 6.96 5.19 9.12
9/30/2021 2:30:00 AM 13.74 56.732 0.109 6.96 5.27 9.14
9/30/2021 2:45:00 AM 13.71 56.678 0.109 6.96 4.95 9.16
9/30/2021 3:00:00 AM 13.69 56.642 0.11 6.96 5.17 9.17
9/30/2021 3:15:00 AM 13.67 56.606 0.109 6.97 5.25 9.18
9/30/2021 3:30:00 AM 13.65 56.57 0.109 6.96 5.78 9.17
9/30/2021 3:45:00 AM 13.63 56.534 0.11 6.95 5.18 9.19
9/30/2021 4:00:00 AM 13.61 56.498 0.109 6.96 4.97 9.19
9/30/2021 4:15:00 AM 13.58 56.444 0.109 6.96 5.09 9.2
9/30/2021 4:30:00 AM 13.56 56.408 0.109 6.95 6.23 9.2
9/30/2021 4:45:00 AM 13.54 56.372 0.109 6.96 5.48 9.2
9/30/2021 5:00:00 AM 13.51 56.318 0.109 6.95 5.65 9.21
9/30/2021 5:15:00 AM 13.48 56.264 0.109 6.95 6.35 9.24
9/30/2021 5:30:00 AM 13.46 56.228 0.109 6.93 9.13 9.24
9/30/2021 5:45:00 AM 13.45 56.21 0.109 6.94 6.44 9.25
9/30/2021 6:00:00 AM 13.43 56.174 0.109 6.95 7.29 9.23
9/30/2021 6:15:00 AM 13.41 56.138 0.109 6.95 13.16 9.25
9/30/2021 6:30:00 AM 13.39 56.102 0.109 6.96 9.51 9.25
9/30/2021 6:45:00 AM 13.36 56.048 0.109 6.95 12.32 9.28
9/30/2021 7:00:00 AM 13.33 55.994 0.109 6.94 14.32 9.23
9/30/2021 7:15:00 AM 13.28 55.904 0.109 6.95 9.29 9.26
9/30/2021 7:30:00 AM 13.24 55.832 0.109 6.95 9.54 9.3
9/30/2021 7:45:00 AM 13.21 55.778 0.109 6.96 8.71 9.33
9/30/2021 8:00:00 AM 13.18 55.724 0.109 6.97 7.05 9.43
9/30/2021 8:15:00 AM 13.17 55.706 0.109 6.98 7.09 9.54
9/30/2021 8:30:00 AM 13.17 55.706 0.109 7 5.76 9.71
9/30/2021 8:45:00 AM 13.18 55.724 0.109 7.02 5.46 9.85
9/30/2021 9:00:00 AM 13.18 55.724 0.109 7.04 5.1 9.97
9/30/2021 9:15:00 AM 13.2 55.76 0.109 7.08 4.95 10.14
9/30/2021 9:30:00 AM 13.23 55.814 0.109 7.1 4.73 10.35
9/30/2021 9:45:00 AM 13.25 55.85 0.109 7.13 4.66 10.45
9/30/2021 10:00:00 AM 13.28 55.904 0.109 7.17 4.47 10.6
9/30/2021 10:15:00 AM 13.32 55.976 0.108 7.21 4.52 10.69
9